<?xml version="1.0" encoding="UTF-8" standalone="no" ?>
<gpx xmlns="http://www.topografix.com/GPX/1/1" xmlns:xsi="http://www.w3.org/2001/XMLSchema-instance" xsi:schemaLocation="http://www.topografix.com/GPX/1/1 http://www.topografix.com/GPX/1/1/gpx.xsd" version="1.1" creator="VisuGPX - https://www.visugpx.com">
  <metadata>
    <name>Trace les Aiguières et le col d\'Allègre</name>
    <desc><![CDATA[Sortie à la journée effectuée par 18 randonneurs du SCLapalud le jeudi 10 mai 2012]]></desc>
  </metadata>
  <trk>
    <name><![CDATA[ACTIVE LOG 001]]></name>
    <trkseg>
      <trkpt lat="44.17734" lon="4.23898">
        <ele>33.302856</ele>
        <time>2012-05-10T09:15:59Z</time>
      </trkpt>
      <trkpt lat="44.1773" lon="4.23888">
        <ele>38.109375</ele>
        <time>2012-05-10T09:16:15Z</time>
      </trkpt>
      <trkpt lat="44.1773" lon="4.23888">
        <ele>41.954712</ele>
        <time>2012-05-10T09:16:16Z</time>
      </trkpt>
      <trkpt lat="44.1773" lon="4.23888">
        <ele>45.319214</ele>
        <time>2012-05-10T09:16:17Z</time>
      </trkpt>
      <trkpt lat="44.1773" lon="4.23887">
        <ele>48.68396</ele>
        <time>2012-05-10T09:16:18Z</time>
      </trkpt>
      <trkpt lat="44.17731" lon="4.23887">
        <ele>52.048584</ele>
        <time>2012-05-10T09:16:19Z</time>
      </trkpt>
      <trkpt lat="44.17731" lon="4.23887">
        <ele>57.335815</ele>
        <time>2012-05-10T09:16:21Z</time>
      </trkpt>
      <trkpt lat="44.17731" lon="4.23888">
        <ele>61.18103</ele>
        <time>2012-05-10T09:16:22Z</time>
      </trkpt>
      <trkpt lat="44.17731" lon="4.23888">
        <ele>66.468262</ele>
        <time>2012-05-10T09:16:24Z</time>
      </trkpt>
      <trkpt lat="44.17731" lon="4.23889">
        <ele>71.274902</ele>
        <time>2012-05-10T09:16:26Z</time>
      </trkpt>
      <trkpt lat="44.17731" lon="4.23889">
        <ele>76.562134</ele>
        <time>2012-05-10T09:16:28Z</time>
      </trkpt>
      <trkpt lat="44.17731" lon="4.23889">
        <ele>80.888184</ele>
        <time>2012-05-10T09:16:30Z</time>
      </trkpt>
      <trkpt lat="44.1773" lon="4.23889">
        <ele>84.733398</ele>
        <time>2012-05-10T09:16:32Z</time>
      </trkpt>
      <trkpt lat="44.1773" lon="4.23889">
        <ele>89.059326</ele>
        <time>2012-05-10T09:16:34Z</time>
      </trkpt>
      <trkpt lat="44.1773" lon="4.23889">
        <ele>92.904541</ele>
        <time>2012-05-10T09:16:36Z</time>
      </trkpt>
      <trkpt lat="44.1773" lon="4.23889">
        <ele>98.191895</ele>
        <time>2012-05-10T09:16:39Z</time>
      </trkpt>
      <trkpt lat="44.1773" lon="4.23889">
        <ele>101.075684</ele>
        <time>2012-05-10T09:16:41Z</time>
      </trkpt>
      <trkpt lat="44.1773" lon="4.23889">
        <ele>105.401733</ele>
        <time>2012-05-10T09:16:44Z</time>
      </trkpt>
      <trkpt lat="44.1773" lon="4.23889">
        <ele>109.246948</ele>
        <time>2012-05-10T09:16:47Z</time>
      </trkpt>
      <trkpt lat="44.1773" lon="4.23889">
        <ele>112.611572</ele>
        <time>2012-05-10T09:16:50Z</time>
      </trkpt>
      <trkpt lat="44.1773" lon="4.23889">
        <ele>116.456787</ele>
        <time>2012-05-10T09:16:54Z</time>
      </trkpt>
      <trkpt lat="44.1773" lon="4.23889">
        <ele>119.821411</ele>
        <time>2012-05-10T09:16:57Z</time>
      </trkpt>
      <trkpt lat="44.1773" lon="4.23889">
        <ele>121.26355</ele>
        <time>2012-05-10T09:16:59Z</time>
      </trkpt>
      <trkpt lat="44.1773" lon="4.23889">
        <ele>123.666748</ele>
        <time>2012-05-10T09:17:02Z</time>
      </trkpt>
      <trkpt lat="44.1773" lon="4.23889">
        <ele>126.550659</ele>
        <time>2012-05-10T09:17:06Z</time>
      </trkpt>
      <trkpt lat="44.1773" lon="4.23889">
        <ele>127.992554</ele>
        <time>2012-05-10T09:17:09Z</time>
      </trkpt>
      <trkpt lat="44.1773" lon="4.23889">
        <ele>128.954102</ele>
        <time>2012-05-10T09:17:11Z</time>
      </trkpt>
      <trkpt lat="44.1773" lon="4.23889">
        <ele>132.318604</ele>
        <time>2012-05-10T09:17:17Z</time>
      </trkpt>
      <trkpt lat="44.1773" lon="4.23889">
        <ele>135.202515</ele>
        <time>2012-05-10T09:17:25Z</time>
      </trkpt>
      <trkpt lat="44.1773" lon="4.23889">
        <ele>136.16394</ele>
        <time>2012-05-10T09:17:27Z</time>
      </trkpt>
      <trkpt lat="44.1773" lon="4.23888">
        <ele>139.047852</ele>
        <time>2012-05-10T09:17:36Z</time>
      </trkpt>
      <trkpt lat="44.1773" lon="4.23888">
        <ele>142.412476</ele>
        <time>2012-05-10T09:17:49Z</time>
      </trkpt>
      <trkpt lat="44.17732" lon="4.23892">
        <ele>146.257813</ele>
        <time>2012-05-10T09:18:12Z</time>
      </trkpt>
      <trkpt lat="44.17741" lon="4.23899">
        <ele>145.7771</ele>
        <time>2012-05-10T09:18:27Z</time>
      </trkpt>
      <trkpt lat="44.17755" lon="4.23906">
        <ele>144.815796</ele>
        <time>2012-05-10T09:18:42Z</time>
      </trkpt>
      <trkpt lat="44.17768" lon="4.23916">
        <ele>144.815796</ele>
        <time>2012-05-10T09:18:57Z</time>
      </trkpt>
      <trkpt lat="44.17781" lon="4.23929">
        <ele>144.815796</ele>
        <time>2012-05-10T09:19:13Z</time>
      </trkpt>
      <trkpt lat="44.17789" lon="4.23939">
        <ele>145.296387</ele>
        <time>2012-05-10T09:19:24Z</time>
      </trkpt>
      <trkpt lat="44.17794" lon="4.23943">
        <ele>145.7771</ele>
        <time>2012-05-10T09:19:30Z</time>
      </trkpt>
      <trkpt lat="44.17807" lon="4.23952">
        <ele>146.738403</ele>
        <time>2012-05-10T09:19:45Z</time>
      </trkpt>
      <trkpt lat="44.17808" lon="4.23953">
        <ele>146.738403</ele>
        <time>2012-05-10T09:19:49Z</time>
      </trkpt>
      <trkpt lat="44.17822" lon="4.23959">
        <ele>145.296387</ele>
        <time>2012-05-10T09:20:03Z</time>
      </trkpt>
      <trkpt lat="44.17833" lon="4.23973">
        <ele>143.85437</ele>
        <time>2012-05-10T09:20:18Z</time>
      </trkpt>
      <trkpt lat="44.17835" lon="4.23994">
        <ele>141.45105</ele>
        <time>2012-05-10T09:20:34Z</time>
      </trkpt>
      <trkpt lat="44.17828" lon="4.23998">
        <ele>141.45105</ele>
        <time>2012-05-10T09:20:40Z</time>
      </trkpt>
      <trkpt lat="44.17813" lon="4.24003">
        <ele>141.45105</ele>
        <time>2012-05-10T09:20:57Z</time>
      </trkpt>
      <trkpt lat="44.17803" lon="4.24007">
        <ele>142.412476</ele>
        <time>2012-05-10T09:21:12Z</time>
      </trkpt>
      <trkpt lat="44.17797" lon="4.24009">
        <ele>142.412476</ele>
        <time>2012-05-10T09:21:19Z</time>
      </trkpt>
      <trkpt lat="44.17791" lon="4.24009">
        <ele>142.412476</ele>
        <time>2012-05-10T09:21:25Z</time>
      </trkpt>
      <trkpt lat="44.17777" lon="4.24016">
        <ele>141.931763</ele>
        <time>2012-05-10T09:21:42Z</time>
      </trkpt>
      <trkpt lat="44.17775" lon="4.24019">
        <ele>141.931763</ele>
        <time>2012-05-10T09:21:46Z</time>
      </trkpt>
      <trkpt lat="44.17763" lon="4.24037">
        <ele>141.931763</ele>
        <time>2012-05-10T09:22:04Z</time>
      </trkpt>
      <trkpt lat="44.17759" lon="4.24046">
        <ele>141.931763</ele>
        <time>2012-05-10T09:22:12Z</time>
      </trkpt>
      <trkpt lat="44.17754" lon="4.24072">
        <ele>142.412476</ele>
        <time>2012-05-10T09:22:31Z</time>
      </trkpt>
      <trkpt lat="44.17752" lon="4.24082">
        <ele>142.893066</ele>
        <time>2012-05-10T09:22:38Z</time>
      </trkpt>
      <trkpt lat="44.17742" lon="4.24097">
        <ele>142.893066</ele>
        <time>2012-05-10T09:22:54Z</time>
      </trkpt>
      <trkpt lat="44.17727" lon="4.24117">
        <ele>144.335205</ele>
        <time>2012-05-10T09:23:14Z</time>
      </trkpt>
      <trkpt lat="44.17725" lon="4.24124">
        <ele>145.296387</ele>
        <time>2012-05-10T09:23:21Z</time>
      </trkpt>
      <trkpt lat="44.17724" lon="4.24137">
        <ele>146.738403</ele>
        <time>2012-05-10T09:23:33Z</time>
      </trkpt>
      <trkpt lat="44.17719" lon="4.24154">
        <ele>149.622314</ele>
        <time>2012-05-10T09:23:53Z</time>
      </trkpt>
      <trkpt lat="44.17718" lon="4.24172">
        <ele>151.544922</ele>
        <time>2012-05-10T09:24:09Z</time>
      </trkpt>
      <trkpt lat="44.17719" lon="4.24191">
        <ele>153.948364</ele>
        <time>2012-05-10T09:24:27Z</time>
      </trkpt>
      <trkpt lat="44.17716" lon="4.24201">
        <ele>155.390259</ele>
        <time>2012-05-10T09:24:42Z</time>
      </trkpt>
      <trkpt lat="44.17709" lon="4.24209">
        <ele>156.832153</ele>
        <time>2012-05-10T09:24:55Z</time>
      </trkpt>
      <trkpt lat="44.17699" lon="4.24222">
        <ele>160.196899</ele>
        <time>2012-05-10T09:25:14Z</time>
      </trkpt>
      <trkpt lat="44.1769" lon="4.24229">
        <ele>163.080811</ele>
        <time>2012-05-10T09:25:32Z</time>
      </trkpt>
      <trkpt lat="44.1768" lon="4.2424">
        <ele>165.964722</ele>
        <time>2012-05-10T09:25:50Z</time>
      </trkpt>
      <trkpt lat="44.1767" lon="4.24245">
        <ele>168.368042</ele>
        <time>2012-05-10T09:26:06Z</time>
      </trkpt>
      <trkpt lat="44.17662" lon="4.24252">
        <ele>170.290649</ele>
        <time>2012-05-10T09:26:21Z</time>
      </trkpt>
      <trkpt lat="44.17652" lon="4.24263">
        <ele>172.213257</ele>
        <time>2012-05-10T09:26:40Z</time>
      </trkpt>
      <trkpt lat="44.17648" lon="4.24275">
        <ele>174.135864</ele>
        <time>2012-05-10T09:26:57Z</time>
      </trkpt>
      <trkpt lat="44.17639" lon="4.24282">
        <ele>176.058594</ele>
        <time>2012-05-10T09:27:14Z</time>
      </trkpt>
      <trkpt lat="44.17622" lon="4.24273">
        <ele>178.942627</ele>
        <time>2012-05-10T09:27:36Z</time>
      </trkpt>
      <trkpt lat="44.17617" lon="4.24276">
        <ele>180.384521</ele>
        <time>2012-05-10T09:27:51Z</time>
      </trkpt>
      <trkpt lat="44.17616" lon="4.24287">
        <ele>182.307129</ele>
        <time>2012-05-10T09:28:11Z</time>
      </trkpt>
      <trkpt lat="44.17618" lon="4.24305">
        <ele>184.710571</ele>
        <time>2012-05-10T09:28:28Z</time>
      </trkpt>
      <trkpt lat="44.17614" lon="4.24319">
        <ele>187.11377</ele>
        <time>2012-05-10T09:28:44Z</time>
      </trkpt>
      <trkpt lat="44.1761" lon="4.24332">
        <ele>189.036377</ele>
        <time>2012-05-10T09:28:59Z</time>
      </trkpt>
      <trkpt lat="44.17603" lon="4.24347">
        <ele>190.478394</ele>
        <time>2012-05-10T09:29:12Z</time>
      </trkpt>
      <trkpt lat="44.176" lon="4.24361">
        <ele>191.920288</ele>
        <time>2012-05-10T09:29:25Z</time>
      </trkpt>
      <trkpt lat="44.17596" lon="4.24378">
        <ele>192.401123</ele>
        <time>2012-05-10T09:29:40Z</time>
      </trkpt>
      <trkpt lat="44.17594" lon="4.24392">
        <ele>193.843018</ele>
        <time>2012-05-10T09:29:54Z</time>
      </trkpt>
      <trkpt lat="44.1759" lon="4.24416">
        <ele>196.246338</ele>
        <time>2012-05-10T09:30:16Z</time>
      </trkpt>
      <trkpt lat="44.17582" lon="4.24437">
        <ele>198.168945</ele>
        <time>2012-05-10T09:30:35Z</time>
      </trkpt>
      <trkpt lat="44.17574" lon="4.24452">
        <ele>200.091675</ele>
        <time>2012-05-10T09:30:53Z</time>
      </trkpt>
      <trkpt lat="44.17568" lon="4.24472">
        <ele>202.494873</ele>
        <time>2012-05-10T09:31:14Z</time>
      </trkpt>
      <trkpt lat="44.17563" lon="4.24492">
        <ele>204.898071</ele>
        <time>2012-05-10T09:31:37Z</time>
      </trkpt>
      <trkpt lat="44.17558" lon="4.24506">
        <ele>206.820679</ele>
        <time>2012-05-10T09:31:54Z</time>
      </trkpt>
      <trkpt lat="44.17552" lon="4.24519">
        <ele>208.743408</ele>
        <time>2012-05-10T09:32:09Z</time>
      </trkpt>
      <trkpt lat="44.17545" lon="4.24539">
        <ele>211.627441</ele>
        <time>2012-05-10T09:32:29Z</time>
      </trkpt>
      <trkpt lat="44.17539" lon="4.24555">
        <ele>213.550049</ele>
        <time>2012-05-10T09:32:46Z</time>
      </trkpt>
      <trkpt lat="44.17537" lon="4.24563">
        <ele>214.991943</ele>
        <time>2012-05-10T09:32:56Z</time>
      </trkpt>
      <trkpt lat="44.17532" lon="4.24577">
        <ele>216.43396</ele>
        <time>2012-05-10T09:33:10Z</time>
      </trkpt>
      <trkpt lat="44.17528" lon="4.24595">
        <ele>218.356567</ele>
        <time>2012-05-10T09:33:28Z</time>
      </trkpt>
      <trkpt lat="44.17525" lon="4.24607">
        <ele>220.279175</ele>
        <time>2012-05-10T09:33:42Z</time>
      </trkpt>
      <trkpt lat="44.17522" lon="4.24621">
        <ele>222.201782</ele>
        <time>2012-05-10T09:33:57Z</time>
      </trkpt>
      <trkpt lat="44.17523" lon="4.24642">
        <ele>224.124512</ele>
        <time>2012-05-10T09:34:14Z</time>
      </trkpt>
      <trkpt lat="44.1752" lon="4.24666">
        <ele>226.047119</ele>
        <time>2012-05-10T09:34:32Z</time>
      </trkpt>
      <trkpt lat="44.17517" lon="4.24678">
        <ele>227.489136</ele>
        <time>2012-05-10T09:34:47Z</time>
      </trkpt>
      <trkpt lat="44.17515" lon="4.24696">
        <ele>228.931152</ele>
        <time>2012-05-10T09:35:03Z</time>
      </trkpt>
      <trkpt lat="44.1751" lon="4.24711">
        <ele>230.373047</ele>
        <time>2012-05-10T09:35:19Z</time>
      </trkpt>
      <trkpt lat="44.17501" lon="4.24713">
        <ele>231.334351</ele>
        <time>2012-05-10T09:35:44Z</time>
      </trkpt>
      <trkpt lat="44.17502" lon="4.24713">
        <ele>231.334351</ele>
        <time>2012-05-10T09:36:57Z</time>
      </trkpt>
      <trkpt lat="44.17502" lon="4.24713">
        <ele>231.334351</ele>
        <time>2012-05-10T09:37:31Z</time>
      </trkpt>
      <trkpt lat="44.17495" lon="4.24712">
        <ele>232.295776</ele>
        <time>2012-05-10T09:38:27Z</time>
      </trkpt>
      <trkpt lat="44.17477" lon="4.2472">
        <ele>233.737671</ele>
        <time>2012-05-10T09:38:44Z</time>
      </trkpt>
      <trkpt lat="44.17464" lon="4.24737">
        <ele>234.218384</ele>
        <time>2012-05-10T09:39:03Z</time>
      </trkpt>
      <trkpt lat="44.17464" lon="4.24739">
        <ele>234.218384</ele>
        <time>2012-05-10T09:39:05Z</time>
      </trkpt>
      <trkpt lat="44.17456" lon="4.24759">
        <ele>235.179688</ele>
        <time>2012-05-10T09:39:20Z</time>
      </trkpt>
      <trkpt lat="44.17446" lon="4.24783">
        <ele>235.660278</ele>
        <time>2012-05-10T09:39:39Z</time>
      </trkpt>
      <trkpt lat="44.17443" lon="4.24792">
        <ele>235.660278</ele>
        <time>2012-05-10T09:39:46Z</time>
      </trkpt>
      <trkpt lat="44.1744" lon="4.24807">
        <ele>236.140991</ele>
        <time>2012-05-10T09:39:58Z</time>
      </trkpt>
      <trkpt lat="44.1744" lon="4.24816">
        <ele>236.621704</ele>
        <time>2012-05-10T09:40:05Z</time>
      </trkpt>
      <trkpt lat="44.1743" lon="4.24847">
        <ele>238.063599</ele>
        <time>2012-05-10T09:40:28Z</time>
      </trkpt>
      <trkpt lat="44.17424" lon="4.24866">
        <ele>239.024902</ele>
        <time>2012-05-10T09:40:44Z</time>
      </trkpt>
      <trkpt lat="44.17417" lon="4.24889">
        <ele>239.986206</ele>
        <time>2012-05-10T09:41:02Z</time>
      </trkpt>
      <trkpt lat="44.17407" lon="4.24928">
        <ele>240.467041</ele>
        <time>2012-05-10T09:41:30Z</time>
      </trkpt>
      <trkpt lat="44.17404" lon="4.24941">
        <ele>240.467041</ele>
        <time>2012-05-10T09:41:39Z</time>
      </trkpt>
      <trkpt lat="44.17392" lon="4.24969">
        <ele>239.986206</ele>
        <time>2012-05-10T09:42:01Z</time>
      </trkpt>
      <trkpt lat="44.17388" lon="4.24991">
        <ele>238.063599</ele>
        <time>2012-05-10T09:42:16Z</time>
      </trkpt>
      <trkpt lat="44.17382" lon="4.25024">
        <ele>236.621704</ele>
        <time>2012-05-10T09:42:39Z</time>
      </trkpt>
      <trkpt lat="44.17374" lon="4.25048">
        <ele>235.179688</ele>
        <time>2012-05-10T09:42:57Z</time>
      </trkpt>
      <trkpt lat="44.17373" lon="4.25049">
        <ele>235.179688</ele>
        <time>2012-05-10T09:42:58Z</time>
      </trkpt>
      <trkpt lat="44.17364" lon="4.25061">
        <ele>234.218384</ele>
        <time>2012-05-10T09:43:10Z</time>
      </trkpt>
      <trkpt lat="44.17362" lon="4.25065">
        <ele>234.218384</ele>
        <time>2012-05-10T09:43:13Z</time>
      </trkpt>
      <trkpt lat="44.17362" lon="4.25067">
        <ele>234.218384</ele>
        <time>2012-05-10T09:43:15Z</time>
      </trkpt>
      <trkpt lat="44.17349" lon="4.25087">
        <ele>234.699097</ele>
        <time>2012-05-10T09:43:34Z</time>
      </trkpt>
      <trkpt lat="44.17343" lon="4.25101">
        <ele>235.660278</ele>
        <time>2012-05-10T09:43:45Z</time>
      </trkpt>
      <trkpt lat="44.17346" lon="4.25113">
        <ele>236.140991</ele>
        <time>2012-05-10T09:43:54Z</time>
      </trkpt>
      <trkpt lat="44.17352" lon="4.25131">
        <ele>238.544312</ele>
        <time>2012-05-10T09:44:14Z</time>
      </trkpt>
      <trkpt lat="44.17356" lon="4.25135">
        <ele>239.505493</ele>
        <time>2012-05-10T09:44:34Z</time>
      </trkpt>
      <trkpt lat="44.17367" lon="4.25148">
        <ele>241.908936</ele>
        <time>2012-05-10T09:44:53Z</time>
      </trkpt>
      <trkpt lat="44.17377" lon="4.25154">
        <ele>242.389648</ele>
        <time>2012-05-10T09:45:05Z</time>
      </trkpt>
      <trkpt lat="44.17391" lon="4.2516">
        <ele>243.35083</ele>
        <time>2012-05-10T09:45:21Z</time>
      </trkpt>
      <trkpt lat="44.17404" lon="4.25171">
        <ele>244.312256</ele>
        <time>2012-05-10T09:45:38Z</time>
      </trkpt>
      <trkpt lat="44.17407" lon="4.25177">
        <ele>244.792847</ele>
        <time>2012-05-10T09:45:43Z</time>
      </trkpt>
      <trkpt lat="44.17409" lon="4.25188">
        <ele>245.75415</ele>
        <time>2012-05-10T09:45:54Z</time>
      </trkpt>
      <trkpt lat="44.17407" lon="4.25197">
        <ele>246.234863</ele>
        <time>2012-05-10T09:46:02Z</time>
      </trkpt>
      <trkpt lat="44.17395" lon="4.25209">
        <ele>247.196045</ele>
        <time>2012-05-10T09:46:18Z</time>
      </trkpt>
      <trkpt lat="44.17382" lon="4.25222">
        <ele>248.638184</ele>
        <time>2012-05-10T09:46:34Z</time>
      </trkpt>
      <trkpt lat="44.17363" lon="4.25235">
        <ele>250.0802</ele>
        <time>2012-05-10T09:46:53Z</time>
      </trkpt>
      <trkpt lat="44.17345" lon="4.25237">
        <ele>251.522095</ele>
        <time>2012-05-10T09:47:16Z</time>
      </trkpt>
      <trkpt lat="44.17327" lon="4.25246">
        <ele>253.444702</ele>
        <time>2012-05-10T09:47:39Z</time>
      </trkpt>
      <trkpt lat="44.17311" lon="4.25251">
        <ele>254.886597</ele>
        <time>2012-05-10T09:47:58Z</time>
      </trkpt>
      <trkpt lat="44.17295" lon="4.25263">
        <ele>256.809326</ele>
        <time>2012-05-10T09:48:17Z</time>
      </trkpt>
      <trkpt lat="44.17287" lon="4.25276">
        <ele>258.251343</ele>
        <time>2012-05-10T09:48:32Z</time>
      </trkpt>
      <trkpt lat="44.17284" lon="4.25296">
        <ele>260.17395</ele>
        <time>2012-05-10T09:48:50Z</time>
      </trkpt>
      <trkpt lat="44.17284" lon="4.25299">
        <ele>260.17395</ele>
        <time>2012-05-10T09:48:52Z</time>
      </trkpt>
      <trkpt lat="44.1728" lon="4.25316">
        <ele>262.577148</ele>
        <time>2012-05-10T09:49:07Z</time>
      </trkpt>
      <trkpt lat="44.17276" lon="4.25333">
        <ele>264.019287</ele>
        <time>2012-05-10T09:49:23Z</time>
      </trkpt>
      <trkpt lat="44.17272" lon="4.2535">
        <ele>266.422485</ele>
        <time>2012-05-10T09:49:42Z</time>
      </trkpt>
      <trkpt lat="44.17269" lon="4.25372">
        <ele>268.825806</ele>
        <time>2012-05-10T09:49:59Z</time>
      </trkpt>
      <trkpt lat="44.17272" lon="4.25391">
        <ele>270.748413</ele>
        <time>2012-05-10T09:50:17Z</time>
      </trkpt>
      <trkpt lat="44.17277" lon="4.25407">
        <ele>272.671143</ele>
        <time>2012-05-10T09:50:34Z</time>
      </trkpt>
      <trkpt lat="44.17281" lon="4.25431">
        <ele>274.59375</ele>
        <time>2012-05-10T09:50:53Z</time>
      </trkpt>
      <trkpt lat="44.17285" lon="4.25458">
        <ele>276.516357</ele>
        <time>2012-05-10T09:51:13Z</time>
      </trkpt>
      <trkpt lat="44.17284" lon="4.25489">
        <ele>275.555054</ele>
        <time>2012-05-10T09:51:34Z</time>
      </trkpt>
      <trkpt lat="44.17284" lon="4.25516">
        <ele>274.59375</ele>
        <time>2012-05-10T09:51:50Z</time>
      </trkpt>
      <trkpt lat="44.17289" lon="4.25552">
        <ele>271.709717</ele>
        <time>2012-05-10T09:52:13Z</time>
      </trkpt>
      <trkpt lat="44.17289" lon="4.25562">
        <ele>271.229126</ele>
        <time>2012-05-10T09:52:19Z</time>
      </trkpt>
      <trkpt lat="44.17288" lon="4.2559">
        <ele>269.306519</ele>
        <time>2012-05-10T09:52:38Z</time>
      </trkpt>
      <trkpt lat="44.17288" lon="4.25595">
        <ele>269.306519</ele>
        <time>2012-05-10T09:52:41Z</time>
      </trkpt>
      <trkpt lat="44.17286" lon="4.25617">
        <ele>269.787109</ele>
        <time>2012-05-10T09:53:00Z</time>
      </trkpt>
      <trkpt lat="44.17285" lon="4.25616">
        <ele>269.787109</ele>
        <time>2012-05-10T09:53:44Z</time>
      </trkpt>
      <trkpt lat="44.17285" lon="4.25616">
        <ele>269.787109</ele>
        <time>2012-05-10T09:54:50Z</time>
      </trkpt>
      <trkpt lat="44.17286" lon="4.25618">
        <ele>270.2677</ele>
        <time>2012-05-10T09:57:01Z</time>
      </trkpt>
      <trkpt lat="44.17282" lon="4.25637">
        <ele>271.709717</ele>
        <time>2012-05-10T09:57:17Z</time>
      </trkpt>
      <trkpt lat="44.17287" lon="4.25654">
        <ele>273.632446</ele>
        <time>2012-05-10T09:57:32Z</time>
      </trkpt>
      <trkpt lat="44.17295" lon="4.2567">
        <ele>276.035645</ele>
        <time>2012-05-10T09:57:50Z</time>
      </trkpt>
      <trkpt lat="44.17291" lon="4.25682">
        <ele>277.958252</ele>
        <time>2012-05-10T09:58:07Z</time>
      </trkpt>
      <trkpt lat="44.17292" lon="4.25689">
        <ele>278.919678</ele>
        <time>2012-05-10T09:58:15Z</time>
      </trkpt>
      <trkpt lat="44.1729" lon="4.25701">
        <ele>281.322998</ele>
        <time>2012-05-10T09:58:30Z</time>
      </trkpt>
      <trkpt lat="44.17294" lon="4.25724">
        <ele>284.206909</ele>
        <time>2012-05-10T09:58:51Z</time>
      </trkpt>
      <trkpt lat="44.17295" lon="4.25744">
        <ele>286.610229</ele>
        <time>2012-05-10T09:59:11Z</time>
      </trkpt>
      <trkpt lat="44.17281" lon="4.2576">
        <ele>289.01355</ele>
        <time>2012-05-10T09:59:34Z</time>
      </trkpt>
      <trkpt lat="44.17267" lon="4.25769">
        <ele>291.416748</ele>
        <time>2012-05-10T09:59:53Z</time>
      </trkpt>
      <trkpt lat="44.17253" lon="4.25783">
        <ele>293.820068</ele>
        <time>2012-05-10T10:00:15Z</time>
      </trkpt>
      <trkpt lat="44.17235" lon="4.25797">
        <ele>297.184692</ele>
        <time>2012-05-10T10:00:41Z</time>
      </trkpt>
      <trkpt lat="44.17215" lon="4.25794">
        <ele>299.588013</ele>
        <time>2012-05-10T10:01:06Z</time>
      </trkpt>
      <trkpt lat="44.17191" lon="4.258">
        <ele>301.991333</ele>
        <time>2012-05-10T10:01:33Z</time>
      </trkpt>
      <trkpt lat="44.17179" lon="4.25803">
        <ele>301.991333</ele>
        <time>2012-05-10T10:01:51Z</time>
      </trkpt>
      <trkpt lat="44.17182" lon="4.25802">
        <ele>302.471924</ele>
        <time>2012-05-10T10:02:07Z</time>
      </trkpt>
      <trkpt lat="44.17181" lon="4.25802">
        <ele>306.317261</ele>
        <time>2012-05-10T10:03:03Z</time>
      </trkpt>
      <trkpt lat="44.17182" lon="4.25804">
        <ele>302.952515</ele>
        <time>2012-05-10T10:03:04Z</time>
      </trkpt>
      <trkpt lat="44.17181" lon="4.25807">
        <ele>302.471924</ele>
        <time>2012-05-10T10:03:06Z</time>
      </trkpt>
      <trkpt lat="44.17186" lon="4.25822">
        <ele>303.433228</ele>
        <time>2012-05-10T10:03:21Z</time>
      </trkpt>
      <trkpt lat="44.17191" lon="4.25847">
        <ele>304.875244</ele>
        <time>2012-05-10T10:03:40Z</time>
      </trkpt>
      <trkpt lat="44.17193" lon="4.25872">
        <ele>306.317261</ele>
        <time>2012-05-10T10:03:59Z</time>
      </trkpt>
      <trkpt lat="44.17198" lon="4.25905">
        <ele>308.239868</ele>
        <time>2012-05-10T10:04:25Z</time>
      </trkpt>
      <trkpt lat="44.17199" lon="4.2592">
        <ele>309.201172</ele>
        <time>2012-05-10T10:04:38Z</time>
      </trkpt>
      <trkpt lat="44.17202" lon="4.25948">
        <ele>310.162476</ele>
        <time>2012-05-10T10:05:00Z</time>
      </trkpt>
      <trkpt lat="44.17209" lon="4.25981">
        <ele>311.604492</ele>
        <time>2012-05-10T10:05:25Z</time>
      </trkpt>
      <trkpt lat="44.1721" lon="4.25984">
        <ele>311.604492</ele>
        <time>2012-05-10T10:05:27Z</time>
      </trkpt>
      <trkpt lat="44.17217" lon="4.26002">
        <ele>312.565796</ele>
        <time>2012-05-10T10:05:41Z</time>
      </trkpt>
      <trkpt lat="44.17217" lon="4.26003">
        <ele>312.565796</ele>
        <time>2012-05-10T10:05:42Z</time>
      </trkpt>
      <trkpt lat="44.17219" lon="4.26008">
        <ele>313.046509</ele>
        <time>2012-05-10T10:05:46Z</time>
      </trkpt>
      <trkpt lat="44.17229" lon="4.26037">
        <ele>314.488403</ele>
        <time>2012-05-10T10:06:10Z</time>
      </trkpt>
      <trkpt lat="44.17237" lon="4.26058">
        <ele>315.93042</ele>
        <time>2012-05-10T10:06:27Z</time>
      </trkpt>
      <trkpt lat="44.17246" lon="4.26072">
        <ele>316.891724</ele>
        <time>2012-05-10T10:06:42Z</time>
      </trkpt>
      <trkpt lat="44.17257" lon="4.26087">
        <ele>318.333618</ele>
        <time>2012-05-10T10:07:00Z</time>
      </trkpt>
      <trkpt lat="44.17271" lon="4.26103">
        <ele>319.295044</ele>
        <time>2012-05-10T10:07:17Z</time>
      </trkpt>
      <trkpt lat="44.17277" lon="4.26115">
        <ele>319.775635</ele>
        <time>2012-05-10T10:07:27Z</time>
      </trkpt>
      <trkpt lat="44.17282" lon="4.26126">
        <ele>320.256348</ele>
        <time>2012-05-10T10:07:36Z</time>
      </trkpt>
      <trkpt lat="44.17293" lon="4.26152">
        <ele>321.217773</ele>
        <time>2012-05-10T10:07:59Z</time>
      </trkpt>
      <trkpt lat="44.17297" lon="4.26158">
        <ele>321.217773</ele>
        <time>2012-05-10T10:08:05Z</time>
      </trkpt>
      <trkpt lat="44.17299" lon="4.2616">
        <ele>321.217773</ele>
        <time>2012-05-10T10:08:07Z</time>
      </trkpt>
      <trkpt lat="44.17314" lon="4.26185">
        <ele>321.217773</ele>
        <time>2012-05-10T10:08:31Z</time>
      </trkpt>
      <trkpt lat="44.17331" lon="4.2621">
        <ele>319.295044</ele>
        <time>2012-05-10T10:08:55Z</time>
      </trkpt>
      <trkpt lat="44.17354" lon="4.26207">
        <ele>318.333618</ele>
        <time>2012-05-10T10:09:16Z</time>
      </trkpt>
      <trkpt lat="44.17358" lon="4.26204">
        <ele>318.333618</ele>
        <time>2012-05-10T10:09:20Z</time>
      </trkpt>
      <trkpt lat="44.17372" lon="4.26193">
        <ele>317.372437</ele>
        <time>2012-05-10T10:09:36Z</time>
      </trkpt>
      <trkpt lat="44.17387" lon="4.26181">
        <ele>315.449829</ele>
        <time>2012-05-10T10:09:57Z</time>
      </trkpt>
      <trkpt lat="44.17394" lon="4.26175">
        <ele>314.488403</ele>
        <time>2012-05-10T10:10:13Z</time>
      </trkpt>
      <trkpt lat="44.17403" lon="4.26164">
        <ele>313.046509</ele>
        <time>2012-05-10T10:10:35Z</time>
      </trkpt>
      <trkpt lat="44.17409" lon="4.26158">
        <ele>312.085205</ele>
        <time>2012-05-10T10:10:52Z</time>
      </trkpt>
      <trkpt lat="44.17413" lon="4.26154">
        <ele>311.604492</ele>
        <time>2012-05-10T10:11:24Z</time>
      </trkpt>
      <trkpt lat="44.17426" lon="4.2614">
        <ele>308.239868</ele>
        <time>2012-05-10T10:11:42Z</time>
      </trkpt>
      <trkpt lat="44.17441" lon="4.26125">
        <ele>305.355957</ele>
        <time>2012-05-10T10:12:02Z</time>
      </trkpt>
      <trkpt lat="44.17458" lon="4.26113">
        <ele>302.952515</ele>
        <time>2012-05-10T10:12:19Z</time>
      </trkpt>
      <trkpt lat="44.17477" lon="4.26102">
        <ele>301.51062</ele>
        <time>2012-05-10T10:12:38Z</time>
      </trkpt>
      <trkpt lat="44.17506" lon="4.26086">
        <ele>301.029907</ele>
        <time>2012-05-10T10:13:07Z</time>
      </trkpt>
      <trkpt lat="44.17516" lon="4.26082">
        <ele>301.029907</ele>
        <time>2012-05-10T10:13:18Z</time>
      </trkpt>
      <trkpt lat="44.17534" lon="4.26074">
        <ele>301.51062</ele>
        <time>2012-05-10T10:13:36Z</time>
      </trkpt>
      <trkpt lat="44.17544" lon="4.26067">
        <ele>301.51062</ele>
        <time>2012-05-10T10:13:47Z</time>
      </trkpt>
      <trkpt lat="44.17551" lon="4.26063">
        <ele>301.029907</ele>
        <time>2012-05-10T10:13:55Z</time>
      </trkpt>
      <trkpt lat="44.17575" lon="4.26056">
        <ele>299.588013</ele>
        <time>2012-05-10T10:14:18Z</time>
      </trkpt>
      <trkpt lat="44.17602" lon="4.26051">
        <ele>297.184692</ele>
        <time>2012-05-10T10:14:44Z</time>
      </trkpt>
      <trkpt lat="44.17625" lon="4.26047">
        <ele>296.704102</ele>
        <time>2012-05-10T10:15:06Z</time>
      </trkpt>
      <trkpt lat="44.17645" lon="4.26039">
        <ele>295.261963</ele>
        <time>2012-05-10T10:15:26Z</time>
      </trkpt>
      <trkpt lat="44.17668" lon="4.26033">
        <ele>293.820068</ele>
        <time>2012-05-10T10:15:49Z</time>
      </trkpt>
      <trkpt lat="44.17685" lon="4.26034">
        <ele>294.300781</ele>
        <time>2012-05-10T10:16:07Z</time>
      </trkpt>
      <trkpt lat="44.17702" lon="4.26038">
        <ele>294.300781</ele>
        <time>2012-05-10T10:16:25Z</time>
      </trkpt>
      <trkpt lat="44.17715" lon="4.26039">
        <ele>293.339355</ele>
        <time>2012-05-10T10:16:41Z</time>
      </trkpt>
      <trkpt lat="44.17718" lon="4.26042">
        <ele>294.300781</ele>
        <time>2012-05-10T10:16:43Z</time>
      </trkpt>
      <trkpt lat="44.17729" lon="4.2604">
        <ele>292.858765</ele>
        <time>2012-05-10T10:17:03Z</time>
      </trkpt>
      <trkpt lat="44.17745" lon="4.26033">
        <ele>289.974854</ele>
        <time>2012-05-10T10:17:26Z</time>
      </trkpt>
      <trkpt lat="44.17744" lon="4.26022">
        <ele>289.01355</ele>
        <time>2012-05-10T10:17:51Z</time>
      </trkpt>
      <trkpt lat="44.17743" lon="4.26013">
        <ele>287.571411</ele>
        <time>2012-05-10T10:18:09Z</time>
      </trkpt>
      <trkpt lat="44.17743" lon="4.26012">
        <ele>287.09082</ele>
        <time>2012-05-10T10:18:10Z</time>
      </trkpt>
      <trkpt lat="44.17747" lon="4.26007">
        <ele>285.648804</ele>
        <time>2012-05-10T10:18:23Z</time>
      </trkpt>
      <trkpt lat="44.17753" lon="4.26002">
        <ele>284.206909</ele>
        <time>2012-05-10T10:18:39Z</time>
      </trkpt>
      <trkpt lat="44.17753" lon="4.25989">
        <ele>282.284302</ele>
        <time>2012-05-10T10:18:58Z</time>
      </trkpt>
      <trkpt lat="44.17752" lon="4.25982">
        <ele>280.361694</ele>
        <time>2012-05-10T10:19:13Z</time>
      </trkpt>
      <trkpt lat="44.17755" lon="4.25977">
        <ele>278.919678</ele>
        <time>2012-05-10T10:19:30Z</time>
      </trkpt>
      <trkpt lat="44.17758" lon="4.25969">
        <ele>276.516357</ele>
        <time>2012-05-10T10:19:50Z</time>
      </trkpt>
      <trkpt lat="44.17761" lon="4.25959">
        <ele>274.59375</ele>
        <time>2012-05-10T10:20:05Z</time>
      </trkpt>
      <trkpt lat="44.17757" lon="4.25955">
        <ele>272.19043</ele>
        <time>2012-05-10T10:20:18Z</time>
      </trkpt>
      <trkpt lat="44.17753" lon="4.25949">
        <ele>270.2677</ele>
        <time>2012-05-10T10:20:33Z</time>
      </trkpt>
      <trkpt lat="44.1775" lon="4.2595">
        <ele>269.787109</ele>
        <time>2012-05-10T10:20:37Z</time>
      </trkpt>
      <trkpt lat="44.17742" lon="4.25943">
        <ele>267.383911</ele>
        <time>2012-05-10T10:20:54Z</time>
      </trkpt>
      <trkpt lat="44.17736" lon="4.25942">
        <ele>265.461304</ele>
        <time>2012-05-10T10:21:12Z</time>
      </trkpt>
      <trkpt lat="44.17737" lon="4.25935">
        <ele>262.096558</ele>
        <time>2012-05-10T10:21:54Z</time>
      </trkpt>
      <trkpt lat="44.17736" lon="4.25929">
        <ele>260.654541</ele>
        <time>2012-05-10T10:22:05Z</time>
      </trkpt>
      <trkpt lat="44.17735" lon="4.2591">
        <ele>258.731934</ele>
        <time>2012-05-10T10:22:17Z</time>
      </trkpt>
      <trkpt lat="44.17737" lon="4.25906">
        <ele>257.770752</ele>
        <time>2012-05-10T10:22:40Z</time>
      </trkpt>
      <trkpt lat="44.17743" lon="4.25903">
        <ele>256.328735</ele>
        <time>2012-05-10T10:22:52Z</time>
      </trkpt>
      <trkpt lat="44.1775" lon="4.25895">
        <ele>255.36731</ele>
        <time>2012-05-10T10:23:04Z</time>
      </trkpt>
      <trkpt lat="44.17754" lon="4.25894">
        <ele>254.886597</ele>
        <time>2012-05-10T10:23:11Z</time>
      </trkpt>
      <trkpt lat="44.17756" lon="4.25894">
        <ele>254.886597</ele>
        <time>2012-05-10T10:23:19Z</time>
      </trkpt>
      <trkpt lat="44.17762" lon="4.25887">
        <ele>254.406006</ele>
        <time>2012-05-10T10:23:30Z</time>
      </trkpt>
      <trkpt lat="44.1777" lon="4.25883">
        <ele>253.444702</ele>
        <time>2012-05-10T10:23:42Z</time>
      </trkpt>
      <trkpt lat="44.17775" lon="4.25878">
        <ele>252.963989</ele>
        <time>2012-05-10T10:24:01Z</time>
      </trkpt>
      <trkpt lat="44.1778" lon="4.25873">
        <ele>252.002808</ele>
        <time>2012-05-10T10:24:19Z</time>
      </trkpt>
      <trkpt lat="44.17783" lon="4.25868">
        <ele>251.041382</ele>
        <time>2012-05-10T10:25:28Z</time>
      </trkpt>
      <trkpt lat="44.17788" lon="4.25865">
        <ele>250.0802</ele>
        <time>2012-05-10T10:25:45Z</time>
      </trkpt>
      <trkpt lat="44.17787" lon="4.25862">
        <ele>249.118774</ele>
        <time>2012-05-10T10:26:00Z</time>
      </trkpt>
      <trkpt lat="44.17789" lon="4.25858">
        <ele>246.715454</ele>
        <time>2012-05-10T10:26:14Z</time>
      </trkpt>
      <trkpt lat="44.17788" lon="4.25854">
        <ele>244.792847</ele>
        <time>2012-05-10T10:26:40Z</time>
      </trkpt>
      <trkpt lat="44.17788" lon="4.25853">
        <ele>241.428223</ele>
        <time>2012-05-10T10:27:28Z</time>
      </trkpt>
      <trkpt lat="44.17786" lon="4.25846">
        <ele>239.986206</ele>
        <time>2012-05-10T10:27:56Z</time>
      </trkpt>
      <trkpt lat="44.17788" lon="4.25842">
        <ele>239.024902</ele>
        <time>2012-05-10T10:28:10Z</time>
      </trkpt>
      <trkpt lat="44.17789" lon="4.25835">
        <ele>236.140991</ele>
        <time>2012-05-10T10:28:34Z</time>
      </trkpt>
      <trkpt lat="44.17789" lon="4.25826">
        <ele>234.218384</ele>
        <time>2012-05-10T10:28:46Z</time>
      </trkpt>
      <trkpt lat="44.1779" lon="4.25814">
        <ele>232.295776</ele>
        <time>2012-05-10T10:28:58Z</time>
      </trkpt>
      <trkpt lat="44.1779" lon="4.2581">
        <ele>232.295776</ele>
        <time>2012-05-10T10:29:01Z</time>
      </trkpt>
      <trkpt lat="44.17789" lon="4.25799">
        <ele>230.85376</ele>
        <time>2012-05-10T10:29:12Z</time>
      </trkpt>
      <trkpt lat="44.17791" lon="4.25794">
        <ele>230.373047</ele>
        <time>2012-05-10T10:29:21Z</time>
      </trkpt>
      <trkpt lat="44.17792" lon="4.25792">
        <ele>229.892334</ele>
        <time>2012-05-10T10:29:23Z</time>
      </trkpt>
      <trkpt lat="44.17796" lon="4.25782">
        <ele>228.931152</ele>
        <time>2012-05-10T10:29:33Z</time>
      </trkpt>
      <trkpt lat="44.17799" lon="4.25776">
        <ele>226.527832</ele>
        <time>2012-05-10T10:29:52Z</time>
      </trkpt>
      <trkpt lat="44.178" lon="4.25766">
        <ele>225.566528</ele>
        <time>2012-05-10T10:30:01Z</time>
      </trkpt>
      <trkpt lat="44.17802" lon="4.25755">
        <ele>223.643799</ele>
        <time>2012-05-10T10:30:11Z</time>
      </trkpt>
      <trkpt lat="44.17805" lon="4.25747">
        <ele>222.201782</ele>
        <time>2012-05-10T10:30:22Z</time>
      </trkpt>
      <trkpt lat="44.17806" lon="4.25728">
        <ele>219.798584</ele>
        <time>2012-05-10T10:30:36Z</time>
      </trkpt>
      <trkpt lat="44.17806" lon="4.25716">
        <ele>217.395386</ele>
        <time>2012-05-10T10:30:52Z</time>
      </trkpt>
      <trkpt lat="44.17808" lon="4.25706">
        <ele>215.472656</ele>
        <time>2012-05-10T10:31:04Z</time>
      </trkpt>
      <trkpt lat="44.17807" lon="4.25696">
        <ele>212.588623</ele>
        <time>2012-05-10T10:31:22Z</time>
      </trkpt>
      <trkpt lat="44.17807" lon="4.25688">
        <ele>210.666016</ele>
        <time>2012-05-10T10:31:36Z</time>
      </trkpt>
      <trkpt lat="44.17807" lon="4.25687">
        <ele>207.301392</ele>
        <time>2012-05-10T10:32:09Z</time>
      </trkpt>
      <trkpt lat="44.17807" lon="4.25687">
        <ele>208.262817</ele>
        <time>2012-05-10T10:32:10Z</time>
      </trkpt>
      <trkpt lat="44.17807" lon="4.25686">
        <ele>209.224121</ele>
        <time>2012-05-10T10:32:49Z</time>
      </trkpt>
      <trkpt lat="44.17805" lon="4.25684">
        <ele>208.262817</ele>
        <time>2012-05-10T10:33:21Z</time>
      </trkpt>
      <trkpt lat="44.17804" lon="4.25676">
        <ele>207.301392</ele>
        <time>2012-05-10T10:33:36Z</time>
      </trkpt>
      <trkpt lat="44.17803" lon="4.25676">
        <ele>207.301392</ele>
        <time>2012-05-10T10:33:37Z</time>
      </trkpt>
      <trkpt lat="44.17803" lon="4.25678">
        <ele>207.782104</ele>
        <time>2012-05-10T10:33:51Z</time>
      </trkpt>
      <trkpt lat="44.178" lon="4.25687">
        <ele>207.782104</ele>
        <time>2012-05-10T10:34:34Z</time>
      </trkpt>
      <trkpt lat="44.17798" lon="4.25693">
        <ele>206.340088</ele>
        <time>2012-05-10T10:34:51Z</time>
      </trkpt>
      <trkpt lat="44.17796" lon="4.25697">
        <ele>205.378784</ele>
        <time>2012-05-10T10:35:11Z</time>
      </trkpt>
      <trkpt lat="44.17789" lon="4.25693">
        <ele>203.456177</ele>
        <time>2012-05-10T10:35:48Z</time>
      </trkpt>
      <trkpt lat="44.17791" lon="4.2569">
        <ele>204.898071</ele>
        <time>2012-05-10T10:37:31Z</time>
      </trkpt>
      <trkpt lat="44.17797" lon="4.25676">
        <ele>207.782104</ele>
        <time>2012-05-10T10:37:48Z</time>
      </trkpt>
      <trkpt lat="44.17803" lon="4.25679">
        <ele>208.262817</ele>
        <time>2012-05-10T10:38:02Z</time>
      </trkpt>
      <trkpt lat="44.17804" lon="4.25679">
        <ele>208.743408</ele>
        <time>2012-05-10T10:38:35Z</time>
      </trkpt>
      <trkpt lat="44.17804" lon="4.25678">
        <ele>208.743408</ele>
        <time>2012-05-10T10:39:04Z</time>
      </trkpt>
      <trkpt lat="44.17804" lon="4.2568">
        <ele>208.743408</ele>
        <time>2012-05-10T10:40:11Z</time>
      </trkpt>
      <trkpt lat="44.17805" lon="4.2568">
        <ele>208.743408</ele>
        <time>2012-05-10T10:40:46Z</time>
      </trkpt>
      <trkpt lat="44.17804" lon="4.25673">
        <ele>207.301392</ele>
        <time>2012-05-10T10:47:50Z</time>
      </trkpt>
      <trkpt lat="44.17805" lon="4.25667">
        <ele>206.340088</ele>
        <time>2012-05-10T10:48:08Z</time>
      </trkpt>
      <trkpt lat="44.17802" lon="4.25658">
        <ele>204.898071</ele>
        <time>2012-05-10T10:48:22Z</time>
      </trkpt>
      <trkpt lat="44.178" lon="4.25642">
        <ele>202.975464</ele>
        <time>2012-05-10T10:48:40Z</time>
      </trkpt>
      <trkpt lat="44.178" lon="4.2564">
        <ele>202.494873</ele>
        <time>2012-05-10T10:49:02Z</time>
      </trkpt>
      <trkpt lat="44.17802" lon="4.25637">
        <ele>202.494873</ele>
        <time>2012-05-10T10:49:32Z</time>
      </trkpt>
      <trkpt lat="44.17804" lon="4.25636">
        <ele>202.975464</ele>
        <time>2012-05-10T10:49:36Z</time>
      </trkpt>
      <trkpt lat="44.17813" lon="4.25638">
        <ele>203.456177</ele>
        <time>2012-05-10T10:49:50Z</time>
      </trkpt>
      <trkpt lat="44.17815" lon="4.25637">
        <ele>203.93689</ele>
        <time>2012-05-10T10:49:56Z</time>
      </trkpt>
      <trkpt lat="44.17823" lon="4.25634">
        <ele>202.014282</ele>
        <time>2012-05-10T10:50:12Z</time>
      </trkpt>
      <trkpt lat="44.17829" lon="4.25635">
        <ele>200.091675</ele>
        <time>2012-05-10T10:50:27Z</time>
      </trkpt>
      <trkpt lat="44.17835" lon="4.25624">
        <ele>197.20752</ele>
        <time>2012-05-10T10:50:49Z</time>
      </trkpt>
      <trkpt lat="44.17835" lon="4.25624">
        <ele>197.20752</ele>
        <time>2012-05-10T10:51:18Z</time>
      </trkpt>
      <trkpt lat="44.17835" lon="4.25627">
        <ele>197.20752</ele>
        <time>2012-05-10T10:51:37Z</time>
      </trkpt>
      <trkpt lat="44.17843" lon="4.25635">
        <ele>198.168945</ele>
        <time>2012-05-10T10:51:52Z</time>
      </trkpt>
      <trkpt lat="44.17845" lon="4.25642">
        <ele>199.61084</ele>
        <time>2012-05-10T10:52:17Z</time>
      </trkpt>
      <trkpt lat="44.17849" lon="4.25651">
        <ele>202.014282</ele>
        <time>2012-05-10T10:52:37Z</time>
      </trkpt>
      <trkpt lat="44.17851" lon="4.25651">
        <ele>201.052856</ele>
        <time>2012-05-10T10:52:59Z</time>
      </trkpt>
      <trkpt lat="44.17851" lon="4.25645">
        <ele>200.091675</ele>
        <time>2012-05-10T10:53:25Z</time>
      </trkpt>
      <trkpt lat="44.17861" lon="4.25644">
        <ele>197.688232</ele>
        <time>2012-05-10T10:54:07Z</time>
      </trkpt>
      <trkpt lat="44.17867" lon="4.25646">
        <ele>197.20752</ele>
        <time>2012-05-10T10:54:24Z</time>
      </trkpt>
      <trkpt lat="44.17867" lon="4.25645">
        <ele>197.688232</ele>
        <time>2012-05-10T10:54:47Z</time>
      </trkpt>
      <trkpt lat="44.17867" lon="4.25652">
        <ele>198.168945</ele>
        <time>2012-05-10T10:55:49Z</time>
      </trkpt>
      <trkpt lat="44.17867" lon="4.25654">
        <ele>198.168945</ele>
        <time>2012-05-10T10:56:05Z</time>
      </trkpt>
      <trkpt lat="44.17867" lon="4.25652">
        <ele>198.168945</ele>
        <time>2012-05-10T10:56:28Z</time>
      </trkpt>
      <trkpt lat="44.17868" lon="4.25651">
        <ele>197.688232</ele>
        <time>2012-05-10T10:56:56Z</time>
      </trkpt>
      <trkpt lat="44.1787" lon="4.25655">
        <ele>198.168945</ele>
        <time>2012-05-10T11:00:02Z</time>
      </trkpt>
      <trkpt lat="44.1787" lon="4.25656">
        <ele>198.168945</ele>
        <time>2012-05-10T11:00:43Z</time>
      </trkpt>
      <trkpt lat="44.17871" lon="4.25658">
        <ele>198.649536</ele>
        <time>2012-05-10T11:01:06Z</time>
      </trkpt>
      <trkpt lat="44.17871" lon="4.25658">
        <ele>198.649536</ele>
        <time>2012-05-10T11:02:57Z</time>
      </trkpt>
      <trkpt lat="44.17873" lon="4.25657">
        <ele>198.649536</ele>
        <time>2012-05-10T11:04:22Z</time>
      </trkpt>
      <trkpt lat="44.17875" lon="4.25659">
        <ele>199.130127</ele>
        <time>2012-05-10T11:04:53Z</time>
      </trkpt>
      <trkpt lat="44.17879" lon="4.25662">
        <ele>200.091675</ele>
        <time>2012-05-10T11:05:39Z</time>
      </trkpt>
      <trkpt lat="44.17882" lon="4.25664">
        <ele>198.168945</ele>
        <time>2012-05-10T11:07:08Z</time>
      </trkpt>
      <trkpt lat="44.17884" lon="4.25668">
        <ele>198.168945</ele>
        <time>2012-05-10T11:07:25Z</time>
      </trkpt>
      <trkpt lat="44.17893" lon="4.25668">
        <ele>198.168945</ele>
        <time>2012-05-10T11:07:51Z</time>
      </trkpt>
      <trkpt lat="44.17896" lon="4.25673">
        <ele>198.168945</ele>
        <time>2012-05-10T11:08:04Z</time>
      </trkpt>
      <trkpt lat="44.17896" lon="4.25673">
        <ele>198.168945</ele>
        <time>2012-05-10T11:08:05Z</time>
      </trkpt>
      <trkpt lat="44.17903" lon="4.25679">
        <ele>198.649536</ele>
        <time>2012-05-10T11:08:17Z</time>
      </trkpt>
      <trkpt lat="44.17909" lon="4.25685">
        <ele>198.649536</ele>
        <time>2012-05-10T11:08:29Z</time>
      </trkpt>
      <trkpt lat="44.17915" lon="4.25688">
        <ele>199.130127</ele>
        <time>2012-05-10T11:08:41Z</time>
      </trkpt>
      <trkpt lat="44.17916" lon="4.25686">
        <ele>199.130127</ele>
        <time>2012-05-10T11:08:57Z</time>
      </trkpt>
      <trkpt lat="44.1792" lon="4.25686">
        <ele>198.649536</ele>
        <time>2012-05-10T11:09:26Z</time>
      </trkpt>
      <trkpt lat="44.17923" lon="4.25698">
        <ele>199.130127</ele>
        <time>2012-05-10T11:10:00Z</time>
      </trkpt>
      <trkpt lat="44.17939" lon="4.25708">
        <ele>198.649536</ele>
        <time>2012-05-10T11:10:27Z</time>
      </trkpt>
      <trkpt lat="44.17933" lon="4.25709">
        <ele>198.168945</ele>
        <time>2012-05-10T11:10:51Z</time>
      </trkpt>
      <trkpt lat="44.17934" lon="4.25704">
        <ele>199.61084</ele>
        <time>2012-05-10T11:11:26Z</time>
      </trkpt>
      <trkpt lat="44.17941" lon="4.25706">
        <ele>202.975464</ele>
        <time>2012-05-10T11:11:43Z</time>
      </trkpt>
      <trkpt lat="44.17945" lon="4.25725">
        <ele>203.93689</ele>
        <time>2012-05-10T11:12:02Z</time>
      </trkpt>
      <trkpt lat="44.17944" lon="4.25726">
        <ele>203.93689</ele>
        <time>2012-05-10T11:12:03Z</time>
      </trkpt>
      <trkpt lat="44.17939" lon="4.2575">
        <ele>203.93689</ele>
        <time>2012-05-10T11:12:17Z</time>
      </trkpt>
      <trkpt lat="44.17937" lon="4.25766">
        <ele>203.93689</ele>
        <time>2012-05-10T11:12:26Z</time>
      </trkpt>
      <trkpt lat="44.1794" lon="4.25782">
        <ele>204.898071</ele>
        <time>2012-05-10T11:12:36Z</time>
      </trkpt>
      <trkpt lat="44.1794" lon="4.25794">
        <ele>205.378784</ele>
        <time>2012-05-10T11:12:47Z</time>
      </trkpt>
      <trkpt lat="44.1794" lon="4.25808">
        <ele>206.820679</ele>
        <time>2012-05-10T11:13:00Z</time>
      </trkpt>
      <trkpt lat="44.17941" lon="4.25832">
        <ele>205.859497</ele>
        <time>2012-05-10T11:13:16Z</time>
      </trkpt>
      <trkpt lat="44.17934" lon="4.25852">
        <ele>204.898071</ele>
        <time>2012-05-10T11:13:31Z</time>
      </trkpt>
      <trkpt lat="44.17931" lon="4.25859">
        <ele>204.41748</ele>
        <time>2012-05-10T11:13:37Z</time>
      </trkpt>
      <trkpt lat="44.17924" lon="4.25877">
        <ele>204.898071</ele>
        <time>2012-05-10T11:13:51Z</time>
      </trkpt>
      <trkpt lat="44.17917" lon="4.25894">
        <ele>204.898071</ele>
        <time>2012-05-10T11:14:04Z</time>
      </trkpt>
      <trkpt lat="44.17916" lon="4.25895">
        <ele>204.898071</ele>
        <time>2012-05-10T11:14:05Z</time>
      </trkpt>
      <trkpt lat="44.17906" lon="4.25917">
        <ele>204.898071</ele>
        <time>2012-05-10T11:14:21Z</time>
      </trkpt>
      <trkpt lat="44.17902" lon="4.25932">
        <ele>204.898071</ele>
        <time>2012-05-10T11:14:32Z</time>
      </trkpt>
      <trkpt lat="44.179" lon="4.25936">
        <ele>204.898071</ele>
        <time>2012-05-10T11:14:35Z</time>
      </trkpt>
      <trkpt lat="44.17898" lon="4.25961">
        <ele>205.859497</ele>
        <time>2012-05-10T11:14:56Z</time>
      </trkpt>
      <trkpt lat="44.17896" lon="4.25969">
        <ele>205.859497</ele>
        <time>2012-05-10T11:15:00Z</time>
      </trkpt>
      <trkpt lat="44.17896" lon="4.25973">
        <ele>205.859497</ele>
        <time>2012-05-10T11:15:02Z</time>
      </trkpt>
      <trkpt lat="44.17894" lon="4.25985">
        <ele>205.859497</ele>
        <time>2012-05-10T11:15:09Z</time>
      </trkpt>
      <trkpt lat="44.17892" lon="4.2599">
        <ele>205.859497</ele>
        <time>2012-05-10T11:15:13Z</time>
      </trkpt>
      <trkpt lat="44.17896" lon="4.26009">
        <ele>205.859497</ele>
        <time>2012-05-10T11:15:25Z</time>
      </trkpt>
      <trkpt lat="44.17893" lon="4.26022">
        <ele>205.859497</ele>
        <time>2012-05-10T11:15:34Z</time>
      </trkpt>
      <trkpt lat="44.17896" lon="4.26041">
        <ele>205.378784</ele>
        <time>2012-05-10T11:15:46Z</time>
      </trkpt>
      <trkpt lat="44.17896" lon="4.26043">
        <ele>205.378784</ele>
        <time>2012-05-10T11:15:48Z</time>
      </trkpt>
      <trkpt lat="44.17896" lon="4.26047">
        <ele>205.378784</ele>
        <time>2012-05-10T11:15:50Z</time>
      </trkpt>
      <trkpt lat="44.17899" lon="4.26061">
        <ele>205.378784</ele>
        <time>2012-05-10T11:15:59Z</time>
      </trkpt>
      <trkpt lat="44.179" lon="4.26082">
        <ele>204.898071</ele>
        <time>2012-05-10T11:16:14Z</time>
      </trkpt>
      <trkpt lat="44.17901" lon="4.26104">
        <ele>204.898071</ele>
        <time>2012-05-10T11:16:31Z</time>
      </trkpt>
      <trkpt lat="44.17912" lon="4.26122">
        <ele>204.898071</ele>
        <time>2012-05-10T11:16:49Z</time>
      </trkpt>
      <trkpt lat="44.17922" lon="4.2614">
        <ele>204.898071</ele>
        <time>2012-05-10T11:17:03Z</time>
      </trkpt>
      <trkpt lat="44.17929" lon="4.26144">
        <ele>205.378784</ele>
        <time>2012-05-10T11:17:09Z</time>
      </trkpt>
      <trkpt lat="44.17938" lon="4.26162">
        <ele>205.859497</ele>
        <time>2012-05-10T11:17:24Z</time>
      </trkpt>
      <trkpt lat="44.17943" lon="4.26178">
        <ele>206.340088</ele>
        <time>2012-05-10T11:17:37Z</time>
      </trkpt>
      <trkpt lat="44.17949" lon="4.26198">
        <ele>206.820679</ele>
        <time>2012-05-10T11:17:53Z</time>
      </trkpt>
      <trkpt lat="44.17947" lon="4.26217">
        <ele>206.820679</ele>
        <time>2012-05-10T11:18:05Z</time>
      </trkpt>
      <trkpt lat="44.1795" lon="4.26229">
        <ele>207.301392</ele>
        <time>2012-05-10T11:18:15Z</time>
      </trkpt>
      <trkpt lat="44.17951" lon="4.26243">
        <ele>207.782104</ele>
        <time>2012-05-10T11:18:30Z</time>
      </trkpt>
      <trkpt lat="44.17952" lon="4.26245">
        <ele>208.262817</ele>
        <time>2012-05-10T11:18:32Z</time>
      </trkpt>
      <trkpt lat="44.17951" lon="4.26251">
        <ele>208.743408</ele>
        <time>2012-05-10T11:18:47Z</time>
      </trkpt>
      <trkpt lat="44.17952" lon="4.26251">
        <ele>208.743408</ele>
        <time>2012-05-10T11:19:07Z</time>
      </trkpt>
      <trkpt lat="44.17945" lon="4.26255">
        <ele>207.782104</ele>
        <time>2012-05-10T11:19:19Z</time>
      </trkpt>
      <trkpt lat="44.17931" lon="4.26255">
        <ele>206.820679</ele>
        <time>2012-05-10T11:19:41Z</time>
      </trkpt>
      <trkpt lat="44.17926" lon="4.26257">
        <ele>206.820679</ele>
        <time>2012-05-10T11:19:45Z</time>
      </trkpt>
      <trkpt lat="44.17907" lon="4.26262">
        <ele>206.340088</ele>
        <time>2012-05-10T11:20:03Z</time>
      </trkpt>
      <trkpt lat="44.17891" lon="4.26266">
        <ele>206.820679</ele>
        <time>2012-05-10T11:20:23Z</time>
      </trkpt>
      <trkpt lat="44.17881" lon="4.2627">
        <ele>206.820679</ele>
        <time>2012-05-10T11:20:41Z</time>
      </trkpt>
      <trkpt lat="44.17875" lon="4.26268">
        <ele>206.340088</ele>
        <time>2012-05-10T11:20:53Z</time>
      </trkpt>
      <trkpt lat="44.1786" lon="4.26266">
        <ele>206.340088</ele>
        <time>2012-05-10T11:21:07Z</time>
      </trkpt>
      <trkpt lat="44.17856" lon="4.26266">
        <ele>206.340088</ele>
        <time>2012-05-10T11:21:10Z</time>
      </trkpt>
      <trkpt lat="44.17853" lon="4.26265">
        <ele>206.340088</ele>
        <time>2012-05-10T11:21:13Z</time>
      </trkpt>
      <trkpt lat="44.17846" lon="4.26267">
        <ele>206.340088</ele>
        <time>2012-05-10T11:21:17Z</time>
      </trkpt>
      <trkpt lat="44.17841" lon="4.26269">
        <ele>206.340088</ele>
        <time>2012-05-10T11:21:21Z</time>
      </trkpt>
      <trkpt lat="44.17836" lon="4.26268">
        <ele>206.340088</ele>
        <time>2012-05-10T11:21:25Z</time>
      </trkpt>
      <trkpt lat="44.17825" lon="4.26267">
        <ele>206.820679</ele>
        <time>2012-05-10T11:21:36Z</time>
      </trkpt>
      <trkpt lat="44.17819" lon="4.26264">
        <ele>206.820679</ele>
        <time>2012-05-10T11:21:43Z</time>
      </trkpt>
      <trkpt lat="44.17803" lon="4.26258">
        <ele>206.340088</ele>
        <time>2012-05-10T11:22:01Z</time>
      </trkpt>
      <trkpt lat="44.17792" lon="4.26258">
        <ele>206.820679</ele>
        <time>2012-05-10T11:22:13Z</time>
      </trkpt>
      <trkpt lat="44.1778" lon="4.26252">
        <ele>206.820679</ele>
        <time>2012-05-10T11:22:29Z</time>
      </trkpt>
      <trkpt lat="44.17772" lon="4.26248">
        <ele>206.820679</ele>
        <time>2012-05-10T11:22:48Z</time>
      </trkpt>
      <trkpt lat="44.17772" lon="4.26247">
        <ele>206.820679</ele>
        <time>2012-05-10T11:22:49Z</time>
      </trkpt>
      <trkpt lat="44.1776" lon="4.26246">
        <ele>207.301392</ele>
        <time>2012-05-10T11:23:06Z</time>
      </trkpt>
      <trkpt lat="44.17754" lon="4.26248">
        <ele>207.782104</ele>
        <time>2012-05-10T11:23:13Z</time>
      </trkpt>
      <trkpt lat="44.17736" lon="4.2625">
        <ele>207.782104</ele>
        <time>2012-05-10T11:23:27Z</time>
      </trkpt>
      <trkpt lat="44.17721" lon="4.26248">
        <ele>208.262817</ele>
        <time>2012-05-10T11:23:44Z</time>
      </trkpt>
      <trkpt lat="44.17709" lon="4.26238">
        <ele>208.262817</ele>
        <time>2012-05-10T11:24:01Z</time>
      </trkpt>
      <trkpt lat="44.17699" lon="4.26242">
        <ele>208.262817</ele>
        <time>2012-05-10T11:24:13Z</time>
      </trkpt>
      <trkpt lat="44.17695" lon="4.26243">
        <ele>208.262817</ele>
        <time>2012-05-10T11:24:17Z</time>
      </trkpt>
      <trkpt lat="44.17691" lon="4.26242">
        <ele>208.262817</ele>
        <time>2012-05-10T11:24:22Z</time>
      </trkpt>
      <trkpt lat="44.17685" lon="4.26237">
        <ele>208.262817</ele>
        <time>2012-05-10T11:24:29Z</time>
      </trkpt>
      <trkpt lat="44.1767" lon="4.26236">
        <ele>208.262817</ele>
        <time>2012-05-10T11:24:47Z</time>
      </trkpt>
      <trkpt lat="44.17662" lon="4.26229">
        <ele>207.782104</ele>
        <time>2012-05-10T11:25:02Z</time>
      </trkpt>
      <trkpt lat="44.17648" lon="4.2623">
        <ele>208.262817</ele>
        <time>2012-05-10T11:25:21Z</time>
      </trkpt>
      <trkpt lat="44.17633" lon="4.26234">
        <ele>208.262817</ele>
        <time>2012-05-10T11:25:38Z</time>
      </trkpt>
      <trkpt lat="44.17624" lon="4.2624">
        <ele>208.743408</ele>
        <time>2012-05-10T11:25:57Z</time>
      </trkpt>
      <trkpt lat="44.17602" lon="4.2626">
        <ele>208.743408</ele>
        <time>2012-05-10T11:26:17Z</time>
      </trkpt>
      <trkpt lat="44.17587" lon="4.26265">
        <ele>208.743408</ele>
        <time>2012-05-10T11:26:43Z</time>
      </trkpt>
      <trkpt lat="44.17576" lon="4.26277">
        <ele>209.224121</ele>
        <time>2012-05-10T11:27:07Z</time>
      </trkpt>
      <trkpt lat="44.17563" lon="4.26292">
        <ele>209.704834</ele>
        <time>2012-05-10T11:27:27Z</time>
      </trkpt>
      <trkpt lat="44.17553" lon="4.26306">
        <ele>210.185425</ele>
        <time>2012-05-10T11:27:49Z</time>
      </trkpt>
      <trkpt lat="44.17538" lon="4.26315">
        <ele>210.185425</ele>
        <time>2012-05-10T11:28:12Z</time>
      </trkpt>
      <trkpt lat="44.17528" lon="4.26319">
        <ele>210.185425</ele>
        <time>2012-05-10T11:28:28Z</time>
      </trkpt>
      <trkpt lat="44.17526" lon="4.26321">
        <ele>210.185425</ele>
        <time>2012-05-10T11:28:46Z</time>
      </trkpt>
      <trkpt lat="44.17527" lon="4.26322">
        <ele>210.185425</ele>
        <time>2012-05-10T11:29:06Z</time>
      </trkpt>
      <trkpt lat="44.17529" lon="4.26322">
        <ele>210.185425</ele>
        <time>2012-05-10T11:30:15Z</time>
      </trkpt>
      <trkpt lat="44.17528" lon="4.26316">
        <ele>210.666016</ele>
        <time>2012-05-10T11:30:55Z</time>
      </trkpt>
      <trkpt lat="44.17522" lon="4.26312">
        <ele>210.666016</ele>
        <time>2012-05-10T11:31:55Z</time>
      </trkpt>
      <trkpt lat="44.17529" lon="4.26313">
        <ele>210.666016</ele>
        <time>2012-05-10T11:32:44Z</time>
      </trkpt>
      <trkpt lat="44.17526" lon="4.263">
        <ele>210.185425</ele>
        <time>2012-05-10T11:33:15Z</time>
      </trkpt>
      <trkpt lat="44.17526" lon="4.26303">
        <ele>210.185425</ele>
        <time>2012-05-10T11:33:39Z</time>
      </trkpt>
      <trkpt lat="44.17538" lon="4.26296">
        <ele>211.146729</ele>
        <time>2012-05-10T11:34:42Z</time>
      </trkpt>
      <trkpt lat="44.17541" lon="4.26296">
        <ele>210.666016</ele>
        <time>2012-05-10T11:35:02Z</time>
      </trkpt>
      <trkpt lat="44.1755" lon="4.2628">
        <ele>210.666016</ele>
        <time>2012-05-10T11:35:18Z</time>
      </trkpt>
      <trkpt lat="44.17557" lon="4.26271">
        <ele>210.185425</ele>
        <time>2012-05-10T11:35:33Z</time>
      </trkpt>
      <trkpt lat="44.17564" lon="4.26266">
        <ele>210.185425</ele>
        <time>2012-05-10T11:35:47Z</time>
      </trkpt>
      <trkpt lat="44.17569" lon="4.26265">
        <ele>209.704834</ele>
        <time>2012-05-10T11:35:51Z</time>
      </trkpt>
      <trkpt lat="44.17577" lon="4.26254">
        <ele>209.704834</ele>
        <time>2012-05-10T11:36:06Z</time>
      </trkpt>
      <trkpt lat="44.17586" lon="4.26246">
        <ele>209.704834</ele>
        <time>2012-05-10T11:36:24Z</time>
      </trkpt>
      <trkpt lat="44.17598" lon="4.26234">
        <ele>209.704834</ele>
        <time>2012-05-10T11:36:51Z</time>
      </trkpt>
      <trkpt lat="44.17603" lon="4.26232">
        <ele>209.704834</ele>
        <time>2012-05-10T11:36:55Z</time>
      </trkpt>
      <trkpt lat="44.17605" lon="4.2623">
        <ele>209.704834</ele>
        <time>2012-05-10T11:36:57Z</time>
      </trkpt>
      <trkpt lat="44.17612" lon="4.26225">
        <ele>209.704834</ele>
        <time>2012-05-10T11:37:03Z</time>
      </trkpt>
      <trkpt lat="44.17624" lon="4.26218">
        <ele>209.224121</ele>
        <time>2012-05-10T11:37:14Z</time>
      </trkpt>
      <trkpt lat="44.17627" lon="4.26219">
        <ele>208.743408</ele>
        <time>2012-05-10T11:37:17Z</time>
      </trkpt>
      <trkpt lat="44.17636" lon="4.26222">
        <ele>209.224121</ele>
        <time>2012-05-10T11:37:24Z</time>
      </trkpt>
      <trkpt lat="44.17655" lon="4.26223">
        <ele>208.743408</ele>
        <time>2012-05-10T11:37:44Z</time>
      </trkpt>
      <trkpt lat="44.17664" lon="4.26228">
        <ele>209.224121</ele>
        <time>2012-05-10T11:37:53Z</time>
      </trkpt>
      <trkpt lat="44.17669" lon="4.26227">
        <ele>208.743408</ele>
        <time>2012-05-10T11:37:57Z</time>
      </trkpt>
      <trkpt lat="44.17687" lon="4.26236">
        <ele>209.224121</ele>
        <time>2012-05-10T11:38:13Z</time>
      </trkpt>
      <trkpt lat="44.17705" lon="4.26239">
        <ele>208.743408</ele>
        <time>2012-05-10T11:38:30Z</time>
      </trkpt>
      <trkpt lat="44.17723" lon="4.26243">
        <ele>208.743408</ele>
        <time>2012-05-10T11:38:48Z</time>
      </trkpt>
      <trkpt lat="44.17747" lon="4.26246">
        <ele>208.262817</ele>
        <time>2012-05-10T11:39:07Z</time>
      </trkpt>
      <trkpt lat="44.17753" lon="4.26246">
        <ele>208.262817</ele>
        <time>2012-05-10T11:39:14Z</time>
      </trkpt>
      <trkpt lat="44.17762" lon="4.26242">
        <ele>207.301392</ele>
        <time>2012-05-10T11:39:27Z</time>
      </trkpt>
      <trkpt lat="44.1778" lon="4.26249">
        <ele>207.301392</ele>
        <time>2012-05-10T11:39:46Z</time>
      </trkpt>
      <trkpt lat="44.17794" lon="4.26253">
        <ele>206.820679</ele>
        <time>2012-05-10T11:40:02Z</time>
      </trkpt>
      <trkpt lat="44.17811" lon="4.26256">
        <ele>206.820679</ele>
        <time>2012-05-10T11:40:18Z</time>
      </trkpt>
      <trkpt lat="44.17823" lon="4.2626">
        <ele>206.820679</ele>
        <time>2012-05-10T11:40:32Z</time>
      </trkpt>
      <trkpt lat="44.17837" lon="4.26262">
        <ele>205.859497</ele>
        <time>2012-05-10T11:40:44Z</time>
      </trkpt>
      <trkpt lat="44.17854" lon="4.26267">
        <ele>206.340088</ele>
        <time>2012-05-10T11:41:02Z</time>
      </trkpt>
      <trkpt lat="44.17872" lon="4.26267">
        <ele>206.820679</ele>
        <time>2012-05-10T11:41:20Z</time>
      </trkpt>
      <trkpt lat="44.1788" lon="4.26267">
        <ele>206.820679</ele>
        <time>2012-05-10T11:41:33Z</time>
      </trkpt>
      <trkpt lat="44.17884" lon="4.26265">
        <ele>206.820679</ele>
        <time>2012-05-10T11:41:50Z</time>
      </trkpt>
      <trkpt lat="44.17899" lon="4.26262">
        <ele>206.340088</ele>
        <time>2012-05-10T11:42:06Z</time>
      </trkpt>
      <trkpt lat="44.179" lon="4.26261">
        <ele>206.340088</ele>
        <time>2012-05-10T11:42:07Z</time>
      </trkpt>
      <trkpt lat="44.17915" lon="4.2626">
        <ele>206.340088</ele>
        <time>2012-05-10T11:42:21Z</time>
      </trkpt>
      <trkpt lat="44.17932" lon="4.26255">
        <ele>206.820679</ele>
        <time>2012-05-10T11:42:37Z</time>
      </trkpt>
      <trkpt lat="44.17941" lon="4.26255">
        <ele>208.262817</ele>
        <time>2012-05-10T11:42:50Z</time>
      </trkpt>
      <trkpt lat="44.17945" lon="4.26254">
        <ele>208.262817</ele>
        <time>2012-05-10T11:43:05Z</time>
      </trkpt>
      <trkpt lat="44.17952" lon="4.26263">
        <ele>208.743408</ele>
        <time>2012-05-10T11:43:27Z</time>
      </trkpt>
      <trkpt lat="44.17953" lon="4.26264">
        <ele>208.743408</ele>
        <time>2012-05-10T11:43:29Z</time>
      </trkpt>
      <trkpt lat="44.17953" lon="4.26277">
        <ele>209.224121</ele>
        <time>2012-05-10T11:43:37Z</time>
      </trkpt>
      <trkpt lat="44.17955" lon="4.2629">
        <ele>210.666016</ele>
        <time>2012-05-10T11:43:51Z</time>
      </trkpt>
      <trkpt lat="44.17959" lon="4.26306">
        <ele>213.550049</ele>
        <time>2012-05-10T11:44:08Z</time>
      </trkpt>
      <trkpt lat="44.17969" lon="4.2632">
        <ele>215.953247</ele>
        <time>2012-05-10T11:44:24Z</time>
      </trkpt>
      <trkpt lat="44.1797" lon="4.26322">
        <ele>216.43396</ele>
        <time>2012-05-10T11:44:26Z</time>
      </trkpt>
      <trkpt lat="44.17971" lon="4.26331">
        <ele>216.43396</ele>
        <time>2012-05-10T11:44:32Z</time>
      </trkpt>
      <trkpt lat="44.17973" lon="4.26345">
        <ele>218.356567</ele>
        <time>2012-05-10T11:44:45Z</time>
      </trkpt>
      <trkpt lat="44.17976" lon="4.26365">
        <ele>221.240601</ele>
        <time>2012-05-10T11:45:05Z</time>
      </trkpt>
      <trkpt lat="44.17979" lon="4.26385">
        <ele>223.643799</ele>
        <time>2012-05-10T11:45:23Z</time>
      </trkpt>
      <trkpt lat="44.17981" lon="4.26398">
        <ele>225.085938</ele>
        <time>2012-05-10T11:45:38Z</time>
      </trkpt>
      <trkpt lat="44.17984" lon="4.26409">
        <ele>226.047119</ele>
        <time>2012-05-10T11:45:51Z</time>
      </trkpt>
      <trkpt lat="44.17985" lon="4.26417">
        <ele>227.008545</ele>
        <time>2012-05-10T11:46:11Z</time>
      </trkpt>
      <trkpt lat="44.17998" lon="4.2642">
        <ele>227.008545</ele>
        <time>2012-05-10T11:46:22Z</time>
      </trkpt>
      <trkpt lat="44.18008" lon="4.26422">
        <ele>227.489136</ele>
        <time>2012-05-10T11:46:38Z</time>
      </trkpt>
      <trkpt lat="44.18022" lon="4.26421">
        <ele>227.489136</ele>
        <time>2012-05-10T11:46:55Z</time>
      </trkpt>
      <trkpt lat="44.18029" lon="4.26423">
        <ele>227.489136</ele>
        <time>2012-05-10T11:47:03Z</time>
      </trkpt>
      <trkpt lat="44.18038" lon="4.26428">
        <ele>228.450439</ele>
        <time>2012-05-10T11:47:16Z</time>
      </trkpt>
      <trkpt lat="44.18049" lon="4.26426">
        <ele>228.931152</ele>
        <time>2012-05-10T11:47:33Z</time>
      </trkpt>
      <trkpt lat="44.18051" lon="4.26427">
        <ele>228.931152</ele>
        <time>2012-05-10T11:47:37Z</time>
      </trkpt>
      <trkpt lat="44.18065" lon="4.26429">
        <ele>229.411743</ele>
        <time>2012-05-10T11:47:54Z</time>
      </trkpt>
      <trkpt lat="44.18073" lon="4.26431">
        <ele>229.892334</ele>
        <time>2012-05-10T11:48:10Z</time>
      </trkpt>
      <trkpt lat="44.18089" lon="4.26433">
        <ele>230.85376</ele>
        <time>2012-05-10T11:48:28Z</time>
      </trkpt>
      <trkpt lat="44.18098" lon="4.26433">
        <ele>231.814941</ele>
        <time>2012-05-10T11:48:38Z</time>
      </trkpt>
      <trkpt lat="44.18113" lon="4.26445">
        <ele>231.814941</ele>
        <time>2012-05-10T11:48:53Z</time>
      </trkpt>
      <trkpt lat="44.18125" lon="4.26456">
        <ele>231.334351</ele>
        <time>2012-05-10T11:49:07Z</time>
      </trkpt>
      <trkpt lat="44.18134" lon="4.26465">
        <ele>229.892334</ele>
        <time>2012-05-10T11:49:19Z</time>
      </trkpt>
      <trkpt lat="44.1814" lon="4.26476">
        <ele>227.969727</ele>
        <time>2012-05-10T11:49:35Z</time>
      </trkpt>
      <trkpt lat="44.1814" lon="4.26474">
        <ele>227.969727</ele>
        <time>2012-05-10T11:50:00Z</time>
      </trkpt>
      <trkpt lat="44.18139" lon="4.26472">
        <ele>227.969727</ele>
        <time>2012-05-10T11:50:52Z</time>
      </trkpt>
      <trkpt lat="44.18137" lon="4.26475">
        <ele>227.969727</ele>
        <time>2012-05-10T11:51:17Z</time>
      </trkpt>
      <trkpt lat="44.18122" lon="4.26484">
        <ele>226.047119</ele>
        <time>2012-05-10T11:51:34Z</time>
      </trkpt>
      <trkpt lat="44.18113" lon="4.26492">
        <ele>224.605225</ele>
        <time>2012-05-10T11:51:45Z</time>
      </trkpt>
      <trkpt lat="44.18104" lon="4.26503">
        <ele>224.124512</ele>
        <time>2012-05-10T11:51:59Z</time>
      </trkpt>
      <trkpt lat="44.18102" lon="4.26506">
        <ele>224.124512</ele>
        <time>2012-05-10T11:52:03Z</time>
      </trkpt>
      <trkpt lat="44.18092" lon="4.26526">
        <ele>224.124512</ele>
        <time>2012-05-10T11:52:18Z</time>
      </trkpt>
      <trkpt lat="44.1809" lon="4.26546">
        <ele>225.566528</ele>
        <time>2012-05-10T11:52:33Z</time>
      </trkpt>
      <trkpt lat="44.18092" lon="4.26548">
        <ele>225.566528</ele>
        <time>2012-05-10T11:52:36Z</time>
      </trkpt>
      <trkpt lat="44.18101" lon="4.26562">
        <ele>226.047119</ele>
        <time>2012-05-10T11:52:49Z</time>
      </trkpt>
      <trkpt lat="44.18106" lon="4.26566">
        <ele>226.527832</ele>
        <time>2012-05-10T11:52:53Z</time>
      </trkpt>
      <trkpt lat="44.1811" lon="4.2658">
        <ele>226.527832</ele>
        <time>2012-05-10T11:53:02Z</time>
      </trkpt>
      <trkpt lat="44.1811" lon="4.26582">
        <ele>226.527832</ele>
        <time>2012-05-10T11:53:04Z</time>
      </trkpt>
      <trkpt lat="44.18113" lon="4.26592">
        <ele>226.527832</ele>
        <time>2012-05-10T11:53:13Z</time>
      </trkpt>
      <trkpt lat="44.18129" lon="4.26612">
        <ele>227.008545</ele>
        <time>2012-05-10T11:53:33Z</time>
      </trkpt>
      <trkpt lat="44.18137" lon="4.26621">
        <ele>227.489136</ele>
        <time>2012-05-10T11:53:44Z</time>
      </trkpt>
      <trkpt lat="44.18145" lon="4.26629">
        <ele>228.450439</ele>
        <time>2012-05-10T11:53:53Z</time>
      </trkpt>
      <trkpt lat="44.18147" lon="4.26631">
        <ele>228.450439</ele>
        <time>2012-05-10T11:53:55Z</time>
      </trkpt>
      <trkpt lat="44.18151" lon="4.26637">
        <ele>228.931152</ele>
        <time>2012-05-10T11:54:01Z</time>
      </trkpt>
      <trkpt lat="44.18168" lon="4.26642">
        <ele>228.931152</ele>
        <time>2012-05-10T11:54:15Z</time>
      </trkpt>
      <trkpt lat="44.18179" lon="4.26644">
        <ele>228.931152</ele>
        <time>2012-05-10T11:54:23Z</time>
      </trkpt>
      <trkpt lat="44.18193" lon="4.2665">
        <ele>229.411743</ele>
        <time>2012-05-10T11:54:34Z</time>
      </trkpt>
      <trkpt lat="44.18202" lon="4.26657">
        <ele>229.892334</ele>
        <time>2012-05-10T11:54:43Z</time>
      </trkpt>
      <trkpt lat="44.18202" lon="4.26667">
        <ele>229.892334</ele>
        <time>2012-05-10T11:54:49Z</time>
      </trkpt>
      <trkpt lat="44.18202" lon="4.2667">
        <ele>229.892334</ele>
        <time>2012-05-10T11:54:51Z</time>
      </trkpt>
      <trkpt lat="44.18194" lon="4.26681">
        <ele>228.450439</ele>
        <time>2012-05-10T11:55:02Z</time>
      </trkpt>
      <trkpt lat="44.18189" lon="4.26684">
        <ele>227.969727</ele>
        <time>2012-05-10T11:55:07Z</time>
      </trkpt>
      <trkpt lat="44.18179" lon="4.26687">
        <ele>226.527832</ele>
        <time>2012-05-10T11:55:15Z</time>
      </trkpt>
      <trkpt lat="44.18158" lon="4.26691">
        <ele>225.566528</ele>
        <time>2012-05-10T11:55:34Z</time>
      </trkpt>
      <trkpt lat="44.18151" lon="4.26692">
        <ele>224.605225</ele>
        <time>2012-05-10T11:55:45Z</time>
      </trkpt>
      <trkpt lat="44.18137" lon="4.26692">
        <ele>223.643799</ele>
        <time>2012-05-10T11:56:02Z</time>
      </trkpt>
      <trkpt lat="44.18138" lon="4.26701">
        <ele>222.201782</ele>
        <time>2012-05-10T11:56:19Z</time>
      </trkpt>
      <trkpt lat="44.18145" lon="4.26706">
        <ele>221.721191</ele>
        <time>2012-05-10T11:56:29Z</time>
      </trkpt>
      <trkpt lat="44.18155" lon="4.26711">
        <ele>221.240601</ele>
        <time>2012-05-10T11:56:43Z</time>
      </trkpt>
      <trkpt lat="44.18158" lon="4.26713">
        <ele>221.240601</ele>
        <time>2012-05-10T11:56:46Z</time>
      </trkpt>
      <trkpt lat="44.18162" lon="4.26718">
        <ele>220.759888</ele>
        <time>2012-05-10T11:56:51Z</time>
      </trkpt>
      <trkpt lat="44.18168" lon="4.26722">
        <ele>220.759888</ele>
        <time>2012-05-10T11:56:57Z</time>
      </trkpt>
      <trkpt lat="44.18179" lon="4.26733">
        <ele>219.798584</ele>
        <time>2012-05-10T11:57:13Z</time>
      </trkpt>
      <trkpt lat="44.1819" lon="4.2674">
        <ele>218.83728</ele>
        <time>2012-05-10T11:57:26Z</time>
      </trkpt>
      <trkpt lat="44.18202" lon="4.26746">
        <ele>218.83728</ele>
        <time>2012-05-10T11:57:37Z</time>
      </trkpt>
      <trkpt lat="44.18217" lon="4.26753">
        <ele>217.875977</ele>
        <time>2012-05-10T11:57:52Z</time>
      </trkpt>
      <trkpt lat="44.18229" lon="4.26762">
        <ele>217.395386</ele>
        <time>2012-05-10T11:58:07Z</time>
      </trkpt>
      <trkpt lat="44.18234" lon="4.26765">
        <ele>217.395386</ele>
        <time>2012-05-10T11:58:12Z</time>
      </trkpt>
      <trkpt lat="44.18245" lon="4.26772">
        <ele>216.914673</ele>
        <time>2012-05-10T11:58:25Z</time>
      </trkpt>
      <trkpt lat="44.18262" lon="4.2678">
        <ele>216.43396</ele>
        <time>2012-05-10T11:58:42Z</time>
      </trkpt>
      <trkpt lat="44.18267" lon="4.26784">
        <ele>215.953247</ele>
        <time>2012-05-10T11:58:48Z</time>
      </trkpt>
      <trkpt lat="44.18274" lon="4.26789">
        <ele>215.472656</ele>
        <time>2012-05-10T11:58:59Z</time>
      </trkpt>
      <trkpt lat="44.18288" lon="4.26794">
        <ele>214.51123</ele>
        <time>2012-05-10T11:59:13Z</time>
      </trkpt>
      <trkpt lat="44.18304" lon="4.26794">
        <ele>214.03064</ele>
        <time>2012-05-10T11:59:30Z</time>
      </trkpt>
      <trkpt lat="44.1832" lon="4.26795">
        <ele>212.588623</ele>
        <time>2012-05-10T11:59:47Z</time>
      </trkpt>
      <trkpt lat="44.18339" lon="4.26793">
        <ele>212.108032</ele>
        <time>2012-05-10T12:00:03Z</time>
      </trkpt>
      <trkpt lat="44.18357" lon="4.26793">
        <ele>211.146729</ele>
        <time>2012-05-10T12:00:21Z</time>
      </trkpt>
      <trkpt lat="44.18358" lon="4.26793">
        <ele>211.146729</ele>
        <time>2012-05-10T12:00:22Z</time>
      </trkpt>
      <trkpt lat="44.18367" lon="4.26792">
        <ele>210.185425</ele>
        <time>2012-05-10T12:00:32Z</time>
      </trkpt>
      <trkpt lat="44.1837" lon="4.26792">
        <ele>210.666016</ele>
        <time>2012-05-10T12:00:46Z</time>
      </trkpt>
      <trkpt lat="44.18373" lon="4.26788">
        <ele>210.185425</ele>
        <time>2012-05-10T12:01:13Z</time>
      </trkpt>
      <trkpt lat="44.18372" lon="4.26769">
        <ele>208.743408</ele>
        <time>2012-05-10T12:01:30Z</time>
      </trkpt>
      <trkpt lat="44.1837" lon="4.26762">
        <ele>208.743408</ele>
        <time>2012-05-10T12:01:35Z</time>
      </trkpt>
      <trkpt lat="44.18356" lon="4.26743">
        <ele>207.782104</ele>
        <time>2012-05-10T12:01:57Z</time>
      </trkpt>
      <trkpt lat="44.18348" lon="4.26728">
        <ele>207.301392</ele>
        <time>2012-05-10T12:02:08Z</time>
      </trkpt>
      <trkpt lat="44.18341" lon="4.26716">
        <ele>206.820679</ele>
        <time>2012-05-10T12:02:21Z</time>
      </trkpt>
      <trkpt lat="44.18328" lon="4.26691">
        <ele>205.859497</ele>
        <time>2012-05-10T12:02:43Z</time>
      </trkpt>
      <trkpt lat="44.18318" lon="4.26664">
        <ele>204.898071</ele>
        <time>2012-05-10T12:03:04Z</time>
      </trkpt>
      <trkpt lat="44.18309" lon="4.26649">
        <ele>203.93689</ele>
        <time>2012-05-10T12:03:20Z</time>
      </trkpt>
      <trkpt lat="44.18302" lon="4.2663">
        <ele>202.494873</ele>
        <time>2012-05-10T12:03:38Z</time>
      </trkpt>
      <trkpt lat="44.18302" lon="4.26628">
        <ele>202.014282</ele>
        <time>2012-05-10T12:03:39Z</time>
      </trkpt>
      <trkpt lat="44.18304" lon="4.2662">
        <ele>202.014282</ele>
        <time>2012-05-10T12:03:45Z</time>
      </trkpt>
      <trkpt lat="44.18308" lon="4.26614">
        <ele>202.014282</ele>
        <time>2012-05-10T12:03:50Z</time>
      </trkpt>
      <trkpt lat="44.18315" lon="4.26608">
        <ele>201.533569</ele>
        <time>2012-05-10T12:03:56Z</time>
      </trkpt>
      <trkpt lat="44.1832" lon="4.26608">
        <ele>201.533569</ele>
        <time>2012-05-10T12:03:59Z</time>
      </trkpt>
      <trkpt lat="44.18325" lon="4.26611">
        <ele>201.533569</ele>
        <time>2012-05-10T12:04:04Z</time>
      </trkpt>
      <trkpt lat="44.18334" lon="4.26623">
        <ele>200.572266</ele>
        <time>2012-05-10T12:04:17Z</time>
      </trkpt>
      <trkpt lat="44.18346" lon="4.26637">
        <ele>199.61084</ele>
        <time>2012-05-10T12:04:33Z</time>
      </trkpt>
      <trkpt lat="44.1835" lon="4.26642">
        <ele>199.61084</ele>
        <time>2012-05-10T12:04:52Z</time>
      </trkpt>
      <trkpt lat="44.18353" lon="4.26648">
        <ele>199.130127</ele>
        <time>2012-05-10T12:06:07Z</time>
      </trkpt>
      <trkpt lat="44.18357" lon="4.26653">
        <ele>198.649536</ele>
        <time>2012-05-10T12:06:13Z</time>
      </trkpt>
      <trkpt lat="44.18361" lon="4.26661">
        <ele>198.649536</ele>
        <time>2012-05-10T12:06:20Z</time>
      </trkpt>
      <trkpt lat="44.18367" lon="4.2667">
        <ele>197.688232</ele>
        <time>2012-05-10T12:06:28Z</time>
      </trkpt>
      <trkpt lat="44.1837" lon="4.26673">
        <ele>197.688232</ele>
        <time>2012-05-10T12:06:31Z</time>
      </trkpt>
      <trkpt lat="44.18375" lon="4.26678">
        <ele>197.20752</ele>
        <time>2012-05-10T12:06:36Z</time>
      </trkpt>
      <trkpt lat="44.18376" lon="4.26683">
        <ele>196.726929</ele>
        <time>2012-05-10T12:06:40Z</time>
      </trkpt>
      <trkpt lat="44.18389" lon="4.26694">
        <ele>196.246338</ele>
        <time>2012-05-10T12:06:54Z</time>
      </trkpt>
      <trkpt lat="44.18411" lon="4.26699">
        <ele>194.804321</ele>
        <time>2012-05-10T12:07:13Z</time>
      </trkpt>
      <trkpt lat="44.18413" lon="4.26698">
        <ele>194.32373</ele>
        <time>2012-05-10T12:07:16Z</time>
      </trkpt>
      <trkpt lat="44.18423" lon="4.26689">
        <ele>193.843018</ele>
        <time>2012-05-10T12:07:30Z</time>
      </trkpt>
      <trkpt lat="44.18436" lon="4.2668">
        <ele>192.881714</ele>
        <time>2012-05-10T12:07:40Z</time>
      </trkpt>
      <trkpt lat="44.18446" lon="4.26667">
        <ele>191.920288</ele>
        <time>2012-05-10T12:07:54Z</time>
      </trkpt>
      <trkpt lat="44.18459" lon="4.26654">
        <ele>190.958984</ele>
        <time>2012-05-10T12:08:08Z</time>
      </trkpt>
      <trkpt lat="44.18468" lon="4.26645">
        <ele>190.478394</ele>
        <time>2012-05-10T12:08:19Z</time>
      </trkpt>
      <trkpt lat="44.1848" lon="4.26633">
        <ele>189.516968</ele>
        <time>2012-05-10T12:08:35Z</time>
      </trkpt>
      <trkpt lat="44.18491" lon="4.26622">
        <ele>189.516968</ele>
        <time>2012-05-10T12:08:55Z</time>
      </trkpt>
      <trkpt lat="44.1849" lon="4.26623">
        <ele>189.516968</ele>
        <time>2012-05-10T12:09:36Z</time>
      </trkpt>
      <trkpt lat="44.18495" lon="4.26615">
        <ele>188.555786</ele>
        <time>2012-05-10T12:10:01Z</time>
      </trkpt>
      <trkpt lat="44.18511" lon="4.26597">
        <ele>187.59436</ele>
        <time>2012-05-10T12:10:19Z</time>
      </trkpt>
      <trkpt lat="44.18517" lon="4.26589">
        <ele>186.633179</ele>
        <time>2012-05-10T12:10:29Z</time>
      </trkpt>
      <trkpt lat="44.18521" lon="4.26584">
        <ele>186.152466</ele>
        <time>2012-05-10T12:10:34Z</time>
      </trkpt>
      <trkpt lat="44.18529" lon="4.26571">
        <ele>185.191162</ele>
        <time>2012-05-10T12:10:47Z</time>
      </trkpt>
      <trkpt lat="44.18533" lon="4.26565">
        <ele>185.191162</ele>
        <time>2012-05-10T12:10:54Z</time>
      </trkpt>
      <trkpt lat="44.18545" lon="4.26544">
        <ele>184.229858</ele>
        <time>2012-05-10T12:11:12Z</time>
      </trkpt>
      <trkpt lat="44.18553" lon="4.26537">
        <ele>183.268433</ele>
        <time>2012-05-10T12:11:25Z</time>
      </trkpt>
      <trkpt lat="44.18569" lon="4.26527">
        <ele>182.307129</ele>
        <time>2012-05-10T12:11:38Z</time>
      </trkpt>
      <trkpt lat="44.18575" lon="4.26523">
        <ele>181.826416</ele>
        <time>2012-05-10T12:11:46Z</time>
      </trkpt>
      <trkpt lat="44.18584" lon="4.26525">
        <ele>181.345825</ele>
        <time>2012-05-10T12:11:56Z</time>
      </trkpt>
      <trkpt lat="44.18592" lon="4.26535">
        <ele>180.384521</ele>
        <time>2012-05-10T12:12:09Z</time>
      </trkpt>
      <trkpt lat="44.18599" lon="4.2654">
        <ele>179.903809</ele>
        <time>2012-05-10T12:12:17Z</time>
      </trkpt>
      <trkpt lat="44.18614" lon="4.26542">
        <ele>178.461914</ele>
        <time>2012-05-10T12:12:31Z</time>
      </trkpt>
      <trkpt lat="44.1863" lon="4.26546">
        <ele>177.02002</ele>
        <time>2012-05-10T12:12:48Z</time>
      </trkpt>
      <trkpt lat="44.18645" lon="4.26548">
        <ele>176.058594</ele>
        <time>2012-05-10T12:13:03Z</time>
      </trkpt>
      <trkpt lat="44.18658" lon="4.26551">
        <ele>174.616577</ele>
        <time>2012-05-10T12:13:19Z</time>
      </trkpt>
      <trkpt lat="44.18674" lon="4.26554">
        <ele>173.655273</ele>
        <time>2012-05-10T12:13:35Z</time>
      </trkpt>
      <trkpt lat="44.18689" lon="4.26555">
        <ele>172.69397</ele>
        <time>2012-05-10T12:13:51Z</time>
      </trkpt>
      <trkpt lat="44.18705" lon="4.26556">
        <ele>171.732666</ele>
        <time>2012-05-10T12:14:08Z</time>
      </trkpt>
      <trkpt lat="44.1872" lon="4.26559">
        <ele>170.771362</ele>
        <time>2012-05-10T12:14:25Z</time>
      </trkpt>
      <trkpt lat="44.18735" lon="4.26562">
        <ele>169.810059</ele>
        <time>2012-05-10T12:14:35Z</time>
      </trkpt>
      <trkpt lat="44.18747" lon="4.26566">
        <ele>168.848755</ele>
        <time>2012-05-10T12:14:46Z</time>
      </trkpt>
      <trkpt lat="44.18765" lon="4.26571">
        <ele>167.887329</ele>
        <time>2012-05-10T12:15:05Z</time>
      </trkpt>
      <trkpt lat="44.18778" lon="4.26575">
        <ele>166.926025</ele>
        <time>2012-05-10T12:15:22Z</time>
      </trkpt>
      <trkpt lat="44.18792" lon="4.26579">
        <ele>165.964722</ele>
        <time>2012-05-10T12:15:36Z</time>
      </trkpt>
      <trkpt lat="44.18807" lon="4.26581">
        <ele>164.522705</ele>
        <time>2012-05-10T12:15:49Z</time>
      </trkpt>
      <trkpt lat="44.18816" lon="4.2658">
        <ele>164.042114</ele>
        <time>2012-05-10T12:15:57Z</time>
      </trkpt>
      <trkpt lat="44.18833" lon="4.26567">
        <ele>162.119507</ele>
        <time>2012-05-10T12:16:16Z</time>
      </trkpt>
      <trkpt lat="44.18837" lon="4.2656">
        <ele>161.638916</ele>
        <time>2012-05-10T12:16:22Z</time>
      </trkpt>
      <trkpt lat="44.18848" lon="4.26541">
        <ele>160.196899</ele>
        <time>2012-05-10T12:16:38Z</time>
      </trkpt>
      <trkpt lat="44.18865" lon="4.26524">
        <ele>158.754761</ele>
        <time>2012-05-10T12:16:57Z</time>
      </trkpt>
      <trkpt lat="44.18866" lon="4.2652">
        <ele>158.754761</ele>
        <time>2012-05-10T12:17:01Z</time>
      </trkpt>
      <trkpt lat="44.18868" lon="4.26518">
        <ele>158.27417</ele>
        <time>2012-05-10T12:17:03Z</time>
      </trkpt>
      <trkpt lat="44.18878" lon="4.26499">
        <ele>157.793579</ele>
        <time>2012-05-10T12:17:17Z</time>
      </trkpt>
      <trkpt lat="44.18894" lon="4.26483">
        <ele>157.312866</ele>
        <time>2012-05-10T12:17:33Z</time>
      </trkpt>
      <trkpt lat="44.18899" lon="4.26475">
        <ele>157.793579</ele>
        <time>2012-05-10T12:17:53Z</time>
      </trkpt>
      <trkpt lat="44.189" lon="4.26473">
        <ele>157.793579</ele>
        <time>2012-05-10T12:18:14Z</time>
      </trkpt>
      <trkpt lat="44.18905" lon="4.26456">
        <ele>157.312866</ele>
        <time>2012-05-10T12:19:01Z</time>
      </trkpt>
      <trkpt lat="44.18915" lon="4.26433">
        <ele>157.312866</ele>
        <time>2012-05-10T12:19:22Z</time>
      </trkpt>
      <trkpt lat="44.1893" lon="4.26406">
        <ele>156.832153</ele>
        <time>2012-05-10T12:19:42Z</time>
      </trkpt>
      <trkpt lat="44.18939" lon="4.26387">
        <ele>156.351563</ele>
        <time>2012-05-10T12:19:56Z</time>
      </trkpt>
      <trkpt lat="44.18944" lon="4.26378">
        <ele>156.351563</ele>
        <time>2012-05-10T12:20:03Z</time>
      </trkpt>
      <trkpt lat="44.1895" lon="4.26368">
        <ele>155.870972</ele>
        <time>2012-05-10T12:20:11Z</time>
      </trkpt>
      <trkpt lat="44.18953" lon="4.26364">
        <ele>155.870972</ele>
        <time>2012-05-10T12:20:14Z</time>
      </trkpt>
      <trkpt lat="44.18961" lon="4.26351">
        <ele>155.390259</ele>
        <time>2012-05-10T12:20:25Z</time>
      </trkpt>
      <trkpt lat="44.18965" lon="4.26344">
        <ele>155.390259</ele>
        <time>2012-05-10T12:20:31Z</time>
      </trkpt>
      <trkpt lat="44.1897" lon="4.26335">
        <ele>155.390259</ele>
        <time>2012-05-10T12:20:37Z</time>
      </trkpt>
      <trkpt lat="44.1898" lon="4.26315">
        <ele>154.909546</ele>
        <time>2012-05-10T12:20:54Z</time>
      </trkpt>
      <trkpt lat="44.1899" lon="4.26298">
        <ele>154.428955</ele>
        <time>2012-05-10T12:21:09Z</time>
      </trkpt>
      <trkpt lat="44.19001" lon="4.26275">
        <ele>153.948364</ele>
        <time>2012-05-10T12:21:27Z</time>
      </trkpt>
      <trkpt lat="44.19006" lon="4.26263">
        <ele>153.948364</ele>
        <time>2012-05-10T12:21:35Z</time>
      </trkpt>
      <trkpt lat="44.19009" lon="4.26261">
        <ele>153.948364</ele>
        <time>2012-05-10T12:21:37Z</time>
      </trkpt>
      <trkpt lat="44.19018" lon="4.26246">
        <ele>153.467651</ele>
        <time>2012-05-10T12:21:51Z</time>
      </trkpt>
      <trkpt lat="44.19035" lon="4.26232">
        <ele>153.467651</ele>
        <time>2012-05-10T12:22:07Z</time>
      </trkpt>
      <trkpt lat="44.19037" lon="4.26222">
        <ele>153.467651</ele>
        <time>2012-05-10T12:22:15Z</time>
      </trkpt>
      <trkpt lat="44.19046" lon="4.26197">
        <ele>153.467651</ele>
        <time>2012-05-10T12:22:34Z</time>
      </trkpt>
      <trkpt lat="44.19048" lon="4.26194">
        <ele>153.467651</ele>
        <time>2012-05-10T12:22:37Z</time>
      </trkpt>
      <trkpt lat="44.19054" lon="4.2617">
        <ele>152.986938</ele>
        <time>2012-05-10T12:22:53Z</time>
      </trkpt>
      <trkpt lat="44.1906" lon="4.26143">
        <ele>152.986938</ele>
        <time>2012-05-10T12:23:10Z</time>
      </trkpt>
      <trkpt lat="44.1907" lon="4.26112">
        <ele>152.986938</ele>
        <time>2012-05-10T12:23:33Z</time>
      </trkpt>
      <trkpt lat="44.19078" lon="4.26089">
        <ele>152.506348</ele>
        <time>2012-05-10T12:23:51Z</time>
      </trkpt>
      <trkpt lat="44.19081" lon="4.26082">
        <ele>152.506348</ele>
        <time>2012-05-10T12:23:57Z</time>
      </trkpt>
      <trkpt lat="44.19084" lon="4.26075">
        <ele>152.506348</ele>
        <time>2012-05-10T12:24:03Z</time>
      </trkpt>
      <trkpt lat="44.19091" lon="4.26073">
        <ele>152.506348</ele>
        <time>2012-05-10T12:24:12Z</time>
      </trkpt>
      <trkpt lat="44.19105" lon="4.26079">
        <ele>152.986938</ele>
        <time>2012-05-10T12:24:29Z</time>
      </trkpt>
      <trkpt lat="44.19121" lon="4.26091">
        <ele>152.986938</ele>
        <time>2012-05-10T12:24:46Z</time>
      </trkpt>
      <trkpt lat="44.19126" lon="4.26103">
        <ele>152.986938</ele>
        <time>2012-05-10T12:24:56Z</time>
      </trkpt>
      <trkpt lat="44.19128" lon="4.2611">
        <ele>153.467651</ele>
        <time>2012-05-10T12:25:01Z</time>
      </trkpt>
      <trkpt lat="44.19133" lon="4.26132">
        <ele>153.948364</ele>
        <time>2012-05-10T12:25:17Z</time>
      </trkpt>
      <trkpt lat="44.19134" lon="4.26135">
        <ele>153.948364</ele>
        <time>2012-05-10T12:25:19Z</time>
      </trkpt>
      <trkpt lat="44.19137" lon="4.26154">
        <ele>153.948364</ele>
        <time>2012-05-10T12:25:33Z</time>
      </trkpt>
      <trkpt lat="44.1914" lon="4.26169">
        <ele>154.428955</ele>
        <time>2012-05-10T12:25:45Z</time>
      </trkpt>
      <trkpt lat="44.19143" lon="4.26192">
        <ele>154.909546</ele>
        <time>2012-05-10T12:25:59Z</time>
      </trkpt>
      <trkpt lat="44.19148" lon="4.26213">
        <ele>155.390259</ele>
        <time>2012-05-10T12:26:14Z</time>
      </trkpt>
      <trkpt lat="44.19149" lon="4.26219">
        <ele>155.390259</ele>
        <time>2012-05-10T12:26:18Z</time>
      </trkpt>
      <trkpt lat="44.1915" lon="4.26229">
        <ele>155.870972</ele>
        <time>2012-05-10T12:26:25Z</time>
      </trkpt>
      <trkpt lat="44.19151" lon="4.26233">
        <ele>155.870972</ele>
        <time>2012-05-10T12:26:28Z</time>
      </trkpt>
      <trkpt lat="44.19164" lon="4.26248">
        <ele>155.870972</ele>
        <time>2012-05-10T12:26:41Z</time>
      </trkpt>
      <trkpt lat="44.19165" lon="4.26256">
        <ele>156.351563</ele>
        <time>2012-05-10T12:26:48Z</time>
      </trkpt>
      <trkpt lat="44.19173" lon="4.26271">
        <ele>156.832153</ele>
        <time>2012-05-10T12:27:00Z</time>
      </trkpt>
      <trkpt lat="44.19174" lon="4.26274">
        <ele>156.832153</ele>
        <time>2012-05-10T12:27:03Z</time>
      </trkpt>
      <trkpt lat="44.19186" lon="4.26292">
        <ele>156.832153</ele>
        <time>2012-05-10T12:27:18Z</time>
      </trkpt>
      <trkpt lat="44.19194" lon="4.26314">
        <ele>156.832153</ele>
        <time>2012-05-10T12:27:35Z</time>
      </trkpt>
      <trkpt lat="44.19195" lon="4.26316">
        <ele>157.312866</ele>
        <time>2012-05-10T12:27:37Z</time>
      </trkpt>
      <trkpt lat="44.19197" lon="4.26323">
        <ele>157.312866</ele>
        <time>2012-05-10T12:27:41Z</time>
      </trkpt>
      <trkpt lat="44.19198" lon="4.26333">
        <ele>157.312866</ele>
        <time>2012-05-10T12:27:48Z</time>
      </trkpt>
      <trkpt lat="44.19198" lon="4.26351">
        <ele>157.793579</ele>
        <time>2012-05-10T12:28:00Z</time>
      </trkpt>
      <trkpt lat="44.19196" lon="4.26357">
        <ele>157.793579</ele>
        <time>2012-05-10T12:28:04Z</time>
      </trkpt>
      <trkpt lat="44.19197" lon="4.26382">
        <ele>158.27417</ele>
        <time>2012-05-10T12:28:22Z</time>
      </trkpt>
      <trkpt lat="44.19196" lon="4.26393">
        <ele>158.27417</ele>
        <time>2012-05-10T12:28:30Z</time>
      </trkpt>
      <trkpt lat="44.19195" lon="4.26407">
        <ele>158.27417</ele>
        <time>2012-05-10T12:28:39Z</time>
      </trkpt>
      <trkpt lat="44.19189" lon="4.26431">
        <ele>159.235474</ele>
        <time>2012-05-10T12:28:58Z</time>
      </trkpt>
      <trkpt lat="44.19189" lon="4.26437">
        <ele>159.235474</ele>
        <time>2012-05-10T12:29:02Z</time>
      </trkpt>
      <trkpt lat="44.19193" lon="4.26465">
        <ele>159.716187</ele>
        <time>2012-05-10T12:29:21Z</time>
      </trkpt>
      <trkpt lat="44.19202" lon="4.26483">
        <ele>159.716187</ele>
        <time>2012-05-10T12:29:38Z</time>
      </trkpt>
      <trkpt lat="44.19213" lon="4.26504">
        <ele>160.196899</ele>
        <time>2012-05-10T12:29:56Z</time>
      </trkpt>
      <trkpt lat="44.19218" lon="4.26527">
        <ele>160.67749</ele>
        <time>2012-05-10T12:30:12Z</time>
      </trkpt>
      <trkpt lat="44.19221" lon="4.26544">
        <ele>161.158203</ele>
        <time>2012-05-10T12:30:24Z</time>
      </trkpt>
      <trkpt lat="44.1922" lon="4.26549">
        <ele>161.158203</ele>
        <time>2012-05-10T12:30:28Z</time>
      </trkpt>
      <trkpt lat="44.19221" lon="4.26568">
        <ele>161.638916</ele>
        <time>2012-05-10T12:30:43Z</time>
      </trkpt>
      <trkpt lat="44.19218" lon="4.26576">
        <ele>162.119507</ele>
        <time>2012-05-10T12:30:51Z</time>
      </trkpt>
      <trkpt lat="44.19212" lon="4.26596">
        <ele>163.561523</ele>
        <time>2012-05-10T12:31:07Z</time>
      </trkpt>
      <trkpt lat="44.1921" lon="4.26625">
        <ele>163.561523</ele>
        <time>2012-05-10T12:31:26Z</time>
      </trkpt>
      <trkpt lat="44.19213" lon="4.2665">
        <ele>163.561523</ele>
        <time>2012-05-10T12:31:42Z</time>
      </trkpt>
      <trkpt lat="44.19212" lon="4.26669">
        <ele>163.561523</ele>
        <time>2012-05-10T12:31:56Z</time>
      </trkpt>
      <trkpt lat="44.1921" lon="4.2668">
        <ele>164.042114</ele>
        <time>2012-05-10T12:32:05Z</time>
      </trkpt>
      <trkpt lat="44.192" lon="4.267">
        <ele>164.522705</ele>
        <time>2012-05-10T12:32:20Z</time>
      </trkpt>
      <trkpt lat="44.192" lon="4.26701">
        <ele>164.522705</ele>
        <time>2012-05-10T12:32:21Z</time>
      </trkpt>
      <trkpt lat="44.192" lon="4.26722">
        <ele>165.484131</ele>
        <time>2012-05-10T12:32:38Z</time>
      </trkpt>
      <trkpt lat="44.192" lon="4.26732">
        <ele>165.484131</ele>
        <time>2012-05-10T12:32:58Z</time>
      </trkpt>
      <trkpt lat="44.192" lon="4.26733">
        <ele>165.484131</ele>
        <time>2012-05-10T12:33:24Z</time>
      </trkpt>
      <trkpt lat="44.192" lon="4.26733">
        <ele>167.887329</ele>
        <time>2012-05-10T12:35:41Z</time>
      </trkpt>
      <trkpt lat="44.192" lon="4.26733">
        <ele>164.522705</ele>
        <time>2012-05-10T12:35:42Z</time>
      </trkpt>
      <trkpt lat="44.192" lon="4.26733">
        <ele>164.522705</ele>
        <time>2012-05-10T12:35:43Z</time>
      </trkpt>
      <trkpt lat="44.19197" lon="4.26734">
        <ele>165.484131</ele>
        <time>2012-05-10T12:38:14Z</time>
      </trkpt>
      <trkpt lat="44.19196" lon="4.2674">
        <ele>165.003418</ele>
        <time>2012-05-10T12:39:17Z</time>
      </trkpt>
      <trkpt lat="44.19197" lon="4.26745">
        <ele>165.003418</ele>
        <time>2012-05-10T12:39:21Z</time>
      </trkpt>
      <trkpt lat="44.19198" lon="4.2675">
        <ele>165.003418</ele>
        <time>2012-05-10T12:39:25Z</time>
      </trkpt>
      <trkpt lat="44.19199" lon="4.26756">
        <ele>165.003418</ele>
        <time>2012-05-10T12:39:29Z</time>
      </trkpt>
      <trkpt lat="44.192" lon="4.26761">
        <ele>165.003418</ele>
        <time>2012-05-10T12:39:32Z</time>
      </trkpt>
      <trkpt lat="44.19205" lon="4.26776">
        <ele>165.484131</ele>
        <time>2012-05-10T12:39:43Z</time>
      </trkpt>
      <trkpt lat="44.19208" lon="4.26793">
        <ele>165.484131</ele>
        <time>2012-05-10T12:39:54Z</time>
      </trkpt>
      <trkpt lat="44.19216" lon="4.26824">
        <ele>166.926025</ele>
        <time>2012-05-10T12:40:15Z</time>
      </trkpt>
      <trkpt lat="44.19218" lon="4.26834">
        <ele>167.406738</ele>
        <time>2012-05-10T12:40:22Z</time>
      </trkpt>
      <trkpt lat="44.19221" lon="4.26848">
        <ele>167.406738</ele>
        <time>2012-05-10T12:40:30Z</time>
      </trkpt>
      <trkpt lat="44.19223" lon="4.26853">
        <ele>167.406738</ele>
        <time>2012-05-10T12:40:34Z</time>
      </trkpt>
      <trkpt lat="44.19226" lon="4.26873">
        <ele>168.368042</ele>
        <time>2012-05-10T12:40:48Z</time>
      </trkpt>
      <trkpt lat="44.19229" lon="4.26883">
        <ele>168.848755</ele>
        <time>2012-05-10T12:40:55Z</time>
      </trkpt>
      <trkpt lat="44.19231" lon="4.26899">
        <ele>169.329468</ele>
        <time>2012-05-10T12:41:05Z</time>
      </trkpt>
      <trkpt lat="44.19233" lon="4.26906">
        <ele>169.329468</ele>
        <time>2012-05-10T12:41:09Z</time>
      </trkpt>
      <trkpt lat="44.19235" lon="4.26912">
        <ele>169.329468</ele>
        <time>2012-05-10T12:41:13Z</time>
      </trkpt>
      <trkpt lat="44.1924" lon="4.26929">
        <ele>170.290649</ele>
        <time>2012-05-10T12:41:25Z</time>
      </trkpt>
      <trkpt lat="44.19242" lon="4.26931">
        <ele>170.290649</ele>
        <time>2012-05-10T12:41:27Z</time>
      </trkpt>
      <trkpt lat="44.19247" lon="4.26944">
        <ele>170.290649</ele>
        <time>2012-05-10T12:41:37Z</time>
      </trkpt>
      <trkpt lat="44.19256" lon="4.26966">
        <ele>170.771362</ele>
        <time>2012-05-10T12:41:53Z</time>
      </trkpt>
      <trkpt lat="44.19271" lon="4.26985">
        <ele>170.771362</ele>
        <time>2012-05-10T12:42:09Z</time>
      </trkpt>
      <trkpt lat="44.19276" lon="4.26995">
        <ele>170.771362</ele>
        <time>2012-05-10T12:42:16Z</time>
      </trkpt>
      <trkpt lat="44.19279" lon="4.27001">
        <ele>170.771362</ele>
        <time>2012-05-10T12:42:20Z</time>
      </trkpt>
      <trkpt lat="44.19289" lon="4.2702">
        <ele>171.252075</ele>
        <time>2012-05-10T12:42:35Z</time>
      </trkpt>
      <trkpt lat="44.19296" lon="4.27034">
        <ele>172.213257</ele>
        <time>2012-05-10T12:42:50Z</time>
      </trkpt>
      <trkpt lat="44.19296" lon="4.27048">
        <ele>172.69397</ele>
        <time>2012-05-10T12:43:00Z</time>
      </trkpt>
      <trkpt lat="44.19296" lon="4.27069">
        <ele>173.655273</ele>
        <time>2012-05-10T12:43:16Z</time>
      </trkpt>
      <trkpt lat="44.19293" lon="4.27082">
        <ele>174.616577</ele>
        <time>2012-05-10T12:43:27Z</time>
      </trkpt>
      <trkpt lat="44.19292" lon="4.27085">
        <ele>174.616577</ele>
        <time>2012-05-10T12:43:29Z</time>
      </trkpt>
      <trkpt lat="44.19292" lon="4.27097">
        <ele>174.616577</ele>
        <time>2012-05-10T12:43:35Z</time>
      </trkpt>
      <trkpt lat="44.1929" lon="4.27125">
        <ele>175.577881</ele>
        <time>2012-05-10T12:43:52Z</time>
      </trkpt>
      <trkpt lat="44.19293" lon="4.27138">
        <ele>176.058594</ele>
        <time>2012-05-10T12:44:01Z</time>
      </trkpt>
      <trkpt lat="44.19285" lon="4.27167">
        <ele>176.539307</ele>
        <time>2012-05-10T12:44:20Z</time>
      </trkpt>
      <trkpt lat="44.19276" lon="4.27192">
        <ele>177.50061</ele>
        <time>2012-05-10T12:44:37Z</time>
      </trkpt>
      <trkpt lat="44.1927" lon="4.2722">
        <ele>177.981201</ele>
        <time>2012-05-10T12:44:56Z</time>
      </trkpt>
      <trkpt lat="44.19268" lon="4.27232">
        <ele>178.461914</ele>
        <time>2012-05-10T12:45:05Z</time>
      </trkpt>
      <trkpt lat="44.19267" lon="4.27235">
        <ele>177.981201</ele>
        <time>2012-05-10T12:45:08Z</time>
      </trkpt>
      <trkpt lat="44.19266" lon="4.27258">
        <ele>178.942627</ele>
        <time>2012-05-10T12:45:24Z</time>
      </trkpt>
      <trkpt lat="44.19266" lon="4.27269">
        <ele>178.942627</ele>
        <time>2012-05-10T12:45:33Z</time>
      </trkpt>
      <trkpt lat="44.19265" lon="4.27297">
        <ele>179.423218</ele>
        <time>2012-05-10T12:45:51Z</time>
      </trkpt>
      <trkpt lat="44.19263" lon="4.27315">
        <ele>179.903809</ele>
        <time>2012-05-10T12:46:03Z</time>
      </trkpt>
      <trkpt lat="44.19262" lon="4.27336">
        <ele>180.384521</ele>
        <time>2012-05-10T12:46:18Z</time>
      </trkpt>
      <trkpt lat="44.19261" lon="4.27346">
        <ele>180.865234</ele>
        <time>2012-05-10T12:46:27Z</time>
      </trkpt>
      <trkpt lat="44.19259" lon="4.27366">
        <ele>181.345825</ele>
        <time>2012-05-10T12:46:41Z</time>
      </trkpt>
      <trkpt lat="44.19259" lon="4.2737">
        <ele>181.345825</ele>
        <time>2012-05-10T12:46:44Z</time>
      </trkpt>
      <trkpt lat="44.19257" lon="4.2739">
        <ele>181.826416</ele>
        <time>2012-05-10T12:46:58Z</time>
      </trkpt>
      <trkpt lat="44.19258" lon="4.27406">
        <ele>182.787842</ele>
        <time>2012-05-10T12:47:12Z</time>
      </trkpt>
      <trkpt lat="44.19264" lon="4.27417">
        <ele>183.749023</ele>
        <time>2012-05-10T12:47:25Z</time>
      </trkpt>
      <trkpt lat="44.19261" lon="4.27433">
        <ele>185.671753</ele>
        <time>2012-05-10T12:47:37Z</time>
      </trkpt>
      <trkpt lat="44.19258" lon="4.27448">
        <ele>187.59436</ele>
        <time>2012-05-10T12:47:51Z</time>
      </trkpt>
      <trkpt lat="44.19258" lon="4.27475">
        <ele>189.997681</ele>
        <time>2012-05-10T12:48:09Z</time>
      </trkpt>
      <trkpt lat="44.19259" lon="4.27478">
        <ele>189.516968</ele>
        <time>2012-05-10T12:48:12Z</time>
      </trkpt>
      <trkpt lat="44.19253" lon="4.27501">
        <ele>191.439575</ele>
        <time>2012-05-10T12:48:29Z</time>
      </trkpt>
      <trkpt lat="44.19251" lon="4.27507">
        <ele>191.439575</ele>
        <time>2012-05-10T12:48:35Z</time>
      </trkpt>
      <trkpt lat="44.19251" lon="4.27526">
        <ele>193.362305</ele>
        <time>2012-05-10T12:48:52Z</time>
      </trkpt>
      <trkpt lat="44.19252" lon="4.27532">
        <ele>193.843018</ele>
        <time>2012-05-10T12:48:57Z</time>
      </trkpt>
      <trkpt lat="44.19253" lon="4.27552">
        <ele>196.246338</ele>
        <time>2012-05-10T12:49:14Z</time>
      </trkpt>
      <trkpt lat="44.19254" lon="4.27566">
        <ele>198.168945</ele>
        <time>2012-05-10T12:49:26Z</time>
      </trkpt>
      <trkpt lat="44.19255" lon="4.27586">
        <ele>200.572266</ele>
        <time>2012-05-10T12:49:42Z</time>
      </trkpt>
      <trkpt lat="44.19257" lon="4.27613">
        <ele>201.533569</ele>
        <time>2012-05-10T12:50:01Z</time>
      </trkpt>
      <trkpt lat="44.19261" lon="4.27638">
        <ele>202.975464</ele>
        <time>2012-05-10T12:50:20Z</time>
      </trkpt>
      <trkpt lat="44.19262" lon="4.27652">
        <ele>204.41748</ele>
        <time>2012-05-10T12:50:32Z</time>
      </trkpt>
      <trkpt lat="44.19258" lon="4.27671">
        <ele>207.301392</ele>
        <time>2012-05-10T12:50:51Z</time>
      </trkpt>
      <trkpt lat="44.19257" lon="4.27677">
        <ele>207.782104</ele>
        <time>2012-05-10T12:50:56Z</time>
      </trkpt>
      <trkpt lat="44.19252" lon="4.27699">
        <ele>209.704834</ele>
        <time>2012-05-10T12:51:10Z</time>
      </trkpt>
      <trkpt lat="44.19251" lon="4.27709">
        <ele>210.666016</ele>
        <time>2012-05-10T12:51:19Z</time>
      </trkpt>
      <trkpt lat="44.19249" lon="4.27727">
        <ele>211.627441</ele>
        <time>2012-05-10T12:51:29Z</time>
      </trkpt>
      <trkpt lat="44.19247" lon="4.27734">
        <ele>211.627441</ele>
        <time>2012-05-10T12:51:34Z</time>
      </trkpt>
      <trkpt lat="44.19245" lon="4.27747">
        <ele>211.627441</ele>
        <time>2012-05-10T12:51:42Z</time>
      </trkpt>
      <trkpt lat="44.19246" lon="4.27768">
        <ele>213.069336</ele>
        <time>2012-05-10T12:51:58Z</time>
      </trkpt>
      <trkpt lat="44.19242" lon="4.27794">
        <ele>214.51123</ele>
        <time>2012-05-10T12:52:17Z</time>
      </trkpt>
      <trkpt lat="44.19242" lon="4.27803">
        <ele>214.991943</ele>
        <time>2012-05-10T12:52:23Z</time>
      </trkpt>
      <trkpt lat="44.19243" lon="4.27811">
        <ele>215.472656</ele>
        <time>2012-05-10T12:52:29Z</time>
      </trkpt>
      <trkpt lat="44.19242" lon="4.27828">
        <ele>215.953247</ele>
        <time>2012-05-10T12:52:40Z</time>
      </trkpt>
      <trkpt lat="44.19241" lon="4.27862">
        <ele>216.914673</ele>
        <time>2012-05-10T12:53:01Z</time>
      </trkpt>
      <trkpt lat="44.19239" lon="4.27883">
        <ele>217.395386</ele>
        <time>2012-05-10T12:53:15Z</time>
      </trkpt>
      <trkpt lat="44.19237" lon="4.2791">
        <ele>220.279175</ele>
        <time>2012-05-10T12:53:32Z</time>
      </trkpt>
      <trkpt lat="44.19234" lon="4.27935">
        <ele>221.240601</ele>
        <time>2012-05-10T12:53:47Z</time>
      </trkpt>
      <trkpt lat="44.19234" lon="4.27959">
        <ele>222.682495</ele>
        <time>2012-05-10T12:54:00Z</time>
      </trkpt>
      <trkpt lat="44.19236" lon="4.27979">
        <ele>224.605225</ele>
        <time>2012-05-10T12:54:16Z</time>
      </trkpt>
      <trkpt lat="44.1924" lon="4.28007">
        <ele>227.008545</ele>
        <time>2012-05-10T12:54:37Z</time>
      </trkpt>
      <trkpt lat="44.19246" lon="4.28034">
        <ele>228.450439</ele>
        <time>2012-05-10T12:54:56Z</time>
      </trkpt>
      <trkpt lat="44.19248" lon="4.28038">
        <ele>228.931152</ele>
        <time>2012-05-10T12:55:00Z</time>
      </trkpt>
      <trkpt lat="44.19255" lon="4.2806">
        <ele>230.85376</ele>
        <time>2012-05-10T12:55:18Z</time>
      </trkpt>
      <trkpt lat="44.19256" lon="4.28062">
        <ele>231.334351</ele>
        <time>2012-05-10T12:55:20Z</time>
      </trkpt>
      <trkpt lat="44.19261" lon="4.28082">
        <ele>233.737671</ele>
        <time>2012-05-10T12:55:36Z</time>
      </trkpt>
      <trkpt lat="44.19264" lon="4.28113">
        <ele>236.621704</ele>
        <time>2012-05-10T12:55:58Z</time>
      </trkpt>
      <trkpt lat="44.19266" lon="4.28127">
        <ele>238.544312</ele>
        <time>2012-05-10T12:56:11Z</time>
      </trkpt>
      <trkpt lat="44.1927" lon="4.2815">
        <ele>241.428223</ele>
        <time>2012-05-10T12:56:31Z</time>
      </trkpt>
      <trkpt lat="44.19271" lon="4.2817">
        <ele>244.312256</ele>
        <time>2012-05-10T12:56:49Z</time>
      </trkpt>
      <trkpt lat="44.19276" lon="4.28192">
        <ele>246.715454</ele>
        <time>2012-05-10T12:57:06Z</time>
      </trkpt>
      <trkpt lat="44.19277" lon="4.28195">
        <ele>247.196045</ele>
        <time>2012-05-10T12:57:09Z</time>
      </trkpt>
      <trkpt lat="44.19278" lon="4.282">
        <ele>247.676758</ele>
        <time>2012-05-10T12:57:13Z</time>
      </trkpt>
      <trkpt lat="44.19283" lon="4.2822">
        <ele>250.0802</ele>
        <time>2012-05-10T12:57:29Z</time>
      </trkpt>
      <trkpt lat="44.19292" lon="4.28242">
        <ele>252.963989</ele>
        <time>2012-05-10T12:57:50Z</time>
      </trkpt>
      <trkpt lat="44.19297" lon="4.28267">
        <ele>255.848022</ele>
        <time>2012-05-10T12:58:13Z</time>
      </trkpt>
      <trkpt lat="44.19302" lon="4.28294">
        <ele>258.731934</ele>
        <time>2012-05-10T12:58:33Z</time>
      </trkpt>
      <trkpt lat="44.19305" lon="4.28312">
        <ele>260.654541</ele>
        <time>2012-05-10T12:58:49Z</time>
      </trkpt>
      <trkpt lat="44.19305" lon="4.28317">
        <ele>261.615967</ele>
        <time>2012-05-10T12:58:54Z</time>
      </trkpt>
      <trkpt lat="44.19301" lon="4.28331">
        <ele>263.538574</ele>
        <time>2012-05-10T12:59:07Z</time>
      </trkpt>
      <trkpt lat="44.19288" lon="4.28327">
        <ele>266.903198</ele>
        <time>2012-05-10T12:59:25Z</time>
      </trkpt>
      <trkpt lat="44.19273" lon="4.28323">
        <ele>269.787109</ele>
        <time>2012-05-10T12:59:46Z</time>
      </trkpt>
      <trkpt lat="44.1926" lon="4.28322">
        <ele>272.671143</ele>
        <time>2012-05-10T13:00:04Z</time>
      </trkpt>
      <trkpt lat="44.19242" lon="4.28319">
        <ele>275.555054</ele>
        <time>2012-05-10T13:00:26Z</time>
      </trkpt>
      <trkpt lat="44.19231" lon="4.28316">
        <ele>276.99707</ele>
        <time>2012-05-10T13:00:38Z</time>
      </trkpt>
      <trkpt lat="44.19228" lon="4.28315">
        <ele>277.477661</ele>
        <time>2012-05-10T13:00:41Z</time>
      </trkpt>
      <trkpt lat="44.19206" lon="4.28291">
        <ele>278.919678</ele>
        <time>2012-05-10T13:01:06Z</time>
      </trkpt>
      <trkpt lat="44.19196" lon="4.28282">
        <ele>280.361694</ele>
        <time>2012-05-10T13:01:18Z</time>
      </trkpt>
      <trkpt lat="44.19195" lon="4.28288">
        <ele>280.842407</ele>
        <time>2012-05-10T13:01:23Z</time>
      </trkpt>
      <trkpt lat="44.19198" lon="4.2831">
        <ele>281.322998</ele>
        <time>2012-05-10T13:01:43Z</time>
      </trkpt>
      <trkpt lat="44.19198" lon="4.28308">
        <ele>281.803589</ele>
        <time>2012-05-10T13:02:27Z</time>
      </trkpt>
      <trkpt lat="44.19198" lon="4.28308">
        <ele>280.842407</ele>
        <time>2012-05-10T13:10:12Z</time>
      </trkpt>
      <trkpt lat="44.19197" lon="4.28306">
        <ele>280.361694</ele>
        <time>2012-05-10T13:10:59Z</time>
      </trkpt>
      <trkpt lat="44.19197" lon="4.28308">
        <ele>280.842407</ele>
        <time>2012-05-10T13:11:17Z</time>
      </trkpt>
      <trkpt lat="44.19197" lon="4.28309">
        <ele>280.361694</ele>
        <time>2012-05-10T13:11:36Z</time>
      </trkpt>
      <trkpt lat="44.19199" lon="4.28315">
        <ele>280.842407</ele>
        <time>2012-05-10T13:12:01Z</time>
      </trkpt>
      <trkpt lat="44.19203" lon="4.28331">
        <ele>280.361694</ele>
        <time>2012-05-10T13:12:16Z</time>
      </trkpt>
      <trkpt lat="44.19214" lon="4.28347">
        <ele>279.400269</ele>
        <time>2012-05-10T13:12:34Z</time>
      </trkpt>
      <trkpt lat="44.19217" lon="4.28349">
        <ele>278.919678</ele>
        <time>2012-05-10T13:12:36Z</time>
      </trkpt>
      <trkpt lat="44.19219" lon="4.28351">
        <ele>278.919678</ele>
        <time>2012-05-10T13:12:38Z</time>
      </trkpt>
      <trkpt lat="44.19219" lon="4.28354">
        <ele>278.919678</ele>
        <time>2012-05-10T13:12:41Z</time>
      </trkpt>
      <trkpt lat="44.19221" lon="4.28363">
        <ele>278.919678</ele>
        <time>2012-05-10T13:12:47Z</time>
      </trkpt>
      <trkpt lat="44.19227" lon="4.28374">
        <ele>279.400269</ele>
        <time>2012-05-10T13:12:58Z</time>
      </trkpt>
      <trkpt lat="44.19237" lon="4.28381">
        <ele>279.880859</ele>
        <time>2012-05-10T13:13:10Z</time>
      </trkpt>
      <trkpt lat="44.19245" lon="4.28393">
        <ele>280.842407</ele>
        <time>2012-05-10T13:13:22Z</time>
      </trkpt>
      <trkpt lat="44.19248" lon="4.28403">
        <ele>281.322998</ele>
        <time>2012-05-10T13:13:30Z</time>
      </trkpt>
      <trkpt lat="44.19256" lon="4.28421">
        <ele>281.803589</ele>
        <time>2012-05-10T13:13:45Z</time>
      </trkpt>
      <trkpt lat="44.19257" lon="4.28422">
        <ele>281.803589</ele>
        <time>2012-05-10T13:13:46Z</time>
      </trkpt>
      <trkpt lat="44.19261" lon="4.28423">
        <ele>281.803589</ele>
        <time>2012-05-10T13:13:49Z</time>
      </trkpt>
      <trkpt lat="44.19269" lon="4.28431">
        <ele>281.803589</ele>
        <time>2012-05-10T13:13:57Z</time>
      </trkpt>
      <trkpt lat="44.19271" lon="4.28438">
        <ele>281.803589</ele>
        <time>2012-05-10T13:14:02Z</time>
      </trkpt>
      <trkpt lat="44.19273" lon="4.28443">
        <ele>281.322998</ele>
        <time>2012-05-10T13:14:06Z</time>
      </trkpt>
      <trkpt lat="44.19273" lon="4.2845">
        <ele>281.322998</ele>
        <time>2012-05-10T13:14:10Z</time>
      </trkpt>
      <trkpt lat="44.19274" lon="4.28453">
        <ele>280.842407</ele>
        <time>2012-05-10T13:14:12Z</time>
      </trkpt>
      <trkpt lat="44.19287" lon="4.28475">
        <ele>280.842407</ele>
        <time>2012-05-10T13:14:30Z</time>
      </trkpt>
      <trkpt lat="44.19295" lon="4.28481">
        <ele>280.842407</ele>
        <time>2012-05-10T13:14:37Z</time>
      </trkpt>
      <trkpt lat="44.19297" lon="4.28485">
        <ele>280.842407</ele>
        <time>2012-05-10T13:14:41Z</time>
      </trkpt>
      <trkpt lat="44.19308" lon="4.28501">
        <ele>281.322998</ele>
        <time>2012-05-10T13:14:55Z</time>
      </trkpt>
      <trkpt lat="44.19308" lon="4.28504">
        <ele>281.322998</ele>
        <time>2012-05-10T13:14:58Z</time>
      </trkpt>
      <trkpt lat="44.19315" lon="4.28514">
        <ele>281.322998</ele>
        <time>2012-05-10T13:15:06Z</time>
      </trkpt>
      <trkpt lat="44.19327" lon="4.28537">
        <ele>282.765015</ele>
        <time>2012-05-10T13:15:26Z</time>
      </trkpt>
      <trkpt lat="44.1933" lon="4.28541">
        <ele>283.245605</ele>
        <time>2012-05-10T13:15:31Z</time>
      </trkpt>
      <trkpt lat="44.19341" lon="4.28552">
        <ele>284.687622</ele>
        <time>2012-05-10T13:15:44Z</time>
      </trkpt>
      <trkpt lat="44.19353" lon="4.28568">
        <ele>286.129517</ele>
        <time>2012-05-10T13:16:00Z</time>
      </trkpt>
      <trkpt lat="44.19354" lon="4.28583">
        <ele>286.610229</ele>
        <time>2012-05-10T13:16:10Z</time>
      </trkpt>
      <trkpt lat="44.19364" lon="4.28619">
        <ele>287.09082</ele>
        <time>2012-05-10T13:16:36Z</time>
      </trkpt>
      <trkpt lat="44.19365" lon="4.28624">
        <ele>287.09082</ele>
        <time>2012-05-10T13:16:39Z</time>
      </trkpt>
      <trkpt lat="44.19368" lon="4.28652">
        <ele>286.129517</ele>
        <time>2012-05-10T13:16:56Z</time>
      </trkpt>
      <trkpt lat="44.19372" lon="4.28673">
        <ele>286.129517</ele>
        <time>2012-05-10T13:17:14Z</time>
      </trkpt>
      <trkpt lat="44.19384" lon="4.28679">
        <ele>287.571411</ele>
        <time>2012-05-10T13:17:26Z</time>
      </trkpt>
      <trkpt lat="44.19391" lon="4.287">
        <ele>287.09082</ele>
        <time>2012-05-10T13:17:45Z</time>
      </trkpt>
      <trkpt lat="44.19403" lon="4.28712">
        <ele>288.532959</ele>
        <time>2012-05-10T13:18:01Z</time>
      </trkpt>
      <trkpt lat="44.19414" lon="4.28711">
        <ele>289.974854</ele>
        <time>2012-05-10T13:18:16Z</time>
      </trkpt>
      <trkpt lat="44.19417" lon="4.28702">
        <ele>291.416748</ele>
        <time>2012-05-10T13:18:26Z</time>
      </trkpt>
      <trkpt lat="44.19415" lon="4.28677">
        <ele>292.858765</ele>
        <time>2012-05-10T13:18:43Z</time>
      </trkpt>
      <trkpt lat="44.19416" lon="4.2867">
        <ele>293.339355</ele>
        <time>2012-05-10T13:18:48Z</time>
      </trkpt>
      <trkpt lat="44.19414" lon="4.28641">
        <ele>294.300781</ele>
        <time>2012-05-10T13:19:08Z</time>
      </trkpt>
      <trkpt lat="44.19421" lon="4.28615">
        <ele>295.261963</ele>
        <time>2012-05-10T13:19:28Z</time>
      </trkpt>
      <trkpt lat="44.19431" lon="4.28596">
        <ele>296.704102</ele>
        <time>2012-05-10T13:19:47Z</time>
      </trkpt>
      <trkpt lat="44.19445" lon="4.28579">
        <ele>300.068726</ele>
        <time>2012-05-10T13:20:08Z</time>
      </trkpt>
      <trkpt lat="44.19456" lon="4.28564">
        <ele>302.952515</ele>
        <time>2012-05-10T13:20:27Z</time>
      </trkpt>
      <trkpt lat="44.19464" lon="4.28567">
        <ele>305.83667</ele>
        <time>2012-05-10T13:20:43Z</time>
      </trkpt>
      <trkpt lat="44.19472" lon="4.28569">
        <ele>309.201172</ele>
        <time>2012-05-10T13:20:59Z</time>
      </trkpt>
      <trkpt lat="44.19475" lon="4.28558">
        <ele>311.123779</ele>
        <time>2012-05-10T13:21:15Z</time>
      </trkpt>
      <trkpt lat="44.19472" lon="4.2854">
        <ele>311.123779</ele>
        <time>2012-05-10T13:21:30Z</time>
      </trkpt>
      <trkpt lat="44.19479" lon="4.28525">
        <ele>312.565796</ele>
        <time>2012-05-10T13:21:48Z</time>
      </trkpt>
      <trkpt lat="44.19485" lon="4.28502">
        <ele>315.93042</ele>
        <time>2012-05-10T13:22:09Z</time>
      </trkpt>
      <trkpt lat="44.19488" lon="4.28477">
        <ele>317.853027</ele>
        <time>2012-05-10T13:22:30Z</time>
      </trkpt>
      <trkpt lat="44.1949" lon="4.2846">
        <ele>320.256348</ele>
        <time>2012-05-10T13:22:46Z</time>
      </trkpt>
      <trkpt lat="44.19493" lon="4.2845">
        <ele>321.698364</ele>
        <time>2012-05-10T13:22:56Z</time>
      </trkpt>
      <trkpt lat="44.19498" lon="4.28443">
        <ele>324.101563</ele>
        <time>2012-05-10T13:23:11Z</time>
      </trkpt>
      <trkpt lat="44.19506" lon="4.28438">
        <ele>326.504883</ele>
        <time>2012-05-10T13:23:27Z</time>
      </trkpt>
      <trkpt lat="44.19511" lon="4.2843">
        <ele>328.908325</ele>
        <time>2012-05-10T13:23:40Z</time>
      </trkpt>
      <trkpt lat="44.19519" lon="4.2842">
        <ele>331.792114</ele>
        <time>2012-05-10T13:24:00Z</time>
      </trkpt>
      <trkpt lat="44.19523" lon="4.28419">
        <ele>332.272827</ele>
        <time>2012-05-10T13:24:24Z</time>
      </trkpt>
      <trkpt lat="44.19523" lon="4.28418">
        <ele>332.272827</ele>
        <time>2012-05-10T13:27:33Z</time>
      </trkpt>
      <trkpt lat="44.19523" lon="4.28411">
        <ele>332.75354</ele>
        <time>2012-05-10T13:27:52Z</time>
      </trkpt>
      <trkpt lat="44.19521" lon="4.28406">
        <ele>332.272827</ele>
        <time>2012-05-10T13:28:04Z</time>
      </trkpt>
      <trkpt lat="44.19514" lon="4.28397">
        <ele>333.234131</ele>
        <time>2012-05-10T13:28:20Z</time>
      </trkpt>
      <trkpt lat="44.1951" lon="4.28385">
        <ele>332.272827</ele>
        <time>2012-05-10T13:28:38Z</time>
      </trkpt>
      <trkpt lat="44.19506" lon="4.28366">
        <ele>331.792114</ele>
        <time>2012-05-10T13:28:57Z</time>
      </trkpt>
      <trkpt lat="44.19507" lon="4.28355">
        <ele>332.272827</ele>
        <time>2012-05-10T13:29:11Z</time>
      </trkpt>
      <trkpt lat="44.19505" lon="4.2834">
        <ele>332.272827</ele>
        <time>2012-05-10T13:29:30Z</time>
      </trkpt>
      <trkpt lat="44.19504" lon="4.28328">
        <ele>331.792114</ele>
        <time>2012-05-10T13:29:44Z</time>
      </trkpt>
      <trkpt lat="44.19504" lon="4.28316">
        <ele>331.792114</ele>
        <time>2012-05-10T13:29:59Z</time>
      </trkpt>
      <trkpt lat="44.195" lon="4.28303">
        <ele>331.792114</ele>
        <time>2012-05-10T13:30:16Z</time>
      </trkpt>
      <trkpt lat="44.19497" lon="4.28292">
        <ele>332.272827</ele>
        <time>2012-05-10T13:30:32Z</time>
      </trkpt>
      <trkpt lat="44.19497" lon="4.28283">
        <ele>331.311523</ele>
        <time>2012-05-10T13:30:46Z</time>
      </trkpt>
      <trkpt lat="44.19496" lon="4.28269">
        <ele>331.311523</ele>
        <time>2012-05-10T13:31:03Z</time>
      </trkpt>
      <trkpt lat="44.19495" lon="4.28264">
        <ele>331.792114</ele>
        <time>2012-05-10T13:31:17Z</time>
      </trkpt>
      <trkpt lat="44.19494" lon="4.28259">
        <ele>331.311523</ele>
        <time>2012-05-10T13:31:29Z</time>
      </trkpt>
      <trkpt lat="44.19496" lon="4.28249">
        <ele>330.35022</ele>
        <time>2012-05-10T13:31:44Z</time>
      </trkpt>
      <trkpt lat="44.19497" lon="4.28237">
        <ele>329.869507</ele>
        <time>2012-05-10T13:31:59Z</time>
      </trkpt>
      <trkpt lat="44.19497" lon="4.28236">
        <ele>329.869507</ele>
        <time>2012-05-10T13:32:01Z</time>
      </trkpt>
      <trkpt lat="44.19497" lon="4.28221">
        <ele>329.869507</ele>
        <time>2012-05-10T13:32:16Z</time>
      </trkpt>
      <trkpt lat="44.19492" lon="4.282">
        <ele>330.830933</ele>
        <time>2012-05-10T13:32:39Z</time>
      </trkpt>
      <trkpt lat="44.19493" lon="4.28191">
        <ele>330.35022</ele>
        <time>2012-05-10T13:32:55Z</time>
      </trkpt>
      <trkpt lat="44.19496" lon="4.28184">
        <ele>329.388916</ele>
        <time>2012-05-10T13:33:11Z</time>
      </trkpt>
      <trkpt lat="44.19495" lon="4.28175">
        <ele>330.35022</ele>
        <time>2012-05-10T13:33:29Z</time>
      </trkpt>
      <trkpt lat="44.19497" lon="4.28182">
        <ele>329.388916</ele>
        <time>2012-05-10T13:33:40Z</time>
      </trkpt>
      <trkpt lat="44.19491" lon="4.28181">
        <ele>328.427612</ele>
        <time>2012-05-10T13:34:07Z</time>
      </trkpt>
      <trkpt lat="44.19487" lon="4.28184">
        <ele>327.946777</ele>
        <time>2012-05-10T13:34:46Z</time>
      </trkpt>
      <trkpt lat="44.19492" lon="4.28172">
        <ele>330.35022</ele>
        <time>2012-05-10T13:35:45Z</time>
      </trkpt>
      <trkpt lat="44.19495" lon="4.28163">
        <ele>330.35022</ele>
        <time>2012-05-10T13:35:58Z</time>
      </trkpt>
      <trkpt lat="44.19495" lon="4.28151">
        <ele>330.830933</ele>
        <time>2012-05-10T13:36:13Z</time>
      </trkpt>
      <trkpt lat="44.19494" lon="4.28136">
        <ele>331.311523</ele>
        <time>2012-05-10T13:36:29Z</time>
      </trkpt>
      <trkpt lat="44.19493" lon="4.2813">
        <ele>332.272827</ele>
        <time>2012-05-10T13:36:42Z</time>
      </trkpt>
      <trkpt lat="44.19492" lon="4.28113">
        <ele>332.75354</ele>
        <time>2012-05-10T13:36:57Z</time>
      </trkpt>
      <trkpt lat="44.1949" lon="4.28106">
        <ele>333.234131</ele>
        <time>2012-05-10T13:37:12Z</time>
      </trkpt>
      <trkpt lat="44.1949" lon="4.28097">
        <ele>333.234131</ele>
        <time>2012-05-10T13:38:04Z</time>
      </trkpt>
      <trkpt lat="44.19484" lon="4.28075">
        <ele>332.75354</ele>
        <time>2012-05-10T13:38:25Z</time>
      </trkpt>
      <trkpt lat="44.19485" lon="4.28058">
        <ele>331.311523</ele>
        <time>2012-05-10T13:38:41Z</time>
      </trkpt>
      <trkpt lat="44.19489" lon="4.28049">
        <ele>329.869507</ele>
        <time>2012-05-10T13:38:51Z</time>
      </trkpt>
      <trkpt lat="44.1949" lon="4.28028">
        <ele>328.427612</ele>
        <time>2012-05-10T13:39:07Z</time>
      </trkpt>
      <trkpt lat="44.19498" lon="4.28018">
        <ele>326.504883</ele>
        <time>2012-05-10T13:39:22Z</time>
      </trkpt>
      <trkpt lat="44.19495" lon="4.28004">
        <ele>325.543579</ele>
        <time>2012-05-10T13:39:34Z</time>
      </trkpt>
      <trkpt lat="44.19491" lon="4.27987">
        <ele>324.101563</ele>
        <time>2012-05-10T13:39:50Z</time>
      </trkpt>
      <trkpt lat="44.19489" lon="4.27969">
        <ele>323.620972</ele>
        <time>2012-05-10T13:40:05Z</time>
      </trkpt>
      <trkpt lat="44.19486" lon="4.27958">
        <ele>324.101563</ele>
        <time>2012-05-10T13:40:13Z</time>
      </trkpt>
      <trkpt lat="44.19478" lon="4.27946">
        <ele>324.101563</ele>
        <time>2012-05-10T13:40:29Z</time>
      </trkpt>
      <trkpt lat="44.19478" lon="4.27937">
        <ele>323.620972</ele>
        <time>2012-05-10T13:40:46Z</time>
      </trkpt>
      <trkpt lat="44.19481" lon="4.27933">
        <ele>322.659668</ele>
        <time>2012-05-10T13:41:03Z</time>
      </trkpt>
      <trkpt lat="44.19483" lon="4.27921">
        <ele>322.659668</ele>
        <time>2012-05-10T13:41:26Z</time>
      </trkpt>
      <trkpt lat="44.19478" lon="4.27902">
        <ele>323.620972</ele>
        <time>2012-05-10T13:41:46Z</time>
      </trkpt>
      <trkpt lat="44.19477" lon="4.27886">
        <ele>324.101563</ele>
        <time>2012-05-10T13:42:00Z</time>
      </trkpt>
      <trkpt lat="44.1948" lon="4.27874">
        <ele>323.620972</ele>
        <time>2012-05-10T13:42:13Z</time>
      </trkpt>
      <trkpt lat="44.19482" lon="4.2786">
        <ele>323.140381</ele>
        <time>2012-05-10T13:42:28Z</time>
      </trkpt>
      <trkpt lat="44.19491" lon="4.27849">
        <ele>322.659668</ele>
        <time>2012-05-10T13:42:44Z</time>
      </trkpt>
      <trkpt lat="44.19491" lon="4.27832">
        <ele>323.620972</ele>
        <time>2012-05-10T13:43:00Z</time>
      </trkpt>
      <trkpt lat="44.19497" lon="4.27819">
        <ele>324.582275</ele>
        <time>2012-05-10T13:43:19Z</time>
      </trkpt>
      <trkpt lat="44.19504" lon="4.27808">
        <ele>323.140381</ele>
        <time>2012-05-10T13:43:34Z</time>
      </trkpt>
      <trkpt lat="44.19509" lon="4.27801">
        <ele>320.737061</ele>
        <time>2012-05-10T13:43:47Z</time>
      </trkpt>
      <trkpt lat="44.19514" lon="4.27789">
        <ele>323.140381</ele>
        <time>2012-05-10T13:44:02Z</time>
      </trkpt>
      <trkpt lat="44.19515" lon="4.27778">
        <ele>325.062988</ele>
        <time>2012-05-10T13:44:15Z</time>
      </trkpt>
      <trkpt lat="44.19512" lon="4.2777">
        <ele>326.985596</ele>
        <time>2012-05-10T13:44:30Z</time>
      </trkpt>
      <trkpt lat="44.1951" lon="4.27763">
        <ele>328.427612</ele>
        <time>2012-05-10T13:44:42Z</time>
      </trkpt>
      <trkpt lat="44.19512" lon="4.27752">
        <ele>330.830933</ele>
        <time>2012-05-10T13:44:56Z</time>
      </trkpt>
      <trkpt lat="44.19511" lon="4.27737">
        <ele>333.234131</ele>
        <time>2012-05-10T13:45:15Z</time>
      </trkpt>
      <trkpt lat="44.1951" lon="4.27727">
        <ele>335.637329</ele>
        <time>2012-05-10T13:45:32Z</time>
      </trkpt>
      <trkpt lat="44.1951" lon="4.27721">
        <ele>335.637329</ele>
        <time>2012-05-10T13:45:50Z</time>
      </trkpt>
      <trkpt lat="44.19509" lon="4.27709">
        <ele>337.560059</ele>
        <time>2012-05-10T13:46:08Z</time>
      </trkpt>
      <trkpt lat="44.19506" lon="4.27695">
        <ele>340.444092</ele>
        <time>2012-05-10T13:46:25Z</time>
      </trkpt>
      <trkpt lat="44.19507" lon="4.27684">
        <ele>341.885986</ele>
        <time>2012-05-10T13:46:43Z</time>
      </trkpt>
      <trkpt lat="44.19507" lon="4.27673">
        <ele>343.808594</ele>
        <time>2012-05-10T13:46:56Z</time>
      </trkpt>
      <trkpt lat="44.19509" lon="4.27654">
        <ele>346.692627</ele>
        <time>2012-05-10T13:47:18Z</time>
      </trkpt>
      <trkpt lat="44.1951" lon="4.27638">
        <ele>349.095825</ele>
        <time>2012-05-10T13:47:39Z</time>
      </trkpt>
      <trkpt lat="44.19509" lon="4.27625">
        <ele>350.537842</ele>
        <time>2012-05-10T13:47:55Z</time>
      </trkpt>
      <trkpt lat="44.1951" lon="4.27621">
        <ele>351.979858</ele>
        <time>2012-05-10T13:48:02Z</time>
      </trkpt>
      <trkpt lat="44.19509" lon="4.2761">
        <ele>353.902588</ele>
        <time>2012-05-10T13:48:15Z</time>
      </trkpt>
      <trkpt lat="44.19511" lon="4.27595">
        <ele>354.383179</ele>
        <time>2012-05-10T13:48:31Z</time>
      </trkpt>
      <trkpt lat="44.19517" lon="4.27579">
        <ele>355.825195</ele>
        <time>2012-05-10T13:48:49Z</time>
      </trkpt>
      <trkpt lat="44.19518" lon="4.27578">
        <ele>355.344482</ele>
        <time>2012-05-10T13:48:50Z</time>
      </trkpt>
      <trkpt lat="44.19522" lon="4.27569">
        <ele>355.344482</ele>
        <time>2012-05-10T13:48:56Z</time>
      </trkpt>
      <trkpt lat="44.19533" lon="4.27555">
        <ele>352.941162</ele>
        <time>2012-05-10T13:49:13Z</time>
      </trkpt>
      <trkpt lat="44.19533" lon="4.27554">
        <ele>352.941162</ele>
        <time>2012-05-10T13:49:14Z</time>
      </trkpt>
      <trkpt lat="44.19534" lon="4.27533">
        <ele>352.941162</ele>
        <time>2012-05-10T13:49:32Z</time>
      </trkpt>
      <trkpt lat="44.1953" lon="4.27533">
        <ele>353.902588</ele>
        <time>2012-05-10T13:49:52Z</time>
      </trkpt>
      <trkpt lat="44.19527" lon="4.27537">
        <ele>354.383179</ele>
        <time>2012-05-10T13:50:25Z</time>
      </trkpt>
      <trkpt lat="44.19528" lon="4.27535">
        <ele>354.383179</ele>
        <time>2012-05-10T13:51:32Z</time>
      </trkpt>
      <trkpt lat="44.19528" lon="4.27534">
        <ele>354.383179</ele>
        <time>2012-05-10T13:52:31Z</time>
      </trkpt>
      <trkpt lat="44.19525" lon="4.27548">
        <ele>357.26709</ele>
        <time>2012-05-10T14:25:53Z</time>
      </trkpt>
      <trkpt lat="44.19526" lon="4.27545">
        <ele>355.344482</ele>
        <time>2012-05-10T14:28:45Z</time>
      </trkpt>
      <trkpt lat="44.19532" lon="4.27533">
        <ele>354.383179</ele>
        <time>2012-05-10T14:29:00Z</time>
      </trkpt>
      <trkpt lat="44.19533" lon="4.27526">
        <ele>353.421875</ele>
        <time>2012-05-10T14:29:40Z</time>
      </trkpt>
      <trkpt lat="44.19532" lon="4.27532">
        <ele>353.902588</ele>
        <time>2012-05-10T14:35:13Z</time>
      </trkpt>
      <trkpt lat="44.19532" lon="4.27532">
        <ele>356.786377</ele>
        <time>2012-05-10T14:35:38Z</time>
      </trkpt>
      <trkpt lat="44.19532" lon="4.27532">
        <ele>353.902588</ele>
        <time>2012-05-10T14:35:42Z</time>
      </trkpt>
      <trkpt lat="44.19534" lon="4.27531">
        <ele>353.902588</ele>
        <time>2012-05-10T14:36:23Z</time>
      </trkpt>
      <trkpt lat="44.19539" lon="4.27526">
        <ele>352.941162</ele>
        <time>2012-05-10T14:36:47Z</time>
      </trkpt>
      <trkpt lat="44.19555" lon="4.27513">
        <ele>350.537842</ele>
        <time>2012-05-10T14:37:10Z</time>
      </trkpt>
      <trkpt lat="44.19566" lon="4.27501">
        <ele>348.615234</ele>
        <time>2012-05-10T14:37:27Z</time>
      </trkpt>
      <trkpt lat="44.19581" lon="4.27478">
        <ele>346.212036</ele>
        <time>2012-05-10T14:37:47Z</time>
      </trkpt>
      <trkpt lat="44.19586" lon="4.27466">
        <ele>345.25061</ele>
        <time>2012-05-10T14:37:56Z</time>
      </trkpt>
      <trkpt lat="44.19596" lon="4.27444">
        <ele>341.885986</ele>
        <time>2012-05-10T14:38:17Z</time>
      </trkpt>
      <trkpt lat="44.19602" lon="4.27423">
        <ele>339.002075</ele>
        <time>2012-05-10T14:38:37Z</time>
      </trkpt>
      <trkpt lat="44.19607" lon="4.27405">
        <ele>336.118164</ele>
        <time>2012-05-10T14:38:57Z</time>
      </trkpt>
      <trkpt lat="44.19614" lon="4.27388">
        <ele>332.75354</ele>
        <time>2012-05-10T14:39:17Z</time>
      </trkpt>
      <trkpt lat="44.19617" lon="4.2738">
        <ele>331.792114</ele>
        <time>2012-05-10T14:39:25Z</time>
      </trkpt>
      <trkpt lat="44.19621" lon="4.27367">
        <ele>329.869507</ele>
        <time>2012-05-10T14:39:38Z</time>
      </trkpt>
      <trkpt lat="44.19625" lon="4.27357">
        <ele>327.946777</ele>
        <time>2012-05-10T14:39:50Z</time>
      </trkpt>
      <trkpt lat="44.19632" lon="4.27341">
        <ele>325.543579</ele>
        <time>2012-05-10T14:40:07Z</time>
      </trkpt>
      <trkpt lat="44.19634" lon="4.27331">
        <ele>325.062988</ele>
        <time>2012-05-10T14:40:14Z</time>
      </trkpt>
      <trkpt lat="44.19636" lon="4.27324">
        <ele>324.582275</ele>
        <time>2012-05-10T14:40:20Z</time>
      </trkpt>
      <trkpt lat="44.19639" lon="4.27312">
        <ele>323.620972</ele>
        <time>2012-05-10T14:40:30Z</time>
      </trkpt>
      <trkpt lat="44.19646" lon="4.27294">
        <ele>322.178955</ele>
        <time>2012-05-10T14:40:45Z</time>
      </trkpt>
      <trkpt lat="44.19651" lon="4.27276">
        <ele>320.737061</ele>
        <time>2012-05-10T14:41:03Z</time>
      </trkpt>
      <trkpt lat="44.19656" lon="4.27265">
        <ele>318.814331</ele>
        <time>2012-05-10T14:41:20Z</time>
      </trkpt>
      <trkpt lat="44.19661" lon="4.27256">
        <ele>317.372437</ele>
        <time>2012-05-10T14:41:39Z</time>
      </trkpt>
      <trkpt lat="44.1968" lon="4.27246">
        <ele>314.488403</ele>
        <time>2012-05-10T14:42:04Z</time>
      </trkpt>
      <trkpt lat="44.19681" lon="4.27244">
        <ele>314.488403</ele>
        <time>2012-05-10T14:42:06Z</time>
      </trkpt>
      <trkpt lat="44.19699" lon="4.27242">
        <ele>311.604492</ele>
        <time>2012-05-10T14:42:27Z</time>
      </trkpt>
      <trkpt lat="44.19711" lon="4.27243">
        <ele>309.201172</ele>
        <time>2012-05-10T14:42:40Z</time>
      </trkpt>
      <trkpt lat="44.19715" lon="4.27245">
        <ele>308.720459</ele>
        <time>2012-05-10T14:42:45Z</time>
      </trkpt>
      <trkpt lat="44.1973" lon="4.27251">
        <ele>307.759277</ele>
        <time>2012-05-10T14:43:01Z</time>
      </trkpt>
      <trkpt lat="44.1973" lon="4.27244">
        <ele>305.83667</ele>
        <time>2012-05-10T14:43:14Z</time>
      </trkpt>
      <trkpt lat="44.19722" lon="4.27231">
        <ele>304.394653</ele>
        <time>2012-05-10T14:43:28Z</time>
      </trkpt>
      <trkpt lat="44.19718" lon="4.27217">
        <ele>302.471924</ele>
        <time>2012-05-10T14:43:43Z</time>
      </trkpt>
      <trkpt lat="44.1971" lon="4.27198">
        <ele>299.588013</ele>
        <time>2012-05-10T14:44:03Z</time>
      </trkpt>
      <trkpt lat="44.19702" lon="4.27191">
        <ele>298.146118</ele>
        <time>2012-05-10T14:44:17Z</time>
      </trkpt>
      <trkpt lat="44.19695" lon="4.27179">
        <ele>296.223511</ele>
        <time>2012-05-10T14:44:30Z</time>
      </trkpt>
      <trkpt lat="44.19685" lon="4.27172">
        <ele>293.820068</ele>
        <time>2012-05-10T14:44:45Z</time>
      </trkpt>
      <trkpt lat="44.1967" lon="4.27162">
        <ele>291.897461</ele>
        <time>2012-05-10T14:45:03Z</time>
      </trkpt>
      <trkpt lat="44.19662" lon="4.27153">
        <ele>290.455566</ele>
        <time>2012-05-10T14:45:15Z</time>
      </trkpt>
      <trkpt lat="44.19652" lon="4.27147">
        <ele>288.532959</ele>
        <time>2012-05-10T14:45:29Z</time>
      </trkpt>
      <trkpt lat="44.19645" lon="4.27141">
        <ele>287.09082</ele>
        <time>2012-05-10T14:45:42Z</time>
      </trkpt>
      <trkpt lat="44.19636" lon="4.27131">
        <ele>284.687622</ele>
        <time>2012-05-10T14:46:02Z</time>
      </trkpt>
      <trkpt lat="44.19638" lon="4.27118">
        <ele>283.726196</ele>
        <time>2012-05-10T14:46:16Z</time>
      </trkpt>
      <trkpt lat="44.19638" lon="4.27103">
        <ele>282.284302</ele>
        <time>2012-05-10T14:46:33Z</time>
      </trkpt>
      <trkpt lat="44.19638" lon="4.27102">
        <ele>282.284302</ele>
        <time>2012-05-10T14:46:34Z</time>
      </trkpt>
      <trkpt lat="44.19638" lon="4.27079">
        <ele>281.803589</ele>
        <time>2012-05-10T14:46:50Z</time>
      </trkpt>
      <trkpt lat="44.19642" lon="4.27062">
        <ele>281.803589</ele>
        <time>2012-05-10T14:47:05Z</time>
      </trkpt>
      <trkpt lat="44.19647" lon="4.27038">
        <ele>282.284302</ele>
        <time>2012-05-10T14:47:26Z</time>
      </trkpt>
      <trkpt lat="44.19652" lon="4.27016">
        <ele>282.765015</ele>
        <time>2012-05-10T14:47:43Z</time>
      </trkpt>
      <trkpt lat="44.19655" lon="4.26997">
        <ele>282.765015</ele>
        <time>2012-05-10T14:48:00Z</time>
      </trkpt>
      <trkpt lat="44.19657" lon="4.26986">
        <ele>284.206909</ele>
        <time>2012-05-10T14:48:14Z</time>
      </trkpt>
      <trkpt lat="44.19658" lon="4.26971">
        <ele>285.168213</ele>
        <time>2012-05-10T14:48:33Z</time>
      </trkpt>
      <trkpt lat="44.19657" lon="4.26956">
        <ele>285.168213</ele>
        <time>2012-05-10T14:48:47Z</time>
      </trkpt>
      <trkpt lat="44.19653" lon="4.26944">
        <ele>286.129517</ele>
        <time>2012-05-10T14:49:00Z</time>
      </trkpt>
      <trkpt lat="44.19644" lon="4.26937">
        <ele>286.610229</ele>
        <time>2012-05-10T14:49:13Z</time>
      </trkpt>
      <trkpt lat="44.19645" lon="4.26921">
        <ele>288.532959</ele>
        <time>2012-05-10T14:49:29Z</time>
      </trkpt>
      <trkpt lat="44.19644" lon="4.26912">
        <ele>289.01355</ele>
        <time>2012-05-10T14:49:52Z</time>
      </trkpt>
      <trkpt lat="44.1965" lon="4.26896">
        <ele>288.532959</ele>
        <time>2012-05-10T14:50:15Z</time>
      </trkpt>
      <trkpt lat="44.1965" lon="4.26883">
        <ele>287.571411</ele>
        <time>2012-05-10T14:50:26Z</time>
      </trkpt>
      <trkpt lat="44.19652" lon="4.26866">
        <ele>287.09082</ele>
        <time>2012-05-10T14:50:41Z</time>
      </trkpt>
      <trkpt lat="44.19653" lon="4.26853">
        <ele>287.571411</ele>
        <time>2012-05-10T14:50:50Z</time>
      </trkpt>
      <trkpt lat="44.19656" lon="4.26838">
        <ele>286.129517</ele>
        <time>2012-05-10T14:51:10Z</time>
      </trkpt>
      <trkpt lat="44.19663" lon="4.26832">
        <ele>286.129517</ele>
        <time>2012-05-10T14:51:29Z</time>
      </trkpt>
      <trkpt lat="44.19662" lon="4.2682">
        <ele>284.206909</ele>
        <time>2012-05-10T14:51:44Z</time>
      </trkpt>
      <trkpt lat="44.19667" lon="4.26805">
        <ele>283.245605</ele>
        <time>2012-05-10T14:52:02Z</time>
      </trkpt>
      <trkpt lat="44.19667" lon="4.26795">
        <ele>280.842407</ele>
        <time>2012-05-10T14:52:20Z</time>
      </trkpt>
      <trkpt lat="44.19669" lon="4.26789">
        <ele>279.880859</ele>
        <time>2012-05-10T14:52:33Z</time>
      </trkpt>
      <trkpt lat="44.19668" lon="4.26783">
        <ele>277.958252</ele>
        <time>2012-05-10T14:52:45Z</time>
      </trkpt>
      <trkpt lat="44.19671" lon="4.26771">
        <ele>276.035645</ele>
        <time>2012-05-10T14:52:58Z</time>
      </trkpt>
      <trkpt lat="44.19674" lon="4.26761">
        <ele>274.113037</ele>
        <time>2012-05-10T14:53:13Z</time>
      </trkpt>
      <trkpt lat="44.19675" lon="4.26753">
        <ele>273.151855</ele>
        <time>2012-05-10T14:53:28Z</time>
      </trkpt>
      <trkpt lat="44.19678" lon="4.26739">
        <ele>270.748413</ele>
        <time>2012-05-10T14:53:43Z</time>
      </trkpt>
      <trkpt lat="44.19685" lon="4.2673">
        <ele>269.787109</ele>
        <time>2012-05-10T14:53:57Z</time>
      </trkpt>
      <trkpt lat="44.19689" lon="4.26728">
        <ele>268.825806</ele>
        <time>2012-05-10T14:54:10Z</time>
      </trkpt>
      <trkpt lat="44.19689" lon="4.26719">
        <ele>267.383911</ele>
        <time>2012-05-10T14:54:24Z</time>
      </trkpt>
      <trkpt lat="44.19688" lon="4.2671">
        <ele>265.461304</ele>
        <time>2012-05-10T14:54:37Z</time>
      </trkpt>
      <trkpt lat="44.19691" lon="4.26694">
        <ele>263.057861</ele>
        <time>2012-05-10T14:54:54Z</time>
      </trkpt>
      <trkpt lat="44.1969" lon="4.26684">
        <ele>263.057861</ele>
        <time>2012-05-10T14:54:59Z</time>
      </trkpt>
      <trkpt lat="44.19688" lon="4.2667">
        <ele>262.096558</ele>
        <time>2012-05-10T14:55:17Z</time>
      </trkpt>
      <trkpt lat="44.19691" lon="4.2666">
        <ele>263.057861</ele>
        <time>2012-05-10T14:55:31Z</time>
      </trkpt>
      <trkpt lat="44.19689" lon="4.26646">
        <ele>264.019287</ele>
        <time>2012-05-10T14:55:47Z</time>
      </trkpt>
      <trkpt lat="44.1968" lon="4.26644">
        <ele>265.941895</ele>
        <time>2012-05-10T14:56:06Z</time>
      </trkpt>
      <trkpt lat="44.19682" lon="4.26632">
        <ele>267.864502</ele>
        <time>2012-05-10T14:56:23Z</time>
      </trkpt>
      <trkpt lat="44.19683" lon="4.26628">
        <ele>268.345093</ele>
        <time>2012-05-10T14:56:42Z</time>
      </trkpt>
      <trkpt lat="44.19685" lon="4.26618">
        <ele>270.2677</ele>
        <time>2012-05-10T14:56:56Z</time>
      </trkpt>
      <trkpt lat="44.19684" lon="4.26603">
        <ele>272.19043</ele>
        <time>2012-05-10T14:57:13Z</time>
      </trkpt>
      <trkpt lat="44.19687" lon="4.26589">
        <ele>272.671143</ele>
        <time>2012-05-10T14:57:29Z</time>
      </trkpt>
      <trkpt lat="44.1968" lon="4.26581">
        <ele>273.632446</ele>
        <time>2012-05-10T14:57:43Z</time>
      </trkpt>
      <trkpt lat="44.19675" lon="4.26582">
        <ele>273.151855</ele>
        <time>2012-05-10T14:58:04Z</time>
      </trkpt>
      <trkpt lat="44.19688" lon="4.26567">
        <ele>272.671143</ele>
        <time>2012-05-10T14:58:55Z</time>
      </trkpt>
      <trkpt lat="44.19687" lon="4.26565">
        <ele>272.671143</ele>
        <time>2012-05-10T14:59:01Z</time>
      </trkpt>
      <trkpt lat="44.19682" lon="4.26563">
        <ele>272.671143</ele>
        <time>2012-05-10T14:59:17Z</time>
      </trkpt>
      <trkpt lat="44.19685" lon="4.26565">
        <ele>272.671143</ele>
        <time>2012-05-10T14:59:53Z</time>
      </trkpt>
      <trkpt lat="44.19693" lon="4.26564">
        <ele>271.709717</ele>
        <time>2012-05-10T15:00:07Z</time>
      </trkpt>
      <trkpt lat="44.19694" lon="4.26555">
        <ele>270.748413</ele>
        <time>2012-05-10T15:00:20Z</time>
      </trkpt>
      <trkpt lat="44.19696" lon="4.26554">
        <ele>270.2677</ele>
        <time>2012-05-10T15:00:49Z</time>
      </trkpt>
      <trkpt lat="44.19704" lon="4.26556">
        <ele>269.787109</ele>
        <time>2012-05-10T15:00:58Z</time>
      </trkpt>
      <trkpt lat="44.19707" lon="4.26555">
        <ele>267.864502</ele>
        <time>2012-05-10T15:01:11Z</time>
      </trkpt>
      <trkpt lat="44.1971" lon="4.26559">
        <ele>266.903198</ele>
        <time>2012-05-10T15:01:29Z</time>
      </trkpt>
      <trkpt lat="44.19712" lon="4.2656">
        <ele>267.383911</ele>
        <time>2012-05-10T15:02:30Z</time>
      </trkpt>
      <trkpt lat="44.19703" lon="4.26559">
        <ele>266.903198</ele>
        <time>2012-05-10T15:03:24Z</time>
      </trkpt>
      <trkpt lat="44.19713" lon="4.26568">
        <ele>264.980591</ele>
        <time>2012-05-10T15:03:40Z</time>
      </trkpt>
      <trkpt lat="44.19717" lon="4.26576">
        <ele>263.538574</ele>
        <time>2012-05-10T15:03:51Z</time>
      </trkpt>
      <trkpt lat="44.19719" lon="4.26551">
        <ele>262.096558</ele>
        <time>2012-05-10T15:04:35Z</time>
      </trkpt>
      <trkpt lat="44.19719" lon="4.26547">
        <ele>262.577148</ele>
        <time>2012-05-10T15:04:39Z</time>
      </trkpt>
      <trkpt lat="44.19716" lon="4.26521">
        <ele>261.135254</ele>
        <time>2012-05-10T15:05:03Z</time>
      </trkpt>
      <trkpt lat="44.19714" lon="4.265">
        <ele>259.212646</ele>
        <time>2012-05-10T15:05:23Z</time>
      </trkpt>
      <trkpt lat="44.19713" lon="4.26492">
        <ele>258.731934</ele>
        <time>2012-05-10T15:05:36Z</time>
      </trkpt>
      <trkpt lat="44.19703" lon="4.26474">
        <ele>257.770752</ele>
        <time>2012-05-10T15:05:59Z</time>
      </trkpt>
      <trkpt lat="44.197" lon="4.2646">
        <ele>255.36731</ele>
        <time>2012-05-10T15:06:20Z</time>
      </trkpt>
      <trkpt lat="44.19701" lon="4.26444">
        <ele>253.444702</ele>
        <time>2012-05-10T15:06:37Z</time>
      </trkpt>
      <trkpt lat="44.19695" lon="4.2643">
        <ele>251.041382</ele>
        <time>2012-05-10T15:06:53Z</time>
      </trkpt>
      <trkpt lat="44.19681" lon="4.26419">
        <ele>248.157593</ele>
        <time>2012-05-10T15:07:16Z</time>
      </trkpt>
      <trkpt lat="44.19687" lon="4.26405">
        <ele>246.715454</ele>
        <time>2012-05-10T15:07:34Z</time>
      </trkpt>
      <trkpt lat="44.19691" lon="4.26395">
        <ele>244.312256</ele>
        <time>2012-05-10T15:07:49Z</time>
      </trkpt>
      <trkpt lat="44.1969" lon="4.26388">
        <ele>243.831543</ele>
        <time>2012-05-10T15:07:57Z</time>
      </trkpt>
      <trkpt lat="44.1969" lon="4.2638">
        <ele>241.428223</ele>
        <time>2012-05-10T15:08:10Z</time>
      </trkpt>
      <trkpt lat="44.19691" lon="4.26364">
        <ele>238.544312</ele>
        <time>2012-05-10T15:08:29Z</time>
      </trkpt>
      <trkpt lat="44.19691" lon="4.26355">
        <ele>236.621704</ele>
        <time>2012-05-10T15:08:43Z</time>
      </trkpt>
      <trkpt lat="44.19689" lon="4.26346">
        <ele>234.699097</ele>
        <time>2012-05-10T15:08:57Z</time>
      </trkpt>
      <trkpt lat="44.1969" lon="4.26333">
        <ele>232.776489</ele>
        <time>2012-05-10T15:09:11Z</time>
      </trkpt>
      <trkpt lat="44.19691" lon="4.26317">
        <ele>229.411743</ele>
        <time>2012-05-10T15:09:26Z</time>
      </trkpt>
      <trkpt lat="44.19686" lon="4.2631">
        <ele>227.969727</ele>
        <time>2012-05-10T15:09:36Z</time>
      </trkpt>
      <trkpt lat="44.19677" lon="4.26297">
        <ele>225.566528</ele>
        <time>2012-05-10T15:09:54Z</time>
      </trkpt>
      <trkpt lat="44.1968" lon="4.2629">
        <ele>224.605225</ele>
        <time>2012-05-10T15:10:09Z</time>
      </trkpt>
      <trkpt lat="44.19687" lon="4.26287">
        <ele>223.163208</ele>
        <time>2012-05-10T15:10:29Z</time>
      </trkpt>
      <trkpt lat="44.19695" lon="4.26287">
        <ele>222.682495</ele>
        <time>2012-05-10T15:10:53Z</time>
      </trkpt>
      <trkpt lat="44.19708" lon="4.26277">
        <ele>221.721191</ele>
        <time>2012-05-10T15:11:15Z</time>
      </trkpt>
      <trkpt lat="44.19702" lon="4.26262">
        <ele>221.721191</ele>
        <time>2012-05-10T15:11:36Z</time>
      </trkpt>
      <trkpt lat="44.19693" lon="4.26242">
        <ele>220.759888</ele>
        <time>2012-05-10T15:11:56Z</time>
      </trkpt>
      <trkpt lat="44.19678" lon="4.26216">
        <ele>220.759888</ele>
        <time>2012-05-10T15:12:21Z</time>
      </trkpt>
      <trkpt lat="44.19667" lon="4.26189">
        <ele>219.317993</ele>
        <time>2012-05-10T15:12:43Z</time>
      </trkpt>
      <trkpt lat="44.19677" lon="4.26163">
        <ele>219.317993</ele>
        <time>2012-05-10T15:13:06Z</time>
      </trkpt>
      <trkpt lat="44.1968" lon="4.26152">
        <ele>218.356567</ele>
        <time>2012-05-10T15:13:24Z</time>
      </trkpt>
      <trkpt lat="44.19691" lon="4.26124">
        <ele>218.356567</ele>
        <time>2012-05-10T15:13:47Z</time>
      </trkpt>
      <trkpt lat="44.19699" lon="4.261">
        <ele>217.395386</ele>
        <time>2012-05-10T15:14:06Z</time>
      </trkpt>
      <trkpt lat="44.19699" lon="4.26099">
        <ele>217.395386</ele>
        <time>2012-05-10T15:14:07Z</time>
      </trkpt>
      <trkpt lat="44.197" lon="4.26093">
        <ele>216.914673</ele>
        <time>2012-05-10T15:14:14Z</time>
      </trkpt>
      <trkpt lat="44.19706" lon="4.26073">
        <ele>215.953247</ele>
        <time>2012-05-10T15:14:29Z</time>
      </trkpt>
      <trkpt lat="44.19709" lon="4.26062">
        <ele>215.472656</ele>
        <time>2012-05-10T15:14:38Z</time>
      </trkpt>
      <trkpt lat="44.1972" lon="4.26031">
        <ele>214.991943</ele>
        <time>2012-05-10T15:15:01Z</time>
      </trkpt>
      <trkpt lat="44.19726" lon="4.26016">
        <ele>214.51123</ele>
        <time>2012-05-10T15:15:16Z</time>
      </trkpt>
      <trkpt lat="44.19732" lon="4.25999">
        <ele>214.51123</ele>
        <time>2012-05-10T15:15:30Z</time>
      </trkpt>
      <trkpt lat="44.19732" lon="4.25997">
        <ele>214.03064</ele>
        <time>2012-05-10T15:15:32Z</time>
      </trkpt>
      <trkpt lat="44.19739" lon="4.25984">
        <ele>214.03064</ele>
        <time>2012-05-10T15:15:43Z</time>
      </trkpt>
      <trkpt lat="44.1974" lon="4.25982">
        <ele>214.51123</ele>
        <time>2012-05-10T15:15:45Z</time>
      </trkpt>
      <trkpt lat="44.19741" lon="4.2598">
        <ele>214.51123</ele>
        <time>2012-05-10T15:15:47Z</time>
      </trkpt>
      <trkpt lat="44.19744" lon="4.25973">
        <ele>214.03064</ele>
        <time>2012-05-10T15:15:53Z</time>
      </trkpt>
      <trkpt lat="44.19748" lon="4.25961">
        <ele>214.51123</ele>
        <time>2012-05-10T15:16:02Z</time>
      </trkpt>
      <trkpt lat="44.19759" lon="4.25927">
        <ele>215.472656</ele>
        <time>2012-05-10T15:16:29Z</time>
      </trkpt>
      <trkpt lat="44.19765" lon="4.25911">
        <ele>216.914673</ele>
        <time>2012-05-10T15:16:45Z</time>
      </trkpt>
      <trkpt lat="44.19775" lon="4.25894">
        <ele>218.356567</ele>
        <time>2012-05-10T15:17:00Z</time>
      </trkpt>
      <trkpt lat="44.19779" lon="4.25878">
        <ele>219.317993</ele>
        <time>2012-05-10T15:17:13Z</time>
      </trkpt>
      <trkpt lat="44.19785" lon="4.25856">
        <ele>220.759888</ele>
        <time>2012-05-10T15:17:31Z</time>
      </trkpt>
      <trkpt lat="44.19788" lon="4.2583">
        <ele>221.721191</ele>
        <time>2012-05-10T15:17:50Z</time>
      </trkpt>
      <trkpt lat="44.1979" lon="4.25807">
        <ele>222.201782</ele>
        <time>2012-05-10T15:18:05Z</time>
      </trkpt>
      <trkpt lat="44.19791" lon="4.25778">
        <ele>222.201782</ele>
        <time>2012-05-10T15:18:25Z</time>
      </trkpt>
      <trkpt lat="44.19791" lon="4.25756">
        <ele>221.721191</ele>
        <time>2012-05-10T15:18:41Z</time>
      </trkpt>
      <trkpt lat="44.19791" lon="4.2573">
        <ele>220.279175</ele>
        <time>2012-05-10T15:18:59Z</time>
      </trkpt>
      <trkpt lat="44.19789" lon="4.25697">
        <ele>218.83728</ele>
        <time>2012-05-10T15:19:22Z</time>
      </trkpt>
      <trkpt lat="44.19788" lon="4.25681">
        <ele>218.83728</ele>
        <time>2012-05-10T15:19:33Z</time>
      </trkpt>
      <trkpt lat="44.19788" lon="4.25663">
        <ele>217.875977</ele>
        <time>2012-05-10T15:19:46Z</time>
      </trkpt>
      <trkpt lat="44.19786" lon="4.25635">
        <ele>216.914673</ele>
        <time>2012-05-10T15:20:06Z</time>
      </trkpt>
      <trkpt lat="44.19787" lon="4.25616">
        <ele>215.953247</ele>
        <time>2012-05-10T15:20:22Z</time>
      </trkpt>
      <trkpt lat="44.19794" lon="4.25596">
        <ele>214.51123</ele>
        <time>2012-05-10T15:20:39Z</time>
      </trkpt>
      <trkpt lat="44.19806" lon="4.25574">
        <ele>212.108032</ele>
        <time>2012-05-10T15:21:01Z</time>
      </trkpt>
      <trkpt lat="44.19813" lon="4.25562">
        <ele>211.146729</ele>
        <time>2012-05-10T15:21:15Z</time>
      </trkpt>
      <trkpt lat="44.19813" lon="4.25562">
        <ele>211.146729</ele>
        <time>2012-05-10T15:21:27Z</time>
      </trkpt>
      <trkpt lat="44.19814" lon="4.2556">
        <ele>211.146729</ele>
        <time>2012-05-10T15:21:41Z</time>
      </trkpt>
      <trkpt lat="44.19817" lon="4.25547">
        <ele>211.146729</ele>
        <time>2012-05-10T15:22:27Z</time>
      </trkpt>
      <trkpt lat="44.19818" lon="4.25523">
        <ele>211.146729</ele>
        <time>2012-05-10T15:22:45Z</time>
      </trkpt>
      <trkpt lat="44.1982" lon="4.2552">
        <ele>211.146729</ele>
        <time>2012-05-10T15:22:48Z</time>
      </trkpt>
      <trkpt lat="44.19825" lon="4.25498">
        <ele>209.704834</ele>
        <time>2012-05-10T15:23:04Z</time>
      </trkpt>
      <trkpt lat="44.19827" lon="4.25495">
        <ele>210.185425</ele>
        <time>2012-05-10T15:23:07Z</time>
      </trkpt>
      <trkpt lat="44.1983" lon="4.25484">
        <ele>209.224121</ele>
        <time>2012-05-10T15:23:16Z</time>
      </trkpt>
      <trkpt lat="44.19839" lon="4.25464">
        <ele>208.262817</ele>
        <time>2012-05-10T15:23:31Z</time>
      </trkpt>
      <trkpt lat="44.19847" lon="4.25439">
        <ele>207.782104</ele>
        <time>2012-05-10T15:23:48Z</time>
      </trkpt>
      <trkpt lat="44.19848" lon="4.25436">
        <ele>207.782104</ele>
        <time>2012-05-10T15:23:50Z</time>
      </trkpt>
      <trkpt lat="44.19854" lon="4.2542">
        <ele>206.820679</ele>
        <time>2012-05-10T15:24:00Z</time>
      </trkpt>
      <trkpt lat="44.19862" lon="4.25401">
        <ele>205.859497</ele>
        <time>2012-05-10T15:24:16Z</time>
      </trkpt>
      <trkpt lat="44.19869" lon="4.25382">
        <ele>205.378784</ele>
        <time>2012-05-10T15:24:33Z</time>
      </trkpt>
      <trkpt lat="44.19875" lon="4.25361">
        <ele>204.41748</ele>
        <time>2012-05-10T15:24:49Z</time>
      </trkpt>
      <trkpt lat="44.19883" lon="4.25327">
        <ele>203.93689</ele>
        <time>2012-05-10T15:25:12Z</time>
      </trkpt>
      <trkpt lat="44.19893" lon="4.25309">
        <ele>202.975464</ele>
        <time>2012-05-10T15:25:27Z</time>
      </trkpt>
      <trkpt lat="44.19899" lon="4.25297">
        <ele>202.014282</ele>
        <time>2012-05-10T15:25:37Z</time>
      </trkpt>
      <trkpt lat="44.19908" lon="4.25274">
        <ele>200.572266</ele>
        <time>2012-05-10T15:25:54Z</time>
      </trkpt>
      <trkpt lat="44.19913" lon="4.25269">
        <ele>199.61084</ele>
        <time>2012-05-10T15:26:06Z</time>
      </trkpt>
      <trkpt lat="44.19919" lon="4.25256">
        <ele>198.649536</ele>
        <time>2012-05-10T15:26:16Z</time>
      </trkpt>
      <trkpt lat="44.19925" lon="4.25235">
        <ele>197.20752</ele>
        <time>2012-05-10T15:26:31Z</time>
      </trkpt>
      <trkpt lat="44.19932" lon="4.25218">
        <ele>195.765625</ele>
        <time>2012-05-10T15:26:45Z</time>
      </trkpt>
      <trkpt lat="44.19933" lon="4.25217">
        <ele>196.246338</ele>
        <time>2012-05-10T15:26:46Z</time>
      </trkpt>
      <trkpt lat="44.1994" lon="4.25199">
        <ele>194.804321</ele>
        <time>2012-05-10T15:27:01Z</time>
      </trkpt>
      <trkpt lat="44.19948" lon="4.25182">
        <ele>194.32373</ele>
        <time>2012-05-10T15:27:15Z</time>
      </trkpt>
      <trkpt lat="44.1995" lon="4.25178">
        <ele>193.843018</ele>
        <time>2012-05-10T15:27:19Z</time>
      </trkpt>
      <trkpt lat="44.19957" lon="4.25156">
        <ele>192.401123</ele>
        <time>2012-05-10T15:27:35Z</time>
      </trkpt>
      <trkpt lat="44.19962" lon="4.25146">
        <ele>191.920288</ele>
        <time>2012-05-10T15:27:46Z</time>
      </trkpt>
      <trkpt lat="44.19969" lon="4.25129">
        <ele>190.958984</ele>
        <time>2012-05-10T15:28:02Z</time>
      </trkpt>
      <trkpt lat="44.19972" lon="4.25122">
        <ele>189.997681</ele>
        <time>2012-05-10T15:28:08Z</time>
      </trkpt>
      <trkpt lat="44.19977" lon="4.25102">
        <ele>189.036377</ele>
        <time>2012-05-10T15:28:25Z</time>
      </trkpt>
      <trkpt lat="44.19978" lon="4.25081">
        <ele>187.59436</ele>
        <time>2012-05-10T15:28:42Z</time>
      </trkpt>
      <trkpt lat="44.19981" lon="4.25064">
        <ele>186.152466</ele>
        <time>2012-05-10T15:28:58Z</time>
      </trkpt>
      <trkpt lat="44.19987" lon="4.25046">
        <ele>184.710571</ele>
        <time>2012-05-10T15:29:16Z</time>
      </trkpt>
      <trkpt lat="44.19988" lon="4.25031">
        <ele>182.787842</ele>
        <time>2012-05-10T15:29:32Z</time>
      </trkpt>
      <trkpt lat="44.19993" lon="4.25013">
        <ele>181.345825</ele>
        <time>2012-05-10T15:29:48Z</time>
      </trkpt>
      <trkpt lat="44.19996" lon="4.25001">
        <ele>179.903809</ele>
        <time>2012-05-10T15:30:04Z</time>
      </trkpt>
      <trkpt lat="44.20004" lon="4.2499">
        <ele>178.461914</ele>
        <time>2012-05-10T15:30:22Z</time>
      </trkpt>
      <trkpt lat="44.20013" lon="4.24982">
        <ele>176.539307</ele>
        <time>2012-05-10T15:30:38Z</time>
      </trkpt>
      <trkpt lat="44.20024" lon="4.2497">
        <ele>175.09729</ele>
        <time>2012-05-10T15:30:55Z</time>
      </trkpt>
      <trkpt lat="44.20028" lon="4.24957">
        <ele>173.174683</ele>
        <time>2012-05-10T15:31:14Z</time>
      </trkpt>
      <trkpt lat="44.20034" lon="4.24943">
        <ele>171.252075</ele>
        <time>2012-05-10T15:31:31Z</time>
      </trkpt>
      <trkpt lat="44.20037" lon="4.24934">
        <ele>169.329468</ele>
        <time>2012-05-10T15:31:48Z</time>
      </trkpt>
      <trkpt lat="44.20042" lon="4.2492">
        <ele>167.406738</ele>
        <time>2012-05-10T15:32:04Z</time>
      </trkpt>
      <trkpt lat="44.20047" lon="4.24907">
        <ele>165.484131</ele>
        <time>2012-05-10T15:32:18Z</time>
      </trkpt>
      <trkpt lat="44.20052" lon="4.24902">
        <ele>164.522705</ele>
        <time>2012-05-10T15:32:28Z</time>
      </trkpt>
      <trkpt lat="44.20056" lon="4.24896">
        <ele>164.042114</ele>
        <time>2012-05-10T15:32:35Z</time>
      </trkpt>
      <trkpt lat="44.20064" lon="4.24891">
        <ele>162.119507</ele>
        <time>2012-05-10T15:32:48Z</time>
      </trkpt>
      <trkpt lat="44.20072" lon="4.24884">
        <ele>160.67749</ele>
        <time>2012-05-10T15:33:04Z</time>
      </trkpt>
      <trkpt lat="44.20084" lon="4.24877">
        <ele>158.27417</ele>
        <time>2012-05-10T15:33:21Z</time>
      </trkpt>
      <trkpt lat="44.2009" lon="4.24871">
        <ele>156.832153</ele>
        <time>2012-05-10T15:33:32Z</time>
      </trkpt>
      <trkpt lat="44.20096" lon="4.24862">
        <ele>155.390259</ele>
        <time>2012-05-10T15:33:52Z</time>
      </trkpt>
      <trkpt lat="44.20095" lon="4.24851">
        <ele>153.467651</ele>
        <time>2012-05-10T15:34:14Z</time>
      </trkpt>
      <trkpt lat="44.20097" lon="4.24838">
        <ele>151.544922</ele>
        <time>2012-05-10T15:34:32Z</time>
      </trkpt>
      <trkpt lat="44.20092" lon="4.24811">
        <ele>149.141602</ele>
        <time>2012-05-10T15:34:55Z</time>
      </trkpt>
      <trkpt lat="44.20087" lon="4.24796">
        <ele>146.738403</ele>
        <time>2012-05-10T15:35:12Z</time>
      </trkpt>
      <trkpt lat="44.20085" lon="4.24784">
        <ele>145.296387</ele>
        <time>2012-05-10T15:35:24Z</time>
      </trkpt>
      <trkpt lat="44.20085" lon="4.24763">
        <ele>142.893066</ele>
        <time>2012-05-10T15:35:42Z</time>
      </trkpt>
      <trkpt lat="44.20084" lon="4.24743">
        <ele>140.489868</ele>
        <time>2012-05-10T15:35:59Z</time>
      </trkpt>
      <trkpt lat="44.20083" lon="4.24725">
        <ele>138.567261</ele>
        <time>2012-05-10T15:36:16Z</time>
      </trkpt>
      <trkpt lat="44.20084" lon="4.24709">
        <ele>136.644653</ele>
        <time>2012-05-10T15:36:32Z</time>
      </trkpt>
      <trkpt lat="44.20083" lon="4.247">
        <ele>136.16394</ele>
        <time>2012-05-10T15:36:37Z</time>
      </trkpt>
      <trkpt lat="44.20068" lon="4.24688">
        <ele>135.683105</ele>
        <time>2012-05-10T15:36:59Z</time>
      </trkpt>
      <trkpt lat="44.20053" lon="4.24681">
        <ele>136.16394</ele>
        <time>2012-05-10T15:37:17Z</time>
      </trkpt>
      <trkpt lat="44.20051" lon="4.24677">
        <ele>136.16394</ele>
        <time>2012-05-10T15:37:21Z</time>
      </trkpt>
      <trkpt lat="44.20051" lon="4.24669">
        <ele>135.202515</ele>
        <time>2012-05-10T15:37:31Z</time>
      </trkpt>
      <trkpt lat="44.20055" lon="4.24659">
        <ele>133.760498</ele>
        <time>2012-05-10T15:37:40Z</time>
      </trkpt>
      <trkpt lat="44.2006" lon="4.24645">
        <ele>132.318604</ele>
        <time>2012-05-10T15:37:53Z</time>
      </trkpt>
      <trkpt lat="44.20062" lon="4.24636">
        <ele>131.3573</ele>
        <time>2012-05-10T15:38:01Z</time>
      </trkpt>
      <trkpt lat="44.20064" lon="4.24632">
        <ele>131.3573</ele>
        <time>2012-05-10T15:38:05Z</time>
      </trkpt>
      <trkpt lat="44.20066" lon="4.24623">
        <ele>130.876709</ele>
        <time>2012-05-10T15:38:13Z</time>
      </trkpt>
      <trkpt lat="44.20068" lon="4.24619">
        <ele>130.395996</ele>
        <time>2012-05-10T15:38:16Z</time>
      </trkpt>
      <trkpt lat="44.20072" lon="4.246">
        <ele>129.434692</ele>
        <time>2012-05-10T15:38:34Z</time>
      </trkpt>
      <trkpt lat="44.20072" lon="4.24601">
        <ele>120.782837</ele>
        <time>2012-05-10T15:39:03Z</time>
      </trkpt>
      <trkpt lat="44.20073" lon="4.24601">
        <ele>124.147339</ele>
        <time>2012-05-10T15:39:04Z</time>
      </trkpt>
      <trkpt lat="44.20073" lon="4.24602">
        <ele>130.876709</ele>
        <time>2012-05-10T15:39:05Z</time>
      </trkpt>
      <trkpt lat="44.20073" lon="4.24602">
        <ele>128.473389</ele>
        <time>2012-05-10T15:39:06Z</time>
      </trkpt>
      <trkpt lat="44.20074" lon="4.24603">
        <ele>135.202515</ele>
        <time>2012-05-10T15:39:10Z</time>
      </trkpt>
      <trkpt lat="44.20074" lon="4.24603">
        <ele>130.876709</ele>
        <time>2012-05-10T15:39:11Z</time>
      </trkpt>
      <trkpt lat="44.20075" lon="4.24603">
        <ele>127.511963</ele>
        <time>2012-05-10T15:39:13Z</time>
      </trkpt>
      <trkpt lat="44.20075" lon="4.24603">
        <ele>127.511963</ele>
        <time>2012-05-10T15:39:14Z</time>
      </trkpt>
      <trkpt lat="44.20073" lon="4.24597">
        <ele>129.434692</ele>
        <time>2012-05-10T15:41:11Z</time>
      </trkpt>
      <trkpt lat="44.20069" lon="4.24593">
        <ele>128.954102</ele>
        <time>2012-05-10T15:42:23Z</time>
      </trkpt>
      <trkpt lat="44.20059" lon="4.24589">
        <ele>129.434692</ele>
        <time>2012-05-10T15:42:33Z</time>
      </trkpt>
      <trkpt lat="44.20043" lon="4.2458">
        <ele>129.434692</ele>
        <time>2012-05-10T15:42:50Z</time>
      </trkpt>
      <trkpt lat="44.20027" lon="4.24567">
        <ele>128.954102</ele>
        <time>2012-05-10T15:43:08Z</time>
      </trkpt>
      <trkpt lat="44.20009" lon="4.24559">
        <ele>127.992554</ele>
        <time>2012-05-10T15:43:28Z</time>
      </trkpt>
      <trkpt lat="44.19996" lon="4.24559">
        <ele>127.992554</ele>
        <time>2012-05-10T15:43:45Z</time>
      </trkpt>
      <trkpt lat="44.19982" lon="4.24557">
        <ele>128.473389</ele>
        <time>2012-05-10T15:44:01Z</time>
      </trkpt>
      <trkpt lat="44.19968" lon="4.24557">
        <ele>128.473389</ele>
        <time>2012-05-10T15:44:14Z</time>
      </trkpt>
      <trkpt lat="44.19952" lon="4.24554">
        <ele>128.473389</ele>
        <time>2012-05-10T15:44:32Z</time>
      </trkpt>
      <trkpt lat="44.19944" lon="4.24553">
        <ele>128.954102</ele>
        <time>2012-05-10T15:44:41Z</time>
      </trkpt>
      <trkpt lat="44.19936" lon="4.24546">
        <ele>129.434692</ele>
        <time>2012-05-10T15:44:53Z</time>
      </trkpt>
      <trkpt lat="44.19919" lon="4.2454">
        <ele>129.915283</ele>
        <time>2012-05-10T15:45:11Z</time>
      </trkpt>
      <trkpt lat="44.19903" lon="4.24529">
        <ele>129.915283</ele>
        <time>2012-05-10T15:45:26Z</time>
      </trkpt>
      <trkpt lat="44.19896" lon="4.24524">
        <ele>129.915283</ele>
        <time>2012-05-10T15:45:34Z</time>
      </trkpt>
      <trkpt lat="44.19884" lon="4.24519">
        <ele>129.434692</ele>
        <time>2012-05-10T15:45:48Z</time>
      </trkpt>
      <trkpt lat="44.19868" lon="4.24509">
        <ele>128.473389</ele>
        <time>2012-05-10T15:46:02Z</time>
      </trkpt>
      <trkpt lat="44.19853" lon="4.24486">
        <ele>128.473389</ele>
        <time>2012-05-10T15:46:23Z</time>
      </trkpt>
      <trkpt lat="44.19835" lon="4.24464">
        <ele>127.511963</ele>
        <time>2012-05-10T15:46:46Z</time>
      </trkpt>
      <trkpt lat="44.19832" lon="4.24465">
        <ele>127.511963</ele>
        <time>2012-05-10T15:46:59Z</time>
      </trkpt>
      <trkpt lat="44.19825" lon="4.24485">
        <ele>127.511963</ele>
        <time>2012-05-10T15:47:23Z</time>
      </trkpt>
      <trkpt lat="44.19803" lon="4.24494">
        <ele>127.992554</ele>
        <time>2012-05-10T15:47:41Z</time>
      </trkpt>
      <trkpt lat="44.19787" lon="4.24495">
        <ele>127.992554</ele>
        <time>2012-05-10T15:47:56Z</time>
      </trkpt>
      <trkpt lat="44.19765" lon="4.24495">
        <ele>127.992554</ele>
        <time>2012-05-10T15:48:19Z</time>
      </trkpt>
      <trkpt lat="44.19744" lon="4.24493">
        <ele>127.992554</ele>
        <time>2012-05-10T15:48:39Z</time>
      </trkpt>
      <trkpt lat="44.19725" lon="4.24494">
        <ele>127.992554</ele>
        <time>2012-05-10T15:48:57Z</time>
      </trkpt>
      <trkpt lat="44.19698" lon="4.24502">
        <ele>127.992554</ele>
        <time>2012-05-10T15:49:23Z</time>
      </trkpt>
      <trkpt lat="44.19671" lon="4.24511">
        <ele>128.473389</ele>
        <time>2012-05-10T15:49:49Z</time>
      </trkpt>
      <trkpt lat="44.19649" lon="4.24521">
        <ele>129.434692</ele>
        <time>2012-05-10T15:50:10Z</time>
      </trkpt>
      <trkpt lat="44.19635" lon="4.24529">
        <ele>130.876709</ele>
        <time>2012-05-10T15:50:26Z</time>
      </trkpt>
      <trkpt lat="44.19633" lon="4.24531">
        <ele>130.876709</ele>
        <time>2012-05-10T15:50:28Z</time>
      </trkpt>
      <trkpt lat="44.19614" lon="4.2453">
        <ele>133.760498</ele>
        <time>2012-05-10T15:50:48Z</time>
      </trkpt>
      <trkpt lat="44.19597" lon="4.24529">
        <ele>136.16394</ele>
        <time>2012-05-10T15:51:07Z</time>
      </trkpt>
      <trkpt lat="44.1958" lon="4.24524">
        <ele>136.16394</ele>
        <time>2012-05-10T15:51:25Z</time>
      </trkpt>
      <trkpt lat="44.19565" lon="4.24526">
        <ele>137.605835</ele>
        <time>2012-05-10T15:51:42Z</time>
      </trkpt>
      <trkpt lat="44.19542" lon="4.24527">
        <ele>139.528442</ele>
        <time>2012-05-10T15:52:08Z</time>
      </trkpt>
      <trkpt lat="44.19521" lon="4.24529">
        <ele>141.931763</ele>
        <time>2012-05-10T15:52:26Z</time>
      </trkpt>
      <trkpt lat="44.19511" lon="4.24531">
        <ele>143.373657</ele>
        <time>2012-05-10T15:52:40Z</time>
      </trkpt>
      <trkpt lat="44.19497" lon="4.24546">
        <ele>144.815796</ele>
        <time>2012-05-10T15:52:56Z</time>
      </trkpt>
      <trkpt lat="44.19482" lon="4.24564">
        <ele>145.7771</ele>
        <time>2012-05-10T15:53:18Z</time>
      </trkpt>
      <trkpt lat="44.19471" lon="4.24568">
        <ele>146.738403</ele>
        <time>2012-05-10T15:53:29Z</time>
      </trkpt>
      <trkpt lat="44.19457" lon="4.2457">
        <ele>148.18042</ele>
        <time>2012-05-10T15:53:45Z</time>
      </trkpt>
      <trkpt lat="44.19442" lon="4.24577">
        <ele>148.661011</ele>
        <time>2012-05-10T15:54:02Z</time>
      </trkpt>
      <trkpt lat="44.19432" lon="4.24578">
        <ele>148.661011</ele>
        <time>2012-05-10T15:54:16Z</time>
      </trkpt>
      <trkpt lat="44.19405" lon="4.24589">
        <ele>146.738403</ele>
        <time>2012-05-10T15:54:42Z</time>
      </trkpt>
      <trkpt lat="44.19384" lon="4.24613">
        <ele>146.257813</ele>
        <time>2012-05-10T15:55:11Z</time>
      </trkpt>
      <trkpt lat="44.19382" lon="4.24598">
        <ele>144.815796</ele>
        <time>2012-05-10T15:56:54Z</time>
      </trkpt>
      <trkpt lat="44.19376" lon="4.24593">
        <ele>146.738403</ele>
        <time>2012-05-10T15:57:22Z</time>
      </trkpt>
      <trkpt lat="44.1936" lon="4.2458">
        <ele>149.141602</ele>
        <time>2012-05-10T15:57:44Z</time>
      </trkpt>
      <trkpt lat="44.19341" lon="4.24572">
        <ele>149.622314</ele>
        <time>2012-05-10T15:58:05Z</time>
      </trkpt>
      <trkpt lat="44.19324" lon="4.24565">
        <ele>149.622314</ele>
        <time>2012-05-10T15:58:23Z</time>
      </trkpt>
      <trkpt lat="44.1931" lon="4.24559">
        <ele>149.622314</ele>
        <time>2012-05-10T15:58:38Z</time>
      </trkpt>
      <trkpt lat="44.19288" lon="4.24555">
        <ele>150.583618</ele>
        <time>2012-05-10T15:58:58Z</time>
      </trkpt>
      <trkpt lat="44.19273" lon="4.2455">
        <ele>151.544922</ele>
        <time>2012-05-10T15:59:15Z</time>
      </trkpt>
      <trkpt lat="44.19256" lon="4.24548">
        <ele>152.506348</ele>
        <time>2012-05-10T15:59:33Z</time>
      </trkpt>
      <trkpt lat="44.19253" lon="4.2454">
        <ele>152.506348</ele>
        <time>2012-05-10T15:59:39Z</time>
      </trkpt>
      <trkpt lat="44.19248" lon="4.24532">
        <ele>151.544922</ele>
        <time>2012-05-10T15:59:57Z</time>
      </trkpt>
      <trkpt lat="44.19258" lon="4.24545">
        <ele>152.506348</ele>
        <time>2012-05-10T16:00:15Z</time>
      </trkpt>
      <trkpt lat="44.19245" lon="4.24549">
        <ele>154.909546</ele>
        <time>2012-05-10T16:00:33Z</time>
      </trkpt>
      <trkpt lat="44.19238" lon="4.24548">
        <ele>155.870972</ele>
        <time>2012-05-10T16:00:40Z</time>
      </trkpt>
      <trkpt lat="44.19225" lon="4.24548">
        <ele>157.312866</ele>
        <time>2012-05-10T16:00:55Z</time>
      </trkpt>
      <trkpt lat="44.19211" lon="4.24549">
        <ele>159.716187</ele>
        <time>2012-05-10T16:01:15Z</time>
      </trkpt>
      <trkpt lat="44.19217" lon="4.24557">
        <ele>160.67749</ele>
        <time>2012-05-10T16:01:27Z</time>
      </trkpt>
      <trkpt lat="44.19218" lon="4.24557">
        <ele>160.67749</ele>
        <time>2012-05-10T16:01:28Z</time>
      </trkpt>
      <trkpt lat="44.19226" lon="4.24569">
        <ele>161.638916</ele>
        <time>2012-05-10T16:01:41Z</time>
      </trkpt>
      <trkpt lat="44.19238" lon="4.24581">
        <ele>163.561523</ele>
        <time>2012-05-10T16:01:57Z</time>
      </trkpt>
      <trkpt lat="44.1925" lon="4.24594">
        <ele>165.003418</ele>
        <time>2012-05-10T16:02:13Z</time>
      </trkpt>
      <trkpt lat="44.19247" lon="4.24603">
        <ele>166.926025</ele>
        <time>2012-05-10T16:02:25Z</time>
      </trkpt>
      <trkpt lat="44.19234" lon="4.24598">
        <ele>167.887329</ele>
        <time>2012-05-10T16:02:40Z</time>
      </trkpt>
      <trkpt lat="44.19226" lon="4.24596">
        <ele>168.368042</ele>
        <time>2012-05-10T16:02:49Z</time>
      </trkpt>
      <trkpt lat="44.19223" lon="4.24597">
        <ele>168.848755</ele>
        <time>2012-05-10T16:02:52Z</time>
      </trkpt>
      <trkpt lat="44.19206" lon="4.24593">
        <ele>170.290649</ele>
        <time>2012-05-10T16:03:09Z</time>
      </trkpt>
      <trkpt lat="44.19192" lon="4.2459">
        <ele>171.732666</ele>
        <time>2012-05-10T16:03:24Z</time>
      </trkpt>
      <trkpt lat="44.19182" lon="4.24586">
        <ele>173.174683</ele>
        <time>2012-05-10T16:03:37Z</time>
      </trkpt>
      <trkpt lat="44.19169" lon="4.24582">
        <ele>175.09729</ele>
        <time>2012-05-10T16:03:52Z</time>
      </trkpt>
      <trkpt lat="44.19156" lon="4.24578">
        <ele>176.539307</ele>
        <time>2012-05-10T16:04:06Z</time>
      </trkpt>
      <trkpt lat="44.19153" lon="4.24581">
        <ele>177.50061</ele>
        <time>2012-05-10T16:04:15Z</time>
      </trkpt>
      <trkpt lat="44.19168" lon="4.24593">
        <ele>178.461914</ele>
        <time>2012-05-10T16:04:31Z</time>
      </trkpt>
      <trkpt lat="44.19179" lon="4.24605">
        <ele>179.423218</ele>
        <time>2012-05-10T16:04:46Z</time>
      </trkpt>
      <trkpt lat="44.19193" lon="4.24621">
        <ele>180.384521</ele>
        <time>2012-05-10T16:05:02Z</time>
      </trkpt>
      <trkpt lat="44.19212" lon="4.24638">
        <ele>181.345825</ele>
        <time>2012-05-10T16:05:22Z</time>
      </trkpt>
      <trkpt lat="44.19231" lon="4.24654">
        <ele>183.268433</ele>
        <time>2012-05-10T16:05:43Z</time>
      </trkpt>
      <trkpt lat="44.19243" lon="4.24668">
        <ele>184.710571</ele>
        <time>2012-05-10T16:06:02Z</time>
      </trkpt>
      <trkpt lat="44.19253" lon="4.2468">
        <ele>186.152466</ele>
        <time>2012-05-10T16:06:17Z</time>
      </trkpt>
      <trkpt lat="44.19265" lon="4.24692">
        <ele>187.59436</ele>
        <time>2012-05-10T16:06:31Z</time>
      </trkpt>
      <trkpt lat="44.19267" lon="4.24693">
        <ele>188.555786</ele>
        <time>2012-05-10T16:06:34Z</time>
      </trkpt>
      <trkpt lat="44.19278" lon="4.24707">
        <ele>189.997681</ele>
        <time>2012-05-10T16:06:49Z</time>
      </trkpt>
      <trkpt lat="44.1928" lon="4.24712">
        <ele>189.997681</ele>
        <time>2012-05-10T16:06:53Z</time>
      </trkpt>
      <trkpt lat="44.19272" lon="4.24729">
        <ele>190.958984</ele>
        <time>2012-05-10T16:07:08Z</time>
      </trkpt>
      <trkpt lat="44.19271" lon="4.2473">
        <ele>190.958984</ele>
        <time>2012-05-10T16:07:09Z</time>
      </trkpt>
      <trkpt lat="44.19268" lon="4.24732">
        <ele>190.958984</ele>
        <time>2012-05-10T16:07:11Z</time>
      </trkpt>
      <trkpt lat="44.19265" lon="4.24736">
        <ele>191.439575</ele>
        <time>2012-05-10T16:07:15Z</time>
      </trkpt>
      <trkpt lat="44.19256" lon="4.2474">
        <ele>191.439575</ele>
        <time>2012-05-10T16:07:23Z</time>
      </trkpt>
      <trkpt lat="44.19245" lon="4.24748">
        <ele>192.881714</ele>
        <time>2012-05-10T16:07:35Z</time>
      </trkpt>
      <trkpt lat="44.19234" lon="4.24753">
        <ele>193.362305</ele>
        <time>2012-05-10T16:07:45Z</time>
      </trkpt>
      <trkpt lat="44.19223" lon="4.24759">
        <ele>194.32373</ele>
        <time>2012-05-10T16:07:57Z</time>
      </trkpt>
      <trkpt lat="44.1922" lon="4.2476">
        <ele>194.32373</ele>
        <time>2012-05-10T16:07:59Z</time>
      </trkpt>
      <trkpt lat="44.19204" lon="4.24762">
        <ele>195.765625</ele>
        <time>2012-05-10T16:08:15Z</time>
      </trkpt>
      <trkpt lat="44.19195" lon="4.24763">
        <ele>196.726929</ele>
        <time>2012-05-10T16:08:26Z</time>
      </trkpt>
      <trkpt lat="44.19178" lon="4.24758">
        <ele>198.168945</ele>
        <time>2012-05-10T16:08:42Z</time>
      </trkpt>
      <trkpt lat="44.19167" lon="4.24752">
        <ele>198.649536</ele>
        <time>2012-05-10T16:08:52Z</time>
      </trkpt>
      <trkpt lat="44.19149" lon="4.24748">
        <ele>199.61084</ele>
        <time>2012-05-10T16:09:11Z</time>
      </trkpt>
      <trkpt lat="44.19143" lon="4.24749">
        <ele>200.091675</ele>
        <time>2012-05-10T16:09:17Z</time>
      </trkpt>
      <trkpt lat="44.19127" lon="4.24751">
        <ele>202.014282</ele>
        <time>2012-05-10T16:09:33Z</time>
      </trkpt>
      <trkpt lat="44.19111" lon="4.2476">
        <ele>202.975464</ele>
        <time>2012-05-10T16:09:50Z</time>
      </trkpt>
      <trkpt lat="44.19109" lon="4.2476">
        <ele>202.975464</ele>
        <time>2012-05-10T16:09:52Z</time>
      </trkpt>
      <trkpt lat="44.19105" lon="4.24762">
        <ele>202.975464</ele>
        <time>2012-05-10T16:09:56Z</time>
      </trkpt>
      <trkpt lat="44.19091" lon="4.24774">
        <ele>202.975464</ele>
        <time>2012-05-10T16:10:15Z</time>
      </trkpt>
      <trkpt lat="44.19081" lon="4.24782">
        <ele>202.975464</ele>
        <time>2012-05-10T16:10:45Z</time>
      </trkpt>
      <trkpt lat="44.19075" lon="4.24784">
        <ele>203.456177</ele>
        <time>2012-05-10T16:12:09Z</time>
      </trkpt>
      <trkpt lat="44.19069" lon="4.2479">
        <ele>203.456177</ele>
        <time>2012-05-10T16:15:36Z</time>
      </trkpt>
      <trkpt lat="44.1906" lon="4.24798">
        <ele>202.975464</ele>
        <time>2012-05-10T16:15:50Z</time>
      </trkpt>
      <trkpt lat="44.19048" lon="4.24809">
        <ele>202.494873</ele>
        <time>2012-05-10T16:16:06Z</time>
      </trkpt>
      <trkpt lat="44.19032" lon="4.24819">
        <ele>202.494873</ele>
        <time>2012-05-10T16:16:24Z</time>
      </trkpt>
      <trkpt lat="44.19016" lon="4.24829">
        <ele>202.494873</ele>
        <time>2012-05-10T16:16:43Z</time>
      </trkpt>
      <trkpt lat="44.18999" lon="4.24846">
        <ele>202.014282</ele>
        <time>2012-05-10T16:17:03Z</time>
      </trkpt>
      <trkpt lat="44.1898" lon="4.2486">
        <ele>202.494873</ele>
        <time>2012-05-10T16:17:23Z</time>
      </trkpt>
      <trkpt lat="44.18966" lon="4.24871">
        <ele>202.494873</ele>
        <time>2012-05-10T16:17:39Z</time>
      </trkpt>
      <trkpt lat="44.18952" lon="4.2488">
        <ele>202.494873</ele>
        <time>2012-05-10T16:17:54Z</time>
      </trkpt>
      <trkpt lat="44.18945" lon="4.24888">
        <ele>202.494873</ele>
        <time>2012-05-10T16:18:01Z</time>
      </trkpt>
      <trkpt lat="44.18931" lon="4.24902">
        <ele>202.494873</ele>
        <time>2012-05-10T16:18:17Z</time>
      </trkpt>
      <trkpt lat="44.18919" lon="4.2491">
        <ele>202.494873</ele>
        <time>2012-05-10T16:18:31Z</time>
      </trkpt>
      <trkpt lat="44.189" lon="4.24928">
        <ele>202.494873</ele>
        <time>2012-05-10T16:18:51Z</time>
      </trkpt>
      <trkpt lat="44.18895" lon="4.24936">
        <ele>202.975464</ele>
        <time>2012-05-10T16:19:08Z</time>
      </trkpt>
      <trkpt lat="44.18894" lon="4.24938">
        <ele>202.494873</ele>
        <time>2012-05-10T16:19:44Z</time>
      </trkpt>
      <trkpt lat="44.1889" lon="4.24957">
        <ele>202.975464</ele>
        <time>2012-05-10T16:20:00Z</time>
      </trkpt>
      <trkpt lat="44.1889" lon="4.24966">
        <ele>203.456177</ele>
        <time>2012-05-10T16:20:07Z</time>
      </trkpt>
      <trkpt lat="44.18888" lon="4.24974">
        <ele>202.494873</ele>
        <time>2012-05-10T16:20:12Z</time>
      </trkpt>
      <trkpt lat="44.18878" lon="4.24993">
        <ele>202.975464</ele>
        <time>2012-05-10T16:20:31Z</time>
      </trkpt>
      <trkpt lat="44.18871" lon="4.25">
        <ele>202.975464</ele>
        <time>2012-05-10T16:20:39Z</time>
      </trkpt>
      <trkpt lat="44.18857" lon="4.2502">
        <ele>202.975464</ele>
        <time>2012-05-10T16:21:00Z</time>
      </trkpt>
      <trkpt lat="44.18841" lon="4.25039">
        <ele>202.975464</ele>
        <time>2012-05-10T16:21:18Z</time>
      </trkpt>
      <trkpt lat="44.18833" lon="4.25049">
        <ele>202.975464</ele>
        <time>2012-05-10T16:21:30Z</time>
      </trkpt>
      <trkpt lat="44.18818" lon="4.25064">
        <ele>202.975464</ele>
        <time>2012-05-10T16:21:46Z</time>
      </trkpt>
      <trkpt lat="44.18798" lon="4.25086">
        <ele>202.975464</ele>
        <time>2012-05-10T16:22:10Z</time>
      </trkpt>
      <trkpt lat="44.18786" lon="4.251">
        <ele>202.975464</ele>
        <time>2012-05-10T16:22:25Z</time>
      </trkpt>
      <trkpt lat="44.18769" lon="4.25118">
        <ele>202.975464</ele>
        <time>2012-05-10T16:22:44Z</time>
      </trkpt>
      <trkpt lat="44.18754" lon="4.25139">
        <ele>203.456177</ele>
        <time>2012-05-10T16:23:05Z</time>
      </trkpt>
      <trkpt lat="44.18744" lon="4.25149">
        <ele>203.93689</ele>
        <time>2012-05-10T16:23:17Z</time>
      </trkpt>
      <trkpt lat="44.18733" lon="4.25147">
        <ele>203.93689</ele>
        <time>2012-05-10T16:23:33Z</time>
      </trkpt>
      <trkpt lat="44.18733" lon="4.25146">
        <ele>203.456177</ele>
        <time>2012-05-10T16:23:36Z</time>
      </trkpt>
      <trkpt lat="44.18731" lon="4.25142">
        <ele>203.456177</ele>
        <time>2012-05-10T16:23:39Z</time>
      </trkpt>
      <trkpt lat="44.18721" lon="4.25114">
        <ele>203.456177</ele>
        <time>2012-05-10T16:24:01Z</time>
      </trkpt>
      <trkpt lat="44.18714" lon="4.25109">
        <ele>203.456177</ele>
        <time>2012-05-10T16:24:09Z</time>
      </trkpt>
      <trkpt lat="44.18688" lon="4.25102">
        <ele>204.41748</ele>
        <time>2012-05-10T16:24:34Z</time>
      </trkpt>
      <trkpt lat="44.18678" lon="4.25102">
        <ele>203.93689</ele>
        <time>2012-05-10T16:24:45Z</time>
      </trkpt>
      <trkpt lat="44.18654" lon="4.251">
        <ele>204.898071</ele>
        <time>2012-05-10T16:25:06Z</time>
      </trkpt>
      <trkpt lat="44.18628" lon="4.25091">
        <ele>205.378784</ele>
        <time>2012-05-10T16:25:31Z</time>
      </trkpt>
      <trkpt lat="44.18605" lon="4.25092">
        <ele>205.859497</ele>
        <time>2012-05-10T16:25:52Z</time>
      </trkpt>
      <trkpt lat="44.18585" lon="4.25091">
        <ele>205.859497</ele>
        <time>2012-05-10T16:26:11Z</time>
      </trkpt>
      <trkpt lat="44.18568" lon="4.25097">
        <ele>206.820679</ele>
        <time>2012-05-10T16:26:28Z</time>
      </trkpt>
      <trkpt lat="44.1855" lon="4.25106">
        <ele>207.782104</ele>
        <time>2012-05-10T16:26:45Z</time>
      </trkpt>
      <trkpt lat="44.18534" lon="4.25115">
        <ele>208.743408</ele>
        <time>2012-05-10T16:27:01Z</time>
      </trkpt>
      <trkpt lat="44.18523" lon="4.25124">
        <ele>210.185425</ele>
        <time>2012-05-10T16:27:17Z</time>
      </trkpt>
      <trkpt lat="44.18508" lon="4.25133">
        <ele>212.108032</ele>
        <time>2012-05-10T16:27:35Z</time>
      </trkpt>
      <trkpt lat="44.18502" lon="4.25134">
        <ele>212.588623</ele>
        <time>2012-05-10T16:27:40Z</time>
      </trkpt>
      <trkpt lat="44.18486" lon="4.25138">
        <ele>213.550049</ele>
        <time>2012-05-10T16:27:54Z</time>
      </trkpt>
      <trkpt lat="44.18465" lon="4.25143">
        <ele>214.51123</ele>
        <time>2012-05-10T16:28:13Z</time>
      </trkpt>
      <trkpt lat="44.18443" lon="4.25142">
        <ele>214.991943</ele>
        <time>2012-05-10T16:28:35Z</time>
      </trkpt>
      <trkpt lat="44.18427" lon="4.25137">
        <ele>215.953247</ele>
        <time>2012-05-10T16:28:50Z</time>
      </trkpt>
      <trkpt lat="44.18413" lon="4.25128">
        <ele>216.914673</ele>
        <time>2012-05-10T16:29:06Z</time>
      </trkpt>
      <trkpt lat="44.1841" lon="4.25126">
        <ele>216.914673</ele>
        <time>2012-05-10T16:29:09Z</time>
      </trkpt>
      <trkpt lat="44.18405" lon="4.25124">
        <ele>216.914673</ele>
        <time>2012-05-10T16:29:13Z</time>
      </trkpt>
      <trkpt lat="44.18403" lon="4.25122">
        <ele>217.395386</ele>
        <time>2012-05-10T16:29:15Z</time>
      </trkpt>
      <trkpt lat="44.18393" lon="4.25116">
        <ele>217.875977</ele>
        <time>2012-05-10T16:29:26Z</time>
      </trkpt>
      <trkpt lat="44.18376" lon="4.25104">
        <ele>219.317993</ele>
        <time>2012-05-10T16:29:44Z</time>
      </trkpt>
      <trkpt lat="44.18364" lon="4.25096">
        <ele>219.798584</ele>
        <time>2012-05-10T16:29:56Z</time>
      </trkpt>
      <trkpt lat="44.1835" lon="4.25088">
        <ele>220.759888</ele>
        <time>2012-05-10T16:30:13Z</time>
      </trkpt>
      <trkpt lat="44.18332" lon="4.25077">
        <ele>222.201782</ele>
        <time>2012-05-10T16:30:31Z</time>
      </trkpt>
      <trkpt lat="44.18317" lon="4.2505">
        <ele>222.682495</ele>
        <time>2012-05-10T16:30:55Z</time>
      </trkpt>
      <trkpt lat="44.18308" lon="4.25029">
        <ele>225.085938</ele>
        <time>2012-05-10T16:31:13Z</time>
      </trkpt>
      <trkpt lat="44.18305" lon="4.25025">
        <ele>225.566528</ele>
        <time>2012-05-10T16:31:18Z</time>
      </trkpt>
      <trkpt lat="44.18297" lon="4.25013">
        <ele>226.047119</ele>
        <time>2012-05-10T16:31:28Z</time>
      </trkpt>
      <trkpt lat="44.18291" lon="4.24997">
        <ele>226.527832</ele>
        <time>2012-05-10T16:31:41Z</time>
      </trkpt>
      <trkpt lat="44.18288" lon="4.2498">
        <ele>226.527832</ele>
        <time>2012-05-10T16:31:58Z</time>
      </trkpt>
      <trkpt lat="44.18289" lon="4.24979">
        <ele>227.008545</ele>
        <time>2012-05-10T16:34:04Z</time>
      </trkpt>
      <trkpt lat="44.18285" lon="4.24965">
        <ele>226.527832</ele>
        <time>2012-05-10T16:34:19Z</time>
      </trkpt>
      <trkpt lat="44.18279" lon="4.2496">
        <ele>227.008545</ele>
        <time>2012-05-10T16:34:28Z</time>
      </trkpt>
      <trkpt lat="44.18268" lon="4.24949">
        <ele>227.489136</ele>
        <time>2012-05-10T16:34:43Z</time>
      </trkpt>
      <trkpt lat="44.18267" lon="4.24947">
        <ele>227.489136</ele>
        <time>2012-05-10T16:34:45Z</time>
      </trkpt>
      <trkpt lat="44.18249" lon="4.24932">
        <ele>227.969727</ele>
        <time>2012-05-10T16:35:05Z</time>
      </trkpt>
      <trkpt lat="44.18239" lon="4.24921">
        <ele>228.931152</ele>
        <time>2012-05-10T16:35:21Z</time>
      </trkpt>
      <trkpt lat="44.18241" lon="4.24922">
        <ele>228.931152</ele>
        <time>2012-05-10T16:35:43Z</time>
      </trkpt>
      <trkpt lat="44.18245" lon="4.24924">
        <ele>228.931152</ele>
        <time>2012-05-10T16:36:50Z</time>
      </trkpt>
      <trkpt lat="44.18254" lon="4.24931">
        <ele>228.931152</ele>
        <time>2012-05-10T16:37:15Z</time>
      </trkpt>
      <trkpt lat="44.18249" lon="4.24926">
        <ele>228.931152</ele>
        <time>2012-05-10T16:37:53Z</time>
      </trkpt>
      <trkpt lat="44.18233" lon="4.24913">
        <ele>229.892334</ele>
        <time>2012-05-10T16:38:10Z</time>
      </trkpt>
      <trkpt lat="44.18223" lon="4.24901">
        <ele>230.373047</ele>
        <time>2012-05-10T16:38:23Z</time>
      </trkpt>
      <trkpt lat="44.18219" lon="4.24887">
        <ele>230.85376</ele>
        <time>2012-05-10T16:38:33Z</time>
      </trkpt>
      <trkpt lat="44.18217" lon="4.24865">
        <ele>231.814941</ele>
        <time>2012-05-10T16:38:48Z</time>
      </trkpt>
      <trkpt lat="44.18217" lon="4.24853">
        <ele>232.295776</ele>
        <time>2012-05-10T16:38:56Z</time>
      </trkpt>
      <trkpt lat="44.18218" lon="4.24849">
        <ele>232.776489</ele>
        <time>2012-05-10T16:38:59Z</time>
      </trkpt>
      <trkpt lat="44.18229" lon="4.24816">
        <ele>234.218384</ele>
        <time>2012-05-10T16:39:23Z</time>
      </trkpt>
      <trkpt lat="44.1824" lon="4.2479">
        <ele>235.179688</ele>
        <time>2012-05-10T16:39:44Z</time>
      </trkpt>
      <trkpt lat="44.18249" lon="4.24758">
        <ele>235.179688</ele>
        <time>2012-05-10T16:40:08Z</time>
      </trkpt>
      <trkpt lat="44.18237" lon="4.24728">
        <ele>234.699097</ele>
        <time>2012-05-10T16:40:31Z</time>
      </trkpt>
      <trkpt lat="44.18224" lon="4.24704">
        <ele>234.699097</ele>
        <time>2012-05-10T16:40:50Z</time>
      </trkpt>
      <trkpt lat="44.18214" lon="4.24688">
        <ele>233.737671</ele>
        <time>2012-05-10T16:41:05Z</time>
      </trkpt>
      <trkpt lat="44.18206" lon="4.24677">
        <ele>233.25708</ele>
        <time>2012-05-10T16:41:14Z</time>
      </trkpt>
      <trkpt lat="44.18203" lon="4.24672">
        <ele>232.776489</ele>
        <time>2012-05-10T16:41:18Z</time>
      </trkpt>
      <trkpt lat="44.18191" lon="4.24655">
        <ele>231.814941</ele>
        <time>2012-05-10T16:41:35Z</time>
      </trkpt>
      <trkpt lat="44.18174" lon="4.2463">
        <ele>232.295776</ele>
        <time>2012-05-10T16:41:54Z</time>
      </trkpt>
      <trkpt lat="44.18163" lon="4.24613">
        <ele>230.373047</ele>
        <time>2012-05-10T16:42:10Z</time>
      </trkpt>
      <trkpt lat="44.1816" lon="4.24607">
        <ele>229.892334</ele>
        <time>2012-05-10T16:42:15Z</time>
      </trkpt>
      <trkpt lat="44.18142" lon="4.24587">
        <ele>228.450439</ele>
        <time>2012-05-10T16:42:35Z</time>
      </trkpt>
      <trkpt lat="44.18135" lon="4.24574">
        <ele>227.489136</ele>
        <time>2012-05-10T16:42:46Z</time>
      </trkpt>
      <trkpt lat="44.18133" lon="4.24566">
        <ele>227.008545</ele>
        <time>2012-05-10T16:42:52Z</time>
      </trkpt>
      <trkpt lat="44.18132" lon="4.24562">
        <ele>226.527832</ele>
        <time>2012-05-10T16:42:55Z</time>
      </trkpt>
      <trkpt lat="44.18126" lon="4.24533">
        <ele>223.643799</ele>
        <time>2012-05-10T16:43:16Z</time>
      </trkpt>
      <trkpt lat="44.18124" lon="4.2452">
        <ele>222.201782</ele>
        <time>2012-05-10T16:43:25Z</time>
      </trkpt>
      <trkpt lat="44.18121" lon="4.24508">
        <ele>221.240601</ele>
        <time>2012-05-10T16:43:34Z</time>
      </trkpt>
      <trkpt lat="44.1812" lon="4.24505">
        <ele>220.759888</ele>
        <time>2012-05-10T16:43:36Z</time>
      </trkpt>
      <trkpt lat="44.18119" lon="4.24502">
        <ele>220.759888</ele>
        <time>2012-05-10T16:43:39Z</time>
      </trkpt>
      <trkpt lat="44.18118" lon="4.24498">
        <ele>220.279175</ele>
        <time>2012-05-10T16:43:42Z</time>
      </trkpt>
      <trkpt lat="44.18117" lon="4.24495">
        <ele>219.798584</ele>
        <time>2012-05-10T16:43:44Z</time>
      </trkpt>
      <trkpt lat="44.18117" lon="4.24487">
        <ele>219.317993</ele>
        <time>2012-05-10T16:43:49Z</time>
      </trkpt>
      <trkpt lat="44.18116" lon="4.24477">
        <ele>217.875977</ele>
        <time>2012-05-10T16:43:57Z</time>
      </trkpt>
      <trkpt lat="44.18113" lon="4.24451">
        <ele>215.472656</ele>
        <time>2012-05-10T16:44:17Z</time>
      </trkpt>
      <trkpt lat="44.1811" lon="4.24426">
        <ele>213.069336</ele>
        <time>2012-05-10T16:44:35Z</time>
      </trkpt>
      <trkpt lat="44.18099" lon="4.24402">
        <ele>210.666016</ele>
        <time>2012-05-10T16:44:55Z</time>
      </trkpt>
      <trkpt lat="44.18091" lon="4.24387">
        <ele>208.262817</ele>
        <time>2012-05-10T16:45:09Z</time>
      </trkpt>
      <trkpt lat="44.18085" lon="4.24368">
        <ele>206.340088</ele>
        <time>2012-05-10T16:45:23Z</time>
      </trkpt>
      <trkpt lat="44.1808" lon="4.24351">
        <ele>204.41748</ele>
        <time>2012-05-10T16:45:37Z</time>
      </trkpt>
      <trkpt lat="44.18077" lon="4.24341">
        <ele>203.456177</ele>
        <time>2012-05-10T16:45:44Z</time>
      </trkpt>
      <trkpt lat="44.18074" lon="4.24333">
        <ele>202.494873</ele>
        <time>2012-05-10T16:45:51Z</time>
      </trkpt>
      <trkpt lat="44.18069" lon="4.24322">
        <ele>201.533569</ele>
        <time>2012-05-10T16:46:01Z</time>
      </trkpt>
      <trkpt lat="44.18067" lon="4.24318">
        <ele>200.572266</ele>
        <time>2012-05-10T16:46:05Z</time>
      </trkpt>
      <trkpt lat="44.18058" lon="4.243">
        <ele>199.61084</ele>
        <time>2012-05-10T16:46:19Z</time>
      </trkpt>
      <trkpt lat="44.18038" lon="4.24263">
        <ele>196.726929</ele>
        <time>2012-05-10T16:46:48Z</time>
      </trkpt>
      <trkpt lat="44.18032" lon="4.24243">
        <ele>195.284912</ele>
        <time>2012-05-10T16:47:03Z</time>
      </trkpt>
      <trkpt lat="44.18028" lon="4.24233">
        <ele>193.843018</ele>
        <time>2012-05-10T16:47:11Z</time>
      </trkpt>
      <trkpt lat="44.18023" lon="4.2422">
        <ele>193.362305</ele>
        <time>2012-05-10T16:47:20Z</time>
      </trkpt>
      <trkpt lat="44.1801" lon="4.24202">
        <ele>191.439575</ele>
        <time>2012-05-10T16:47:37Z</time>
      </trkpt>
      <trkpt lat="44.18005" lon="4.24199">
        <ele>189.997681</ele>
        <time>2012-05-10T16:47:42Z</time>
      </trkpt>
      <trkpt lat="44.17988" lon="4.24205">
        <ele>189.036377</ele>
        <time>2012-05-10T16:48:00Z</time>
      </trkpt>
      <trkpt lat="44.17974" lon="4.24211">
        <ele>187.11377</ele>
        <time>2012-05-10T16:48:16Z</time>
      </trkpt>
      <trkpt lat="44.17972" lon="4.24211">
        <ele>186.633179</ele>
        <time>2012-05-10T16:48:18Z</time>
      </trkpt>
      <trkpt lat="44.17965" lon="4.24198">
        <ele>184.710571</ele>
        <time>2012-05-10T16:48:31Z</time>
      </trkpt>
      <trkpt lat="44.17965" lon="4.24177">
        <ele>182.307129</ele>
        <time>2012-05-10T16:48:46Z</time>
      </trkpt>
      <trkpt lat="44.17965" lon="4.24145">
        <ele>179.423218</ele>
        <time>2012-05-10T16:49:08Z</time>
      </trkpt>
      <trkpt lat="44.17964" lon="4.24137">
        <ele>177.981201</ele>
        <time>2012-05-10T16:49:14Z</time>
      </trkpt>
      <trkpt lat="44.17963" lon="4.24121">
        <ele>176.058594</ele>
        <time>2012-05-10T16:49:26Z</time>
      </trkpt>
      <trkpt lat="44.17959" lon="4.24116">
        <ele>175.577881</ele>
        <time>2012-05-10T16:49:31Z</time>
      </trkpt>
      <trkpt lat="44.17956" lon="4.24113">
        <ele>174.616577</ele>
        <time>2012-05-10T16:49:34Z</time>
      </trkpt>
      <trkpt lat="44.1795" lon="4.24117">
        <ele>174.135864</ele>
        <time>2012-05-10T16:49:41Z</time>
      </trkpt>
      <trkpt lat="44.17936" lon="4.24136">
        <ele>171.732666</ele>
        <time>2012-05-10T16:50:00Z</time>
      </trkpt>
      <trkpt lat="44.17926" lon="4.24139">
        <ele>169.810059</ele>
        <time>2012-05-10T16:50:11Z</time>
      </trkpt>
      <trkpt lat="44.17922" lon="4.24131">
        <ele>168.368042</ele>
        <time>2012-05-10T16:50:19Z</time>
      </trkpt>
      <trkpt lat="44.17921" lon="4.24121">
        <ele>166.926025</ele>
        <time>2012-05-10T16:50:28Z</time>
      </trkpt>
      <trkpt lat="44.17922" lon="4.24108">
        <ele>165.964722</ele>
        <time>2012-05-10T16:50:38Z</time>
      </trkpt>
      <trkpt lat="44.17924" lon="4.24078">
        <ele>162.600098</ele>
        <time>2012-05-10T16:50:59Z</time>
      </trkpt>
      <trkpt lat="44.17932" lon="4.24054">
        <ele>160.196899</ele>
        <time>2012-05-10T16:51:18Z</time>
      </trkpt>
      <trkpt lat="44.1794" lon="4.24032">
        <ele>158.754761</ele>
        <time>2012-05-10T16:51:35Z</time>
      </trkpt>
      <trkpt lat="44.17951" lon="4.24008">
        <ele>155.390259</ele>
        <time>2012-05-10T16:51:56Z</time>
      </trkpt>
      <trkpt lat="44.17952" lon="4.24003">
        <ele>154.909546</ele>
        <time>2012-05-10T16:52:00Z</time>
      </trkpt>
      <trkpt lat="44.17948" lon="4.23995">
        <ele>153.948364</ele>
        <time>2012-05-10T16:52:07Z</time>
      </trkpt>
      <trkpt lat="44.17944" lon="4.23996">
        <ele>153.467651</ele>
        <time>2012-05-10T16:52:11Z</time>
      </trkpt>
      <trkpt lat="44.17932" lon="4.24006">
        <ele>151.544922</ele>
        <time>2012-05-10T16:52:24Z</time>
      </trkpt>
      <trkpt lat="44.17913" lon="4.24016">
        <ele>150.103027</ele>
        <time>2012-05-10T16:52:43Z</time>
      </trkpt>
      <trkpt lat="44.17893" lon="4.24016">
        <ele>146.738403</ele>
        <time>2012-05-10T16:53:03Z</time>
      </trkpt>
      <trkpt lat="44.17869" lon="4.2402">
        <ele>145.296387</ele>
        <time>2012-05-10T16:53:24Z</time>
      </trkpt>
      <trkpt lat="44.17852" lon="4.24018">
        <ele>144.335205</ele>
        <time>2012-05-10T16:53:40Z</time>
      </trkpt>
      <trkpt lat="44.17841" lon="4.24013">
        <ele>144.815796</ele>
        <time>2012-05-10T16:53:53Z</time>
      </trkpt>
      <trkpt lat="44.17839" lon="4.24009">
        <ele>144.335205</ele>
        <time>2012-05-10T16:53:56Z</time>
      </trkpt>
      <trkpt lat="44.17838" lon="4.24005">
        <ele>143.85437</ele>
        <time>2012-05-10T16:54:00Z</time>
      </trkpt>
      <trkpt lat="44.17837" lon="4.23998">
        <ele>143.373657</ele>
        <time>2012-05-10T16:54:04Z</time>
      </trkpt>
      <trkpt lat="44.17839" lon="4.23996">
        <ele>143.373657</ele>
        <time>2012-05-10T16:54:06Z</time>
      </trkpt>
      <trkpt lat="44.17837" lon="4.23989">
        <ele>144.335205</ele>
        <time>2012-05-10T16:54:22Z</time>
      </trkpt>
      <trkpt lat="44.17837" lon="4.2399">
        <ele>144.335205</ele>
        <time>2012-05-10T16:55:20Z</time>
      </trkpt>
      <trkpt lat="44.17837" lon="4.23991">
        <ele>144.815796</ele>
        <time>2012-05-10T16:57:47Z</time>
      </trkpt>
      <trkpt lat="44.17835" lon="4.23977">
        <ele>146.257813</ele>
        <time>2012-05-10T16:58:49Z</time>
      </trkpt>
      <trkpt lat="44.1783" lon="4.23966">
        <ele>147.699707</ele>
        <time>2012-05-10T16:59:04Z</time>
      </trkpt>
      <trkpt lat="44.17823" lon="4.2396">
        <ele>148.661011</ele>
        <time>2012-05-10T16:59:13Z</time>
      </trkpt>
      <trkpt lat="44.17821" lon="4.23959">
        <ele>148.661011</ele>
        <time>2012-05-10T16:59:15Z</time>
      </trkpt>
      <trkpt lat="44.17817" lon="4.23955">
        <ele>149.141602</ele>
        <time>2012-05-10T16:59:20Z</time>
      </trkpt>
      <trkpt lat="44.178" lon="4.23946">
        <ele>149.141602</ele>
        <time>2012-05-10T16:59:38Z</time>
      </trkpt>
      <trkpt lat="44.17783" lon="4.23931">
        <ele>148.18042</ele>
        <time>2012-05-10T16:59:59Z</time>
      </trkpt>
      <trkpt lat="44.17768" lon="4.23914">
        <ele>147.699707</ele>
        <time>2012-05-10T17:00:19Z</time>
      </trkpt>
      <trkpt lat="44.17753" lon="4.23901">
        <ele>148.18042</ele>
        <time>2012-05-10T17:00:36Z</time>
      </trkpt>
      <trkpt lat="44.17744" lon="4.23898">
        <ele>148.661011</ele>
        <time>2012-05-10T17:00:45Z</time>
      </trkpt>
      <trkpt lat="44.17736" lon="4.23888">
        <ele>148.661011</ele>
        <time>2012-05-10T17:01:00Z</time>
      </trkpt>
      <trkpt lat="44.17736" lon="4.23888">
        <ele>149.141602</ele>
        <time>2012-05-10T17:01:26Z</time>
      </trkpt>
      <trkpt lat="44.17736" lon="4.23888">
        <ele>150.583618</ele>
        <time>2012-05-10T17:01:34Z</time>
      </trkpt>
      <trkpt lat="44.17736" lon="4.23888">
        <ele>148.661011</ele>
        <time>2012-05-10T17:01:36Z</time>
      </trkpt>
      <trkpt lat="44.17735" lon="4.23888">
        <ele>144.815796</ele>
        <time>2012-05-10T17:01:49Z</time>
      </trkpt>
      <trkpt lat="44.17735" lon="4.23888">
        <ele>149.141602</ele>
        <time>2012-05-10T17:01:50Z</time>
      </trkpt>
      <trkpt lat="44.17735" lon="4.23887">
        <ele>149.141602</ele>
        <time>2012-05-10T17:02:05Z</time>
      </trkpt>
    </trkseg>
  </trk>
</gpx>